<?xml version="1.0" encoding="UTF-8" standalone="no" ?><gpx xmlns="http://www.topografix.com/GPX/1/1" xmlns:gpxx="http://www.garmin.com/xmlschemas/GpxExtensions/v3" xmlns:wptx1="http://www.garmin.com/xmlschemas/WaypointExtension/v1" xmlns:gpxtpx="http://www.garmin.com/xmlschemas/TrackPointExtension/v1" creator="GuideVTT.com" version="1.1" xmlns:xsi="http://www.w3.org/2001/XMLSchema-instance" xsi:schemaLocation="http://www.topografix.com/GPX/1/1 http://www.topografix.com/GPX/1/1/gpx.xsd http://www.garmin.com/xmlschemas/GpxExtensions/v3 http://www8.garmin.com/xmlschemas/GpxExtensionsv3.xsd http://www.garmin.com/xmlschemas/WaypointExtension/v1 http://www8.garmin.com/xmlschemas/WaypointExtensionv1.xsd http://www.garmin.com/xmlschemas/TrackPointExtension/v1 http://www.garmin.com/xmlschemas/TrackPointExtensionv1.xsd">
<metadata><link href="http://www.garmin.com"><text>Garmin International</text></link><time>2013-06-22T15:13:50Z</time></metadata>
<trk><name>chatel-bulle.gpx</name><extensions><gpxx:TrackExtension><gpxx:DisplayColor>Cyan</gpxx:DisplayColor></gpxx:TrackExtension></extensions><trkseg>
<trkpt lat="46.525826" lon="6.900273"><ele></ele><time>2014-4-1T3:45:42Z</time></trkpt>
<trkpt lat="46.526203" lon="6.900406"><ele></ele><time>2014-4-1T3:45:45Z</time></trkpt>
<trkpt lat="46.526539" lon="6.900653"><ele></ele><time>2014-4-1T3:45:48Z</time></trkpt>
<trkpt lat="46.526833" lon="6.900963"><ele></ele><time>2014-4-1T3:45:51Z</time></trkpt>
<trkpt lat="46.526917" lon="6.901394"><ele></ele><time>2014-4-1T3:45:54Z</time></trkpt>
<trkpt lat="46.526886" lon="6.901754"><ele></ele><time>2014-4-1T3:45:57Z</time></trkpt>
<trkpt lat="46.526760" lon="6.902045"><ele></ele><time>2014-4-1T3:46:0Z</time></trkpt>
<trkpt lat="46.526722" lon="6.902426"><ele></ele><time>2014-4-1T3:46:3Z</time></trkpt>
<trkpt lat="46.526936" lon="6.902836"><ele></ele><time>2014-4-1T3:46:6Z</time></trkpt>
<trkpt lat="46.526897" lon="6.903271"><ele></ele><time>2014-4-1T3:46:9Z</time></trkpt>
<trkpt lat="46.526714" lon="6.903672"><ele></ele><time>2014-4-1T3:46:12Z</time></trkpt>
<trkpt lat="46.526520" lon="6.903991"><ele></ele><time>2014-4-1T3:46:15Z</time></trkpt>
<trkpt lat="46.526279" lon="6.904374"><ele></ele><time>2014-4-1T3:46:18Z</time></trkpt>
<trkpt lat="46.526096" lon="6.904732"><ele></ele><time>2014-4-1T3:46:21Z</time></trkpt>
<trkpt lat="46.525982" lon="6.905152"><ele></ele><time>2014-4-1T3:46:24Z</time></trkpt>
<trkpt lat="46.525921" lon="6.905602"><ele></ele><time>2014-4-1T3:46:27Z</time></trkpt>
<trkpt lat="46.525864" lon="6.906020"><ele></ele><time>2014-4-1T3:46:30Z</time></trkpt>
<trkpt lat="46.525837" lon="6.906425"><ele></ele><time>2014-4-1T3:46:33Z</time></trkpt>
<trkpt lat="46.525799" lon="6.906799"><ele></ele><time>2014-4-1T3:46:36Z</time></trkpt>
<trkpt lat="46.525757" lon="6.907142"><ele></ele><time>2014-4-1T3:46:39Z</time></trkpt>
<trkpt lat="46.525726" lon="6.907429"><ele></ele><time>2014-4-1T3:46:42Z</time></trkpt>
<trkpt lat="46.525700" lon="6.907704"><ele></ele><time>2014-4-1T3:46:45Z</time></trkpt>
<trkpt lat="46.525669" lon="6.907979"><ele></ele><time>2014-4-1T3:46:48Z</time></trkpt>
<trkpt lat="46.525608" lon="6.908245"><ele></ele><time>2014-4-1T3:46:51Z</time></trkpt>
<trkpt lat="46.525589" lon="6.908522"><ele></ele><time>2014-4-1T3:46:54Z</time></trkpt>
<trkpt lat="46.525547" lon="6.908782"><ele></ele><time>2014-4-1T3:46:57Z</time></trkpt>
<trkpt lat="46.525497" lon="6.909051"><ele></ele><time>2014-4-1T3:47:0Z</time></trkpt>
<trkpt lat="46.525410" lon="6.909285"><ele></ele><time>2014-4-1T3:47:3Z</time></trkpt>
<trkpt lat="46.525299" lon="6.909498"><ele></ele><time>2014-4-1T3:47:6Z</time></trkpt>
<trkpt lat="46.525173" lon="6.909700"><ele></ele><time>2014-4-1T3:47:9Z</time></trkpt>
<trkpt lat="46.525043" lon="6.909902"><ele></ele><time>2014-4-1T3:47:12Z</time></trkpt>
<trkpt lat="46.524887" lon="6.910089"><ele></ele><time>2014-4-1T3:47:15Z</time></trkpt>
<trkpt lat="46.524742" lon="6.910278"><ele></ele><time>2014-4-1T3:47:18Z</time></trkpt>
<trkpt lat="46.524593" lon="6.910476"><ele></ele><time>2014-4-1T3:47:21Z</time></trkpt>
<trkpt lat="46.524479" lon="6.910689"><ele></ele><time>2014-4-1T3:47:24Z</time></trkpt>
<trkpt lat="46.524387" lon="6.910920"><ele></ele><time>2014-4-1T3:47:27Z</time></trkpt>
<trkpt lat="46.524349" lon="6.911201"><ele></ele><time>2014-4-1T3:47:30Z</time></trkpt>
<trkpt lat="46.524330" lon="6.911509"><ele></ele><time>2014-4-1T3:47:33Z</time></trkpt>
<trkpt lat="46.524319" lon="6.911883"><ele></ele><time>2014-4-1T3:47:36Z</time></trkpt>
<trkpt lat="46.524303" lon="6.912278"><ele></ele><time>2014-4-1T3:47:39Z</time></trkpt>
<trkpt lat="46.524227" lon="6.912661"><ele></ele><time>2014-4-1T3:47:42Z</time></trkpt>
<trkpt lat="46.524025" lon="6.912981"><ele></ele><time>2014-4-1T3:47:45Z</time></trkpt>
<trkpt lat="46.523788" lon="6.913266"><ele></ele><time>2014-4-1T3:47:48Z</time></trkpt>
<trkpt lat="46.523785" lon="6.913684"><ele></ele><time>2014-4-1T3:47:51Z</time></trkpt>
<trkpt lat="46.523895" lon="6.913966"><ele></ele><time>2014-4-1T3:47:54Z</time></trkpt>
<trkpt lat="46.524010" lon="6.914170"><ele></ele><time>2014-4-1T3:47:57Z</time></trkpt>
<trkpt lat="46.524105" lon="6.914348"><ele></ele><time>2014-4-1T3:48:0Z</time></trkpt>
<trkpt lat="46.524223" lon="6.914512"><ele></ele><time>2014-4-1T3:48:3Z</time></trkpt>
<trkpt lat="46.524315" lon="6.914660"><ele></ele><time>2014-4-1T3:48:6Z</time></trkpt>
<trkpt lat="46.524422" lon="6.914772"><ele></ele><time>2014-4-1T3:48:9Z</time></trkpt>
<trkpt lat="46.524529" lon="6.914873"><ele></ele><time>2014-4-1T3:48:12Z</time></trkpt>
<trkpt lat="46.524635" lon="6.914961"><ele></ele><time>2014-4-1T3:48:15Z</time></trkpt>
<trkpt lat="46.524742" lon="6.915057"><ele></ele><time>2014-4-1T3:48:18Z</time></trkpt>
<trkpt lat="46.524879" lon="6.915119"><ele></ele><time>2014-4-1T3:48:21Z</time></trkpt>
<trkpt lat="46.524979" lon="6.915215"><ele></ele><time>2014-4-1T3:48:24Z</time></trkpt>
<trkpt lat="46.525063" lon="6.915324"><ele></ele><time>2014-4-1T3:48:27Z</time></trkpt>
<trkpt lat="46.525124" lon="6.915447"><ele></ele><time>2014-4-1T3:48:30Z</time></trkpt>
<trkpt lat="46.525177" lon="6.915564"><ele></ele><time>2014-4-1T3:48:33Z</time></trkpt>
<trkpt lat="46.525208" lon="6.915710"><ele></ele><time>2014-4-1T3:48:36Z</time></trkpt>
<trkpt lat="46.525230" lon="6.915838"><ele></ele><time>2014-4-1T3:48:39Z</time></trkpt>
<trkpt lat="46.525249" lon="6.915987"><ele></ele><time>2014-4-1T3:48:42Z</time></trkpt>
<trkpt lat="46.525269" lon="6.916139"><ele></ele><time>2014-4-1T3:48:45Z</time></trkpt>
<trkpt lat="46.525280" lon="6.916290"><ele></ele><time>2014-4-1T3:48:48Z</time></trkpt>
<trkpt lat="46.525299" lon="6.916428"><ele></ele><time>2014-4-1T3:48:51Z</time></trkpt>
<trkpt lat="46.525314" lon="6.916572"><ele></ele><time>2014-4-1T3:48:54Z</time></trkpt>
<trkpt lat="46.525322" lon="6.916724"><ele></ele><time>2014-4-1T3:48:57Z</time></trkpt>
<trkpt lat="46.525330" lon="6.916875"><ele></ele><time>2014-4-1T3:49:0Z</time></trkpt>
<trkpt lat="46.525330" lon="6.917028"><ele></ele><time>2014-4-1T3:49:3Z</time></trkpt>
<trkpt lat="46.525318" lon="6.917205"><ele></ele><time>2014-4-1T3:49:6Z</time></trkpt>
<trkpt lat="46.525291" lon="6.917349"><ele></ele><time>2014-4-1T3:49:9Z</time></trkpt>
<trkpt lat="46.525272" lon="6.917482"><ele></ele><time>2014-4-1T3:49:12Z</time></trkpt>
<trkpt lat="46.525246" lon="6.917607"><ele></ele><time>2014-4-1T3:49:15Z</time></trkpt>
<trkpt lat="46.525219" lon="6.917754"><ele></ele><time>2014-4-1T3:49:18Z</time></trkpt>
<trkpt lat="46.525219" lon="6.917906"><ele></ele><time>2014-4-1T3:49:21Z</time></trkpt>
<trkpt lat="46.525200" lon="6.918073"><ele></ele><time>2014-4-1T3:49:24Z</time></trkpt>
<trkpt lat="46.525181" lon="6.918260"><ele></ele><time>2014-4-1T3:49:27Z</time></trkpt>
<trkpt lat="46.525162" lon="6.918445"><ele></ele><time>2014-4-1T3:49:30Z</time></trkpt>
<trkpt lat="46.525139" lon="6.918613"><ele></ele><time>2014-4-1T3:49:33Z</time></trkpt>
<trkpt lat="46.525116" lon="6.918763"><ele></ele><time>2014-4-1T3:49:36Z</time></trkpt>
<trkpt lat="46.525082" lon="6.918929"><ele></ele><time>2014-4-1T3:49:39Z</time></trkpt>
<trkpt lat="46.525055" lon="6.919100"><ele></ele><time>2014-4-1T3:49:42Z</time></trkpt>
<trkpt lat="46.525017" lon="6.919256"><ele></ele><time>2014-4-1T3:49:45Z</time></trkpt>
<trkpt lat="46.524979" lon="6.919414"><ele></ele><time>2014-4-1T3:49:48Z</time></trkpt>
<trkpt lat="46.524944" lon="6.919584"><ele></ele><time>2014-4-1T3:49:51Z</time></trkpt>
<trkpt lat="46.524921" lon="6.919747"><ele></ele><time>2014-4-1T3:49:54Z</time></trkpt>
<trkpt lat="46.524902" lon="6.919907"><ele></ele><time>2014-4-1T3:49:57Z</time></trkpt>
<trkpt lat="46.524899" lon="6.920055"><ele></ele><time>2014-4-1T3:50:0Z</time></trkpt>
<trkpt lat="46.524895" lon="6.920200"><ele></ele><time>2014-4-1T3:50:3Z</time></trkpt>
<trkpt lat="46.524891" lon="6.920351"><ele></ele><time>2014-4-1T3:50:6Z</time></trkpt>
<trkpt lat="46.524902" lon="6.920497"><ele></ele><time>2014-4-1T3:50:9Z</time></trkpt>
<trkpt lat="46.524921" lon="6.920640"><ele></ele><time>2014-4-1T3:50:12Z</time></trkpt>
<trkpt lat="46.524929" lon="6.920777"><ele></ele><time>2014-4-1T3:50:15Z</time></trkpt>
<trkpt lat="46.524948" lon="6.920907"><ele></ele><time>2014-4-1T3:50:18Z</time></trkpt>
<trkpt lat="46.524960" lon="6.921043"><ele></ele><time>2014-4-1T3:50:21Z</time></trkpt>
<trkpt lat="46.524975" lon="6.921183"><ele></ele><time>2014-4-1T3:50:24Z</time></trkpt>
<trkpt lat="46.524990" lon="6.921326"><ele></ele><time>2014-4-1T3:50:27Z</time></trkpt>
<trkpt lat="46.525005" lon="6.921467"><ele></ele><time>2014-4-1T3:50:30Z</time></trkpt>
<trkpt lat="46.525021" lon="6.921607"><ele></ele><time>2014-4-1T3:50:33Z</time></trkpt>
<trkpt lat="46.525032" lon="6.921747"><ele></ele><time>2014-4-1T3:50:36Z</time></trkpt>
<trkpt lat="46.525047" lon="6.921893"><ele></ele><time>2014-4-1T3:50:39Z</time></trkpt>
<trkpt lat="46.525059" lon="6.922029"><ele></ele><time>2014-4-1T3:50:42Z</time></trkpt>
<trkpt lat="46.525078" lon="6.922173"><ele></ele><time>2014-4-1T3:50:45Z</time></trkpt>
<trkpt lat="46.525112" lon="6.922314"><ele></ele><time>2014-4-1T3:50:48Z</time></trkpt>
<trkpt lat="46.525135" lon="6.922443"><ele></ele><time>2014-4-1T3:50:51Z</time></trkpt>
<trkpt lat="46.525162" lon="6.922570"><ele></ele><time>2014-4-1T3:50:54Z</time></trkpt>
<trkpt lat="46.525181" lon="6.922685"><ele></ele><time>2014-4-1T3:50:57Z</time></trkpt>
<trkpt lat="46.525200" lon="6.922807"><ele></ele><time>2014-4-1T3:51:0Z</time></trkpt>
<trkpt lat="46.525208" lon="6.922936"><ele></ele><time>2014-4-1T3:51:3Z</time></trkpt>
<trkpt lat="46.525227" lon="6.923072"><ele></ele><time>2014-4-1T3:51:6Z</time></trkpt>
<trkpt lat="46.525238" lon="6.923233"><ele></ele><time>2014-4-1T3:51:9Z</time></trkpt>
<trkpt lat="46.525227" lon="6.923401"><ele></ele><time>2014-4-1T3:51:12Z</time></trkpt>
<trkpt lat="46.525219" lon="6.923566"><ele></ele><time>2014-4-1T3:51:15Z</time></trkpt>
<trkpt lat="46.525215" lon="6.923729"><ele></ele><time>2014-4-1T3:51:18Z</time></trkpt>
<trkpt lat="46.525215" lon="6.923891"><ele></ele><time>2014-4-1T3:51:21Z</time></trkpt>
<trkpt lat="46.525223" lon="6.924047"><ele></ele><time>2014-4-1T3:51:24Z</time></trkpt>
<trkpt lat="46.525242" lon="6.924192"><ele></ele><time>2014-4-1T3:51:27Z</time></trkpt>
<trkpt lat="46.525269" lon="6.924327"><ele></ele><time>2014-4-1T3:51:30Z</time></trkpt>
<trkpt lat="46.525299" lon="6.924464"><ele></ele><time>2014-4-1T3:51:33Z</time></trkpt>
<trkpt lat="46.525326" lon="6.924592"><ele></ele><time>2014-4-1T3:51:36Z</time></trkpt>
<trkpt lat="46.525364" lon="6.924698"><ele></ele><time>2014-4-1T3:51:39Z</time></trkpt>
<trkpt lat="46.525394" lon="6.924811"><ele></ele><time>2014-4-1T3:51:42Z</time></trkpt>
<trkpt lat="46.525417" lon="6.924925"><ele></ele><time>2014-4-1T3:51:45Z</time></trkpt>
<trkpt lat="46.525433" lon="6.925049"><ele></ele><time>2014-4-1T3:51:48Z</time></trkpt>
<trkpt lat="46.525444" lon="6.925184"><ele></ele><time>2014-4-1T3:51:51Z</time></trkpt>
<trkpt lat="46.525440" lon="6.925322"><ele></ele><time>2014-4-1T3:51:54Z</time></trkpt>
<trkpt lat="46.525406" lon="6.925466"><ele></ele><time>2014-4-1T3:51:57Z</time></trkpt>
<trkpt lat="46.525364" lon="6.925608"><ele></ele><time>2014-4-1T3:52:0Z</time></trkpt>
<trkpt lat="46.525265" lon="6.925703"><ele></ele><time>2014-4-1T3:52:3Z</time></trkpt>
<trkpt lat="46.525169" lon="6.925855"><ele></ele><time>2014-4-1T3:52:6Z</time></trkpt>
<trkpt lat="46.525139" lon="6.926086"><ele></ele><time>2014-4-1T3:52:9Z</time></trkpt>
<trkpt lat="46.525127" lon="6.926324"><ele></ele><time>2014-4-1T3:52:12Z</time></trkpt>
<trkpt lat="46.525135" lon="6.926507"><ele></ele><time>2014-4-1T3:52:15Z</time></trkpt>
<trkpt lat="46.525124" lon="6.926682"><ele></ele><time>2014-4-1T3:52:18Z</time></trkpt>
<trkpt lat="46.525105" lon="6.926827"><ele></ele><time>2014-4-1T3:52:21Z</time></trkpt>
<trkpt lat="46.525093" lon="6.926965"><ele></ele><time>2014-4-1T3:52:24Z</time></trkpt>
<trkpt lat="46.525074" lon="6.927110"><ele></ele><time>2014-4-1T3:52:27Z</time></trkpt>
<trkpt lat="46.525043" lon="6.927257"><ele></ele><time>2014-4-1T3:52:30Z</time></trkpt>
<trkpt lat="46.525013" lon="6.927411"><ele></ele><time>2014-4-1T3:52:33Z</time></trkpt>
<trkpt lat="46.524971" lon="6.927542"><ele></ele><time>2014-4-1T3:52:36Z</time></trkpt>
<trkpt lat="46.524921" lon="6.927665"><ele></ele><time>2014-4-1T3:52:39Z</time></trkpt>
<trkpt lat="46.524876" lon="6.927786"><ele></ele><time>2014-4-1T3:52:42Z</time></trkpt>
<trkpt lat="46.524837" lon="6.927905"><ele></ele><time>2014-4-1T3:52:45Z</time></trkpt>
<trkpt lat="46.524788" lon="6.928040"><ele></ele><time>2014-4-1T3:52:48Z</time></trkpt>
<trkpt lat="46.524738" lon="6.928163"><ele></ele><time>2014-4-1T3:52:51Z</time></trkpt>
<trkpt lat="46.524677" lon="6.928266"><ele></ele><time>2014-4-1T3:52:54Z</time></trkpt>
<trkpt lat="46.524609" lon="6.928365"><ele></ele><time>2014-4-1T3:52:57Z</time></trkpt>
<trkpt lat="46.524544" lon="6.928475"><ele></ele><time>2014-4-1T3:53:0Z</time></trkpt>
<trkpt lat="46.524475" lon="6.928568"><ele></ele><time>2014-4-1T3:53:3Z</time></trkpt>
<trkpt lat="46.524391" lon="6.928671"><ele></ele><time>2014-4-1T3:53:6Z</time></trkpt>
<trkpt lat="46.524323" lon="6.928780"><ele></ele><time>2014-4-1T3:53:9Z</time></trkpt>
<trkpt lat="46.524250" lon="6.928881"><ele></ele><time>2014-4-1T3:53:12Z</time></trkpt>
<trkpt lat="46.524178" lon="6.928976"><ele></ele><time>2014-4-1T3:53:15Z</time></trkpt>
<trkpt lat="46.524113" lon="6.929085"><ele></ele><time>2014-4-1T3:53:18Z</time></trkpt>
<trkpt lat="46.524059" lon="6.929196"><ele></ele><time>2014-4-1T3:53:21Z</time></trkpt>
<trkpt lat="46.523998" lon="6.929320"><ele></ele><time>2014-4-1T3:53:24Z</time></trkpt>
<trkpt lat="46.523941" lon="6.929445"><ele></ele><time>2014-4-1T3:53:27Z</time></trkpt>
<trkpt lat="46.523895" lon="6.929587"><ele></ele><time>2014-4-1T3:53:30Z</time></trkpt>
<trkpt lat="46.523853" lon="6.929745"><ele></ele><time>2014-4-1T3:53:33Z</time></trkpt>
<trkpt lat="46.523808" lon="6.929873"><ele></ele><time>2014-4-1T3:53:36Z</time></trkpt>
<trkpt lat="46.523762" lon="6.930012"><ele></ele><time>2014-4-1T3:53:39Z</time></trkpt>
<trkpt lat="46.523712" lon="6.930145"><ele></ele><time>2014-4-1T3:53:42Z</time></trkpt>
<trkpt lat="46.523670" lon="6.930287"><ele></ele><time>2014-4-1T3:53:45Z</time></trkpt>
<trkpt lat="46.523632" lon="6.930414"><ele></ele><time>2014-4-1T3:53:48Z</time></trkpt>
<trkpt lat="46.523586" lon="6.930547"><ele></ele><time>2014-4-1T3:53:51Z</time></trkpt>
<trkpt lat="46.523540" lon="6.930686"><ele></ele><time>2014-4-1T3:53:54Z</time></trkpt>
<trkpt lat="46.523491" lon="6.930824"><ele></ele><time>2014-4-1T3:53:57Z</time></trkpt>
<trkpt lat="46.523460" lon="6.930972"><ele></ele><time>2014-4-1T3:54:0Z</time></trkpt>
<trkpt lat="46.523418" lon="6.931114"><ele></ele><time>2014-4-1T3:54:3Z</time></trkpt>
<trkpt lat="46.523384" lon="6.931262"><ele></ele><time>2014-4-1T3:54:6Z</time></trkpt>
<trkpt lat="46.523354" lon="6.931411"><ele></ele><time>2014-4-1T3:54:9Z</time></trkpt>
<trkpt lat="46.523346" lon="6.931558"><ele></ele><time>2014-4-1T3:54:12Z</time></trkpt>
<trkpt lat="46.523338" lon="6.931705"><ele></ele><time>2014-4-1T3:54:15Z</time></trkpt>
<trkpt lat="46.523376" lon="6.931894"><ele></ele><time>2014-4-1T3:54:18Z</time></trkpt>
<trkpt lat="46.523369" lon="6.932055"><ele></ele><time>2014-4-1T3:54:21Z</time></trkpt>
<trkpt lat="46.523373" lon="6.932211"><ele></ele><time>2014-4-1T3:54:24Z</time></trkpt>
<trkpt lat="46.523369" lon="6.932372"><ele></ele><time>2014-4-1T3:54:27Z</time></trkpt>
<trkpt lat="46.523365" lon="6.932518"><ele></ele><time>2014-4-1T3:54:30Z</time></trkpt>
<trkpt lat="46.523361" lon="6.932662"><ele></ele><time>2014-4-1T3:54:33Z</time></trkpt>
<trkpt lat="46.523357" lon="6.932819"><ele></ele><time>2014-4-1T3:54:36Z</time></trkpt>
<trkpt lat="46.523350" lon="6.932992"><ele></ele><time>2014-4-1T3:54:39Z</time></trkpt>
<trkpt lat="46.523338" lon="6.933168"><ele></ele><time>2014-4-1T3:54:42Z</time></trkpt>
<trkpt lat="46.523331" lon="6.933352"><ele></ele><time>2014-4-1T3:54:45Z</time></trkpt>
<trkpt lat="46.523319" lon="6.933520"><ele></ele><time>2014-4-1T3:54:48Z</time></trkpt>
<trkpt lat="46.523304" lon="6.933702"><ele></ele><time>2014-4-1T3:54:51Z</time></trkpt>
<trkpt lat="46.523300" lon="6.933907"><ele></ele><time>2014-4-1T3:54:54Z</time></trkpt>
<trkpt lat="46.523285" lon="6.934102"><ele></ele><time>2014-4-1T3:54:57Z</time></trkpt>
<trkpt lat="46.523273" lon="6.934308"><ele></ele><time>2014-4-1T3:55:0Z</time></trkpt>
<trkpt lat="46.523273" lon="6.934512"><ele></ele><time>2014-4-1T3:55:3Z</time></trkpt>
<trkpt lat="46.523285" lon="6.934715"><ele></ele><time>2014-4-1T3:55:6Z</time></trkpt>
<trkpt lat="46.523315" lon="6.934910"><ele></ele><time>2014-4-1T3:55:9Z</time></trkpt>
<trkpt lat="46.523380" lon="6.935088"><ele></ele><time>2014-4-1T3:55:12Z</time></trkpt>
<trkpt lat="46.523449" lon="6.935274"><ele></ele><time>2014-4-1T3:55:15Z</time></trkpt>
<trkpt lat="46.523518" lon="6.935473"><ele></ele><time>2014-4-1T3:55:18Z</time></trkpt>
<trkpt lat="46.523594" lon="6.935670"><ele></ele><time>2014-4-1T3:55:21Z</time></trkpt>
<trkpt lat="46.523682" lon="6.935853"><ele></ele><time>2014-4-1T3:55:24Z</time></trkpt>
<trkpt lat="46.523796" lon="6.936014"><ele></ele><time>2014-4-1T3:55:27Z</time></trkpt>
<trkpt lat="46.523933" lon="6.936127"><ele></ele><time>2014-4-1T3:55:30Z</time></trkpt>
<trkpt lat="46.524086" lon="6.936247"><ele></ele><time>2014-4-1T3:55:33Z</time></trkpt>
<trkpt lat="46.524174" lon="6.936407"><ele></ele><time>2014-4-1T3:55:36Z</time></trkpt>
<trkpt lat="46.524166" lon="6.936612"><ele></ele><time>2014-4-1T3:55:39Z</time></trkpt>
<trkpt lat="46.524101" lon="6.936806"><ele></ele><time>2014-4-1T3:55:42Z</time></trkpt>
<trkpt lat="46.524021" lon="6.937018"><ele></ele><time>2014-4-1T3:55:45Z</time></trkpt>
<trkpt lat="46.523979" lon="6.937223"><ele></ele><time>2014-4-1T3:55:48Z</time></trkpt>
<trkpt lat="46.523975" lon="6.937419"><ele></ele><time>2014-4-1T3:55:51Z</time></trkpt>
<trkpt lat="46.523979" lon="6.937588"><ele></ele><time>2014-4-1T3:55:54Z</time></trkpt>
<trkpt lat="46.523979" lon="6.937766"><ele></ele><time>2014-4-1T3:55:57Z</time></trkpt>
<trkpt lat="46.523956" lon="6.937931"><ele></ele><time>2014-4-1T3:56:0Z</time></trkpt>
<trkpt lat="46.523880" lon="6.938081"><ele></ele><time>2014-4-1T3:56:3Z</time></trkpt>
<trkpt lat="46.523811" lon="6.938225"><ele></ele><time>2014-4-1T3:56:6Z</time></trkpt>
<trkpt lat="46.523746" lon="6.938356"><ele></ele><time>2014-4-1T3:56:9Z</time></trkpt>
<trkpt lat="46.523685" lon="6.938508"><ele></ele><time>2014-4-1T3:56:12Z</time></trkpt>
<trkpt lat="46.523613" lon="6.938662"><ele></ele><time>2014-4-1T3:56:15Z</time></trkpt>
<trkpt lat="46.523617" lon="6.938898"><ele></ele><time>2014-4-1T3:56:18Z</time></trkpt>
<trkpt lat="46.523640" lon="6.939140"><ele></ele><time>2014-4-1T3:56:21Z</time></trkpt>
<trkpt lat="46.523663" lon="6.939376"><ele></ele><time>2014-4-1T3:56:24Z</time></trkpt>
<trkpt lat="46.523670" lon="6.939620"><ele></ele><time>2014-4-1T3:56:27Z</time></trkpt>
<trkpt lat="46.523674" lon="6.939867"><ele></ele><time>2014-4-1T3:56:30Z</time></trkpt>
<trkpt lat="46.523651" lon="6.940119"><ele></ele><time>2014-4-1T3:56:33Z</time></trkpt>
<trkpt lat="46.523621" lon="6.940349"><ele></ele><time>2014-4-1T3:56:36Z</time></trkpt>
<trkpt lat="46.523582" lon="6.940584"><ele></ele><time>2014-4-1T3:56:39Z</time></trkpt>
<trkpt lat="46.523540" lon="6.940817"><ele></ele><time>2014-4-1T3:56:42Z</time></trkpt>
<trkpt lat="46.523491" lon="6.941047"><ele></ele><time>2014-4-1T3:56:45Z</time></trkpt>
<trkpt lat="46.523407" lon="6.941256"><ele></ele><time>2014-4-1T3:56:48Z</time></trkpt>
<trkpt lat="46.523285" lon="6.941433"><ele></ele><time>2014-4-1T3:56:51Z</time></trkpt>
<trkpt lat="46.523155" lon="6.941608"><ele></ele><time>2014-4-1T3:56:54Z</time></trkpt>
<trkpt lat="46.523033" lon="6.941811"><ele></ele><time>2014-4-1T3:56:57Z</time></trkpt>
<trkpt lat="46.522926" lon="6.942013"><ele></ele><time>2014-4-1T3:57:0Z</time></trkpt>
<trkpt lat="46.522858" lon="6.942245"><ele></ele><time>2014-4-1T3:57:3Z</time></trkpt>
<trkpt lat="46.522812" lon="6.942496"><ele></ele><time>2014-4-1T3:57:6Z</time></trkpt>
<trkpt lat="46.522770" lon="6.942731"><ele></ele><time>2014-4-1T3:57:9Z</time></trkpt>
<trkpt lat="46.522720" lon="6.942962"><ele></ele><time>2014-4-1T3:57:12Z</time></trkpt>
<trkpt lat="46.522667" lon="6.943197"><ele></ele><time>2014-4-1T3:57:15Z</time></trkpt>
<trkpt lat="46.522614" lon="6.943462"><ele></ele><time>2014-4-1T3:57:18Z</time></trkpt>
<trkpt lat="46.522564" lon="6.943748"><ele></ele><time>2014-4-1T3:57:21Z</time></trkpt>
<trkpt lat="46.522537" lon="6.944036"><ele></ele><time>2014-4-1T3:57:24Z</time></trkpt>
<trkpt lat="46.522533" lon="6.944321"><ele></ele><time>2014-4-1T3:57:27Z</time></trkpt>
<trkpt lat="46.522545" lon="6.944603"><ele></ele><time>2014-4-1T3:57:30Z</time></trkpt>
<trkpt lat="46.522556" lon="6.944911"><ele></ele><time>2014-4-1T3:57:33Z</time></trkpt>
<trkpt lat="46.522564" lon="6.945245"><ele></ele><time>2014-4-1T3:57:36Z</time></trkpt>
<trkpt lat="46.522575" lon="6.945611"><ele></ele><time>2014-4-1T3:57:39Z</time></trkpt>
<trkpt lat="46.522587" lon="6.945992"><ele></ele><time>2014-4-1T3:57:42Z</time></trkpt>
<trkpt lat="46.522560" lon="6.946372"><ele></ele><time>2014-4-1T3:57:45Z</time></trkpt>
<trkpt lat="46.522488" lon="6.946741"><ele></ele><time>2014-4-1T3:57:48Z</time></trkpt>
<trkpt lat="46.522419" lon="6.947113"><ele></ele><time>2014-4-1T3:57:51Z</time></trkpt>
<trkpt lat="46.522369" lon="6.947458"><ele></ele><time>2014-4-1T3:57:54Z</time></trkpt>
<trkpt lat="46.522335" lon="6.947697"><ele></ele><time>2014-4-1T3:57:57Z</time></trkpt>
<trkpt lat="46.522285" lon="6.947909"><ele></ele><time>2014-4-1T3:58:0Z</time></trkpt>
<trkpt lat="46.522251" lon="6.948124"><ele></ele><time>2014-4-1T3:58:3Z</time></trkpt>
<trkpt lat="46.522213" lon="6.948336"><ele></ele><time>2014-4-1T3:58:6Z</time></trkpt>
<trkpt lat="46.522160" lon="6.948545"><ele></ele><time>2014-4-1T3:58:9Z</time></trkpt>
<trkpt lat="46.522110" lon="6.948761"><ele></ele><time>2014-4-1T3:58:12Z</time></trkpt>
<trkpt lat="46.522053" lon="6.948958"><ele></ele><time>2014-4-1T3:58:15Z</time></trkpt>
<trkpt lat="46.521996" lon="6.949151"><ele></ele><time>2014-4-1T3:58:18Z</time></trkpt>
<trkpt lat="46.521935" lon="6.949352"><ele></ele><time>2014-4-1T3:58:21Z</time></trkpt>
<trkpt lat="46.521877" lon="6.949564"><ele></ele><time>2014-4-1T3:58:24Z</time></trkpt>
<trkpt lat="46.521820" lon="6.949791"><ele></ele><time>2014-4-1T3:58:27Z</time></trkpt>
<trkpt lat="46.521751" lon="6.950025"><ele></ele><time>2014-4-1T3:58:30Z</time></trkpt>
<trkpt lat="46.521664" lon="6.950274"><ele></ele><time>2014-4-1T3:58:33Z</time></trkpt>
<trkpt lat="46.521564" lon="6.950522"><ele></ele><time>2014-4-1T3:58:36Z</time></trkpt>
<trkpt lat="46.521465" lon="6.950781"><ele></ele><time>2014-4-1T3:58:39Z</time></trkpt>
<trkpt lat="46.521370" lon="6.951042"><ele></ele><time>2014-4-1T3:58:42Z</time></trkpt>
<trkpt lat="46.521263" lon="6.951322"><ele></ele><time>2014-4-1T3:58:45Z</time></trkpt>
<trkpt lat="46.521160" lon="6.951586"><ele></ele><time>2014-4-1T3:58:48Z</time></trkpt>
<trkpt lat="46.521049" lon="6.951825"><ele></ele><time>2014-4-1T3:58:51Z</time></trkpt>
<trkpt lat="46.520916" lon="6.952009"><ele></ele><time>2014-4-1T3:58:54Z</time></trkpt>
<trkpt lat="46.520767" lon="6.952151"><ele></ele><time>2014-4-1T3:58:57Z</time></trkpt>
<trkpt lat="46.520603" lon="6.952300"><ele></ele><time>2014-4-1T3:59:0Z</time></trkpt>
<trkpt lat="46.520470" lon="6.952475"><ele></ele><time>2014-4-1T3:59:3Z</time></trkpt>
<trkpt lat="46.520374" lon="6.952703"><ele></ele><time>2014-4-1T3:59:6Z</time></trkpt>
<trkpt lat="46.520283" lon="6.952952"><ele></ele><time>2014-4-1T3:59:9Z</time></trkpt>
<trkpt lat="46.520180" lon="6.953173"><ele></ele><time>2014-4-1T3:59:12Z</time></trkpt>
<trkpt lat="46.520107" lon="6.953385"><ele></ele><time>2014-4-1T3:59:15Z</time></trkpt>
<trkpt lat="46.520023" lon="6.953583"><ele></ele><time>2014-4-1T3:59:18Z</time></trkpt>
<trkpt lat="46.519943" lon="6.953779"><ele></ele><time>2014-4-1T3:59:21Z</time></trkpt>
<trkpt lat="46.519859" lon="6.953969"><ele></ele><time>2014-4-1T3:59:24Z</time></trkpt>
<trkpt lat="46.519779" lon="6.954184"><ele></ele><time>2014-4-1T3:59:27Z</time></trkpt>
<trkpt lat="46.519714" lon="6.954383"><ele></ele><time>2014-4-1T3:59:30Z</time></trkpt>
<trkpt lat="46.519653" lon="6.954591"><ele></ele><time>2014-4-1T3:59:33Z</time></trkpt>
<trkpt lat="46.519604" lon="6.954794"><ele></ele><time>2014-4-1T3:59:36Z</time></trkpt>
<trkpt lat="46.519550" lon="6.955006"><ele></ele><time>2014-4-1T3:59:39Z</time></trkpt>
<trkpt lat="46.519485" lon="6.955223"><ele></ele><time>2014-4-1T3:59:42Z</time></trkpt>
<trkpt lat="46.519413" lon="6.955416"><ele></ele><time>2014-4-1T3:59:45Z</time></trkpt>
<trkpt lat="46.519333" lon="6.955628"><ele></ele><time>2014-4-1T3:59:48Z</time></trkpt>
<trkpt lat="46.519245" lon="6.955850"><ele></ele><time>2014-4-1T3:59:51Z</time></trkpt>
<trkpt lat="46.519154" lon="6.956122"><ele></ele><time>2014-4-1T3:59:54Z</time></trkpt>
<trkpt lat="46.519123" lon="6.956511"><ele></ele><time>2014-4-1T3:59:57Z</time></trkpt>
<trkpt lat="46.519184" lon="6.956931"><ele></ele><time>2014-4-1T4:0:0Z</time></trkpt>
<trkpt lat="46.519203" lon="6.957318"><ele></ele><time>2014-4-1T4:0:3Z</time></trkpt>
<trkpt lat="46.519081" lon="6.957629"><ele></ele><time>2014-4-1T4:0:6Z</time></trkpt>
<trkpt lat="46.518902" lon="6.957894"><ele></ele><time>2014-4-1T4:0:9Z</time></trkpt>
<trkpt lat="46.518852" lon="6.958263"><ele></ele><time>2014-4-1T4:0:12Z</time></trkpt>
<trkpt lat="46.518852" lon="6.958628"><ele></ele><time>2014-4-1T4:0:15Z</time></trkpt>
<trkpt lat="46.518856" lon="6.958994"><ele></ele><time>2014-4-1T4:0:18Z</time></trkpt>
<trkpt lat="46.518841" lon="6.959339"><ele></ele><time>2014-4-1T4:0:21Z</time></trkpt>
<trkpt lat="46.518799" lon="6.959638"><ele></ele><time>2014-4-1T4:0:24Z</time></trkpt>
<trkpt lat="46.518784" lon="6.959881"><ele></ele><time>2014-4-1T4:0:27Z</time></trkpt>
<trkpt lat="46.518768" lon="6.960111"><ele></ele><time>2014-4-1T4:0:30Z</time></trkpt>
<trkpt lat="46.518734" lon="6.960335"><ele></ele><time>2014-4-1T4:0:33Z</time></trkpt>
<trkpt lat="46.518738" lon="6.960592"><ele></ele><time>2014-4-1T4:0:36Z</time></trkpt>
<trkpt lat="46.518749" lon="6.960826"><ele></ele><time>2014-4-1T4:0:39Z</time></trkpt>
<trkpt lat="46.518745" lon="6.961057"><ele></ele><time>2014-4-1T4:0:42Z</time></trkpt>
<trkpt lat="46.518745" lon="6.961288"><ele></ele><time>2014-4-1T4:0:45Z</time></trkpt>
<trkpt lat="46.518753" lon="6.961551"><ele></ele><time>2014-4-1T4:0:48Z</time></trkpt>
<trkpt lat="46.518749" lon="6.961788"><ele></ele><time>2014-4-1T4:0:51Z</time></trkpt>
<trkpt lat="46.518658" lon="6.961999"><ele></ele><time>2014-4-1T4:0:54Z</time></trkpt>
<trkpt lat="46.518574" lon="6.962209"><ele></ele><time>2014-4-1T4:0:57Z</time></trkpt>
<trkpt lat="46.518440" lon="6.962394"><ele></ele><time>2014-4-1T4:1:0Z</time></trkpt>
<trkpt lat="46.518349" lon="6.962616"><ele></ele><time>2014-4-1T4:1:3Z</time></trkpt>
<trkpt lat="46.518314" lon="6.962825"><ele></ele><time>2014-4-1T4:1:6Z</time></trkpt>
<trkpt lat="46.518379" lon="6.963095"><ele></ele><time>2014-4-1T4:1:9Z</time></trkpt>
<trkpt lat="46.518436" lon="6.963393"><ele></ele><time>2014-4-1T4:1:12Z</time></trkpt>
<trkpt lat="46.518566" lon="6.963649"><ele></ele><time>2014-4-1T4:1:15Z</time></trkpt>
<trkpt lat="46.518719" lon="6.963821"><ele></ele><time>2014-4-1T4:1:18Z</time></trkpt>
<trkpt lat="46.518944" lon="6.963880"><ele></ele><time>2014-4-1T4:1:21Z</time></trkpt>
<trkpt lat="46.519154" lon="6.963897"><ele></ele><time>2014-4-1T4:1:24Z</time></trkpt>
<trkpt lat="46.519329" lon="6.963966"><ele></ele><time>2014-4-1T4:1:27Z</time></trkpt>
<trkpt lat="46.519497" lon="6.964173"><ele></ele><time>2014-4-1T4:1:30Z</time></trkpt>
<trkpt lat="46.519581" lon="6.964464"><ele></ele><time>2014-4-1T4:1:33Z</time></trkpt>
<trkpt lat="46.519688" lon="6.964747"><ele></ele><time>2014-4-1T4:1:36Z</time></trkpt>
<trkpt lat="46.519798" lon="6.965040"><ele></ele><time>2014-4-1T4:1:39Z</time></trkpt>
<trkpt lat="46.519917" lon="6.965333"><ele></ele><time>2014-4-1T4:1:42Z</time></trkpt>
<trkpt lat="46.520077" lon="6.965567"><ele></ele><time>2014-4-1T4:1:45Z</time></trkpt>
<trkpt lat="46.520287" lon="6.965712"><ele></ele><time>2014-4-1T4:1:48Z</time></trkpt>
<trkpt lat="46.520504" lon="6.965814"><ele></ele><time>2014-4-1T4:1:51Z</time></trkpt>
<trkpt lat="46.520718" lon="6.965875"><ele></ele><time>2014-4-1T4:1:54Z</time></trkpt>
<trkpt lat="46.520947" lon="6.966050"><ele></ele><time>2014-4-1T4:1:57Z</time></trkpt>
<trkpt lat="46.521027" lon="6.966329"><ele></ele><time>2014-4-1T4:2:0Z</time></trkpt>
<trkpt lat="46.521122" lon="6.966598"><ele></ele><time>2014-4-1T4:2:3Z</time></trkpt>
<trkpt lat="46.521267" lon="6.966782"><ele></ele><time>2014-4-1T4:2:6Z</time></trkpt>
<trkpt lat="46.521427" lon="6.966929"><ele></ele><time>2014-4-1T4:2:9Z</time></trkpt>
<trkpt lat="46.521591" lon="6.967074"><ele></ele><time>2014-4-1T4:2:12Z</time></trkpt>
<trkpt lat="46.521755" lon="6.967224"><ele></ele><time>2014-4-1T4:2:15Z</time></trkpt>
<trkpt lat="46.521923" lon="6.967301"><ele></ele><time>2014-4-1T4:2:18Z</time></trkpt>
<trkpt lat="46.522079" lon="6.967259"><ele></ele><time>2014-4-1T4:2:21Z</time></trkpt>
<trkpt lat="46.522240" lon="6.967148"><ele></ele><time>2014-4-1T4:2:24Z</time></trkpt>
<trkpt lat="46.522392" lon="6.967050"><ele></ele><time>2014-4-1T4:2:27Z</time></trkpt>
<trkpt lat="46.522552" lon="6.966969"><ele></ele><time>2014-4-1T4:2:30Z</time></trkpt>
<trkpt lat="46.522739" lon="6.966896"><ele></ele><time>2014-4-1T4:2:33Z</time></trkpt>
<trkpt lat="46.522957" lon="6.966792"><ele></ele><time>2014-4-1T4:2:36Z</time></trkpt>
<trkpt lat="46.523197" lon="6.966683"><ele></ele><time>2014-4-1T4:2:39Z</time></trkpt>
<trkpt lat="46.523495" lon="6.966551"><ele></ele><time>2014-4-1T4:2:42Z</time></trkpt>
<trkpt lat="46.523842" lon="6.966510"><ele></ele><time>2014-4-1T4:2:45Z</time></trkpt>
<trkpt lat="46.524204" lon="6.966583"><ele></ele><time>2014-4-1T4:2:48Z</time></trkpt>
<trkpt lat="46.524506" lon="6.966956"><ele></ele><time>2014-4-1T4:2:51Z</time></trkpt>
<trkpt lat="46.524712" lon="6.967467"><ele></ele><time>2014-4-1T4:2:54Z</time></trkpt>
<trkpt lat="46.524979" lon="6.967892"><ele></ele><time>2014-4-1T4:2:57Z</time></trkpt>
<trkpt lat="46.525314" lon="6.968273"><ele></ele><time>2014-4-1T4:3:0Z</time></trkpt>
<trkpt lat="46.525646" lon="6.968649"><ele></ele><time>2014-4-1T4:3:3Z</time></trkpt>
<trkpt lat="46.525967" lon="6.968989"><ele></ele><time>2014-4-1T4:3:6Z</time></trkpt>
<trkpt lat="46.526234" lon="6.969382"><ele></ele><time>2014-4-1T4:3:9Z</time></trkpt>
<trkpt lat="46.526360" lon="6.969837"><ele></ele><time>2014-4-1T4:3:12Z</time></trkpt>
<trkpt lat="46.526470" lon="6.970266"><ele></ele><time>2014-4-1T4:3:15Z</time></trkpt>
<trkpt lat="46.526611" lon="6.970669"><ele></ele><time>2014-4-1T4:3:18Z</time></trkpt>
<trkpt lat="46.526760" lon="6.971021"><ele></ele><time>2014-4-1T4:3:21Z</time></trkpt>
<trkpt lat="46.526936" lon="6.971352"><ele></ele><time>2014-4-1T4:3:24Z</time></trkpt>
<trkpt lat="46.527168" lon="6.971585"><ele></ele><time>2014-4-1T4:3:27Z</time></trkpt>
<trkpt lat="46.527473" lon="6.971515"><ele></ele><time>2014-4-1T4:3:30Z</time></trkpt>
<trkpt lat="46.527760" lon="6.971287"><ele></ele><time>2014-4-1T4:3:33Z</time></trkpt>
<trkpt lat="46.528030" lon="6.971061"><ele></ele><time>2014-4-1T4:3:36Z</time></trkpt>
<trkpt lat="46.528355" lon="6.970836"><ele></ele><time>2014-4-1T4:3:39Z</time></trkpt>
<trkpt lat="46.528702" lon="6.970572"><ele></ele><time>2014-4-1T4:3:42Z</time></trkpt>
<trkpt lat="46.529041" lon="6.970632"><ele></ele><time>2014-4-1T4:3:45Z</time></trkpt>
<trkpt lat="46.529362" lon="6.970737"><ele></ele><time>2014-4-1T4:3:48Z</time></trkpt>
<trkpt lat="46.529804" lon="6.970531"><ele></ele><time>2014-4-1T4:3:51Z</time></trkpt>
<trkpt lat="46.530014" lon="6.970309"><ele></ele><time>2014-4-1T4:3:54Z</time></trkpt>
<trkpt lat="46.529945" lon="6.969923"><ele></ele><time>2014-4-1T4:3:57Z</time></trkpt>
<trkpt lat="46.529732" lon="6.969726"><ele></ele><time>2014-4-1T4:4:0Z</time></trkpt>
<trkpt lat="46.529518" lon="6.969592"><ele></ele><time>2014-4-1T4:4:3Z</time></trkpt>
<trkpt lat="46.529343" lon="6.969514"><ele></ele><time>2014-4-1T4:4:6Z</time></trkpt>
<trkpt lat="46.529427" lon="6.969451"><ele></ele><time>2014-4-1T4:4:9Z</time></trkpt>
<trkpt lat="46.529606" lon="6.969521"><ele></ele><time>2014-4-1T4:4:12Z</time></trkpt>
<trkpt lat="46.529789" lon="6.969575"><ele></ele><time>2014-4-1T4:4:15Z</time></trkpt>
<trkpt lat="46.529968" lon="6.969608"><ele></ele><time>2014-4-1T4:4:18Z</time></trkpt>
<trkpt lat="46.530151" lon="6.969634"><ele></ele><time>2014-4-1T4:4:21Z</time></trkpt>
<trkpt lat="46.530331" lon="6.969675"><ele></ele><time>2014-4-1T4:4:24Z</time></trkpt>
<trkpt lat="46.530483" lon="6.969789"><ele></ele><time>2014-4-1T4:4:27Z</time></trkpt>
<trkpt lat="46.530640" lon="6.969978"><ele></ele><time>2014-4-1T4:4:30Z</time></trkpt>
<trkpt lat="46.530827" lon="6.970183"><ele></ele><time>2014-4-1T4:4:33Z</time></trkpt>
<trkpt lat="46.530972" lon="6.970385"><ele></ele><time>2014-4-1T4:4:36Z</time></trkpt>
<trkpt lat="46.531143" lon="6.970610"><ele></ele><time>2014-4-1T4:4:39Z</time></trkpt>
<trkpt lat="46.531311" lon="6.970820"><ele></ele><time>2014-4-1T4:4:42Z</time></trkpt>
<trkpt lat="46.531395" lon="6.971071"><ele></ele><time>2014-4-1T4:4:45Z</time></trkpt>
<trkpt lat="46.531498" lon="6.971345"><ele></ele><time>2014-4-1T4:4:48Z</time></trkpt>
<trkpt lat="46.531631" lon="6.971622"><ele></ele><time>2014-4-1T4:4:51Z</time></trkpt>
<trkpt lat="46.531757" lon="6.971873"><ele></ele><time>2014-4-1T4:4:54Z</time></trkpt>
<trkpt lat="46.531952" lon="6.972039"><ele></ele><time>2014-4-1T4:4:57Z</time></trkpt>
<trkpt lat="46.532143" lon="6.972203"><ele></ele><time>2014-4-1T4:5:0Z</time></trkpt>
<trkpt lat="46.532223" lon="6.972465"><ele></ele><time>2014-4-1T4:5:3Z</time></trkpt>
<trkpt lat="46.532307" lon="6.972764"><ele></ele><time>2014-4-1T4:5:6Z</time></trkpt>
<trkpt lat="46.532448" lon="6.973124"><ele></ele><time>2014-4-1T4:5:9Z</time></trkpt>
<trkpt lat="46.532555" lon="6.973477"><ele></ele><time>2014-4-1T4:5:12Z</time></trkpt>
<trkpt lat="46.532749" lon="6.973736"><ele></ele><time>2014-4-1T4:5:15Z</time></trkpt>
<trkpt lat="46.532917" lon="6.973879"><ele></ele><time>2014-4-1T4:5:18Z</time></trkpt>
<trkpt lat="46.533077" lon="6.973962"><ele></ele><time>2014-4-1T4:5:21Z</time></trkpt>
<trkpt lat="46.533230" lon="6.974035"><ele></ele><time>2014-4-1T4:5:24Z</time></trkpt>
<trkpt lat="46.533310" lon="6.974118"><ele></ele><time>2014-4-1T4:5:27Z</time></trkpt>
<trkpt lat="46.533390" lon="6.974204"><ele></ele><time>2014-4-1T4:5:30Z</time></trkpt>
<trkpt lat="46.533501" lon="6.974275"><ele></ele><time>2014-4-1T4:5:33Z</time></trkpt>
<trkpt lat="46.533585" lon="6.974292"><ele></ele><time>2014-4-1T4:5:36Z</time></trkpt>
<trkpt lat="46.533669" lon="6.974346"><ele></ele><time>2014-4-1T4:5:39Z</time></trkpt>
<trkpt lat="46.533802" lon="6.974461"><ele></ele><time>2014-4-1T4:5:42Z</time></trkpt>
<trkpt lat="46.533905" lon="6.974566"><ele></ele><time>2014-4-1T4:5:45Z</time></trkpt>
<trkpt lat="46.534008" lon="6.974702"><ele></ele><time>2014-4-1T4:5:48Z</time></trkpt>
<trkpt lat="46.534084" lon="6.974832"><ele></ele><time>2014-4-1T4:5:51Z</time></trkpt>
<trkpt lat="46.534149" lon="6.974933"><ele></ele><time>2014-4-1T4:5:54Z</time></trkpt>
<trkpt lat="46.534218" lon="6.975051"><ele></ele><time>2014-4-1T4:5:57Z</time></trkpt>
<trkpt lat="46.534321" lon="6.975172"><ele></ele><time>2014-4-1T4:6:0Z</time></trkpt>
<trkpt lat="46.534454" lon="6.975278"><ele></ele><time>2014-4-1T4:6:3Z</time></trkpt>
<trkpt lat="46.534489" lon="6.975423"><ele></ele><time>2014-4-1T4:6:6Z</time></trkpt>
<trkpt lat="46.534401" lon="6.975566"><ele></ele><time>2014-4-1T4:6:9Z</time></trkpt>
<trkpt lat="46.534317" lon="6.975706"><ele></ele><time>2014-4-1T4:6:12Z</time></trkpt>
<trkpt lat="46.534245" lon="6.975839"><ele></ele><time>2014-4-1T4:6:15Z</time></trkpt>
<trkpt lat="46.534184" lon="6.975961"><ele></ele><time>2014-4-1T4:6:18Z</time></trkpt>
<trkpt lat="46.534122" lon="6.976093"><ele></ele><time>2014-4-1T4:6:21Z</time></trkpt>
<trkpt lat="46.534069" lon="6.976242"><ele></ele><time>2014-4-1T4:6:24Z</time></trkpt>
<trkpt lat="46.534050" lon="6.976380"><ele></ele><time>2014-4-1T4:6:27Z</time></trkpt>
<trkpt lat="46.534050" lon="6.976516"><ele></ele><time>2014-4-1T4:6:30Z</time></trkpt>
<trkpt lat="46.534054" lon="6.976664"><ele></ele><time>2014-4-1T4:6:33Z</time></trkpt>
<trkpt lat="46.534084" lon="6.976803"><ele></ele><time>2014-4-1T4:6:36Z</time></trkpt>
<trkpt lat="46.534130" lon="6.976933"><ele></ele><time>2014-4-1T4:6:39Z</time></trkpt>
<trkpt lat="46.534195" lon="6.977061"><ele></ele><time>2014-4-1T4:6:42Z</time></trkpt>
<trkpt lat="46.534256" lon="6.977150"><ele></ele><time>2014-4-1T4:6:45Z</time></trkpt>
<trkpt lat="46.534317" lon="6.977264"><ele></ele><time>2014-4-1T4:6:48Z</time></trkpt>
<trkpt lat="46.534359" lon="6.977360"><ele></ele><time>2014-4-1T4:6:51Z</time></trkpt>
<trkpt lat="46.534382" lon="6.977466"><ele></ele><time>2014-4-1T4:6:54Z</time></trkpt>
<trkpt lat="46.534416" lon="6.977555"><ele></ele><time>2014-4-1T4:6:57Z</time></trkpt>
<trkpt lat="46.534451" lon="6.977646"><ele></ele><time>2014-4-1T4:7:0Z</time></trkpt>
<trkpt lat="46.534481" lon="6.977743"><ele></ele><time>2014-4-1T4:7:3Z</time></trkpt>
<trkpt lat="46.534500" lon="6.977847"><ele></ele><time>2014-4-1T4:7:6Z</time></trkpt>
<trkpt lat="46.534504" lon="6.977956"><ele></ele><time>2014-4-1T4:7:9Z</time></trkpt>
<trkpt lat="46.534492" lon="6.978062"><ele></ele><time>2014-4-1T4:7:12Z</time></trkpt>
<trkpt lat="46.534462" lon="6.978161"><ele></ele><time>2014-4-1T4:7:15Z</time></trkpt>
<trkpt lat="46.534409" lon="6.978209"><ele></ele><time>2014-4-1T4:7:18Z</time></trkpt>
<trkpt lat="46.534363" lon="6.978243"><ele></ele><time>2014-4-1T4:7:21Z</time></trkpt>
<trkpt lat="46.534294" lon="6.978264"><ele></ele><time>2014-4-1T4:7:24Z</time></trkpt>
<trkpt lat="46.534225" lon="6.978242"><ele></ele><time>2014-4-1T4:7:27Z</time></trkpt>
<trkpt lat="46.534153" lon="6.978253"><ele></ele><time>2014-4-1T4:7:30Z</time></trkpt>
<trkpt lat="46.534081" lon="6.978248"><ele></ele><time>2014-4-1T4:7:33Z</time></trkpt>
<trkpt lat="46.534008" lon="6.978283"><ele></ele><time>2014-4-1T4:7:36Z</time></trkpt>
<trkpt lat="46.533932" lon="6.978331"><ele></ele><time>2014-4-1T4:7:39Z</time></trkpt>
<trkpt lat="46.533852" lon="6.978383"><ele></ele><time>2014-4-1T4:7:42Z</time></trkpt>
<trkpt lat="46.533787" lon="6.978425"><ele></ele><time>2014-4-1T4:7:45Z</time></trkpt>
<trkpt lat="46.533726" lon="6.978465"><ele></ele><time>2014-4-1T4:7:48Z</time></trkpt>
<trkpt lat="46.533676" lon="6.978520"><ele></ele><time>2014-4-1T4:7:51Z</time></trkpt>
<trkpt lat="46.533619" lon="6.978600"><ele></ele><time>2014-4-1T4:7:54Z</time></trkpt>
<trkpt lat="46.533550" lon="6.978635"><ele></ele><time>2014-4-1T4:7:57Z</time></trkpt>
<trkpt lat="46.533489" lon="6.978683"><ele></ele><time>2014-4-1T4:8:0Z</time></trkpt>
<trkpt lat="46.533428" lon="6.978751"><ele></ele><time>2014-4-1T4:8:3Z</time></trkpt>
<trkpt lat="46.533363" lon="6.978803"><ele></ele><time>2014-4-1T4:8:6Z</time></trkpt>
<trkpt lat="46.533314" lon="6.978882"><ele></ele><time>2014-4-1T4:8:9Z</time></trkpt>
<trkpt lat="46.533283" lon="6.978985"><ele></ele><time>2014-4-1T4:8:12Z</time></trkpt>
<trkpt lat="46.533237" lon="6.979077"><ele></ele><time>2014-4-1T4:8:15Z</time></trkpt>
<trkpt lat="46.533199" lon="6.979173"><ele></ele><time>2014-4-1T4:8:18Z</time></trkpt>
<trkpt lat="46.533180" lon="6.979280"><ele></ele><time>2014-4-1T4:8:21Z</time></trkpt>
<trkpt lat="46.533169" lon="6.979380"><ele></ele><time>2014-4-1T4:8:24Z</time></trkpt>
<trkpt lat="46.533150" lon="6.979477"><ele></ele><time>2014-4-1T4:8:27Z</time></trkpt>
<trkpt lat="46.533173" lon="6.979575"><ele></ele><time>2014-4-1T4:8:30Z</time></trkpt>
<trkpt lat="46.533180" lon="6.979654"><ele></ele><time>2014-4-1T4:8:33Z</time></trkpt>
<trkpt lat="46.533199" lon="6.979727"><ele></ele><time>2014-4-1T4:8:36Z</time></trkpt>
<trkpt lat="46.533268" lon="6.979784"><ele></ele><time>2014-4-1T4:8:39Z</time></trkpt>
<trkpt lat="46.533302" lon="6.979877"><ele></ele><time>2014-4-1T4:8:42Z</time></trkpt>
<trkpt lat="46.533352" lon="6.979962"><ele></ele><time>2014-4-1T4:8:45Z</time></trkpt>
<trkpt lat="46.533405" lon="6.980045"><ele></ele><time>2014-4-1T4:8:48Z</time></trkpt>
<trkpt lat="46.533482" lon="6.980082"><ele></ele><time>2014-4-1T4:8:51Z</time></trkpt>
<trkpt lat="46.533554" lon="6.980112"><ele></ele><time>2014-4-1T4:8:54Z</time></trkpt>
<trkpt lat="46.533619" lon="6.980109"><ele></ele><time>2014-4-1T4:8:57Z</time></trkpt>
<trkpt lat="46.533691" lon="6.980078"><ele></ele><time>2014-4-1T4:9:0Z</time></trkpt>
<trkpt lat="46.533768" lon="6.980021"><ele></ele><time>2014-4-1T4:9:3Z</time></trkpt>
<trkpt lat="46.533875" lon="6.979978"><ele></ele><time>2014-4-1T4:9:6Z</time></trkpt>
<trkpt lat="46.533970" lon="6.979966"><ele></ele><time>2014-4-1T4:9:9Z</time></trkpt>
<trkpt lat="46.534061" lon="6.979937"><ele></ele><time>2014-4-1T4:9:12Z</time></trkpt>
<trkpt lat="46.534142" lon="6.979917"><ele></ele><time>2014-4-1T4:9:15Z</time></trkpt>
<trkpt lat="46.534225" lon="6.979910"><ele></ele><time>2014-4-1T4:9:18Z</time></trkpt>
<trkpt lat="46.534302" lon="6.979909"><ele></ele><time>2014-4-1T4:9:21Z</time></trkpt>
<trkpt lat="46.534378" lon="6.979925"><ele></ele><time>2014-4-1T4:9:24Z</time></trkpt>
<trkpt lat="46.534447" lon="6.979956"><ele></ele><time>2014-4-1T4:9:27Z</time></trkpt>
<trkpt lat="46.534500" lon="6.980032"><ele></ele><time>2014-4-1T4:9:30Z</time></trkpt>
<trkpt lat="46.534512" lon="6.980135"><ele></ele><time>2014-4-1T4:9:33Z</time></trkpt>
<trkpt lat="46.534454" lon="6.980201"><ele></ele><time>2014-4-1T4:9:36Z</time></trkpt>
<trkpt lat="46.534393" lon="6.980278"><ele></ele><time>2014-4-1T4:9:39Z</time></trkpt>
<trkpt lat="46.534344" lon="6.980376"><ele></ele><time>2014-4-1T4:9:42Z</time></trkpt>
<trkpt lat="46.534321" lon="6.980492"><ele></ele><time>2014-4-1T4:9:45Z</time></trkpt>
<trkpt lat="46.534344" lon="6.980597"><ele></ele><time>2014-4-1T4:9:48Z</time></trkpt>
<trkpt lat="46.534424" lon="6.980609"><ele></ele><time>2014-4-1T4:9:51Z</time></trkpt>
<trkpt lat="46.534496" lon="6.980563"><ele></ele><time>2014-4-1T4:9:54Z</time></trkpt>
<trkpt lat="46.534565" lon="6.980519"><ele></ele><time>2014-4-1T4:9:57Z</time></trkpt>
<trkpt lat="46.534618" lon="6.980486"><ele></ele><time>2014-4-1T4:10:0Z</time></trkpt>
<trkpt lat="46.534653" lon="6.980414"><ele></ele><time>2014-4-1T4:10:3Z</time></trkpt>
<trkpt lat="46.534702" lon="6.980352"><ele></ele><time>2014-4-1T4:10:6Z</time></trkpt>
<trkpt lat="46.534740" lon="6.980280"><ele></ele><time>2014-4-1T4:10:9Z</time></trkpt>
<trkpt lat="46.534790" lon="6.980212"><ele></ele><time>2014-4-1T4:10:12Z</time></trkpt>
<trkpt lat="46.534836" lon="6.980167"><ele></ele><time>2014-4-1T4:10:15Z</time></trkpt>
<trkpt lat="46.534897" lon="6.980154"><ele></ele><time>2014-4-1T4:10:18Z</time></trkpt>
<trkpt lat="46.534969" lon="6.980189"><ele></ele><time>2014-4-1T4:10:21Z</time></trkpt>
<trkpt lat="46.534992" lon="6.980263"><ele></ele><time>2014-4-1T4:10:24Z</time></trkpt>
<trkpt lat="46.535015" lon="6.980347"><ele></ele><time>2014-4-1T4:10:27Z</time></trkpt>
<trkpt lat="46.535030" lon="6.980431"><ele></ele><time>2014-4-1T4:10:30Z</time></trkpt>
<trkpt lat="46.535027" lon="6.980519"><ele></ele><time>2014-4-1T4:10:33Z</time></trkpt>
<trkpt lat="46.535011" lon="6.980606"><ele></ele><time>2014-4-1T4:10:36Z</time></trkpt>
<trkpt lat="46.534992" lon="6.980698"><ele></ele><time>2014-4-1T4:10:39Z</time></trkpt>
<trkpt lat="46.534962" lon="6.980777"><ele></ele><time>2014-4-1T4:10:42Z</time></trkpt>
<trkpt lat="46.534958" lon="6.980865"><ele></ele><time>2014-4-1T4:10:45Z</time></trkpt>
<trkpt lat="46.534946" lon="6.980945"><ele></ele><time>2014-4-1T4:10:48Z</time></trkpt>
<trkpt lat="46.534962" lon="6.981027"><ele></ele><time>2014-4-1T4:10:51Z</time></trkpt>
<trkpt lat="46.534977" lon="6.981109"><ele></ele><time>2014-4-1T4:10:54Z</time></trkpt>
<trkpt lat="46.534985" lon="6.981205"><ele></ele><time>2014-4-1T4:10:57Z</time></trkpt>
<trkpt lat="46.535000" lon="6.981282"><ele></ele><time>2014-4-1T4:11:0Z</time></trkpt>
<trkpt lat="46.535019" lon="6.981347"><ele></ele><time>2014-4-1T4:11:3Z</time></trkpt>
<trkpt lat="46.535023" lon="6.981414"><ele></ele><time>2014-4-1T4:11:6Z</time></trkpt>
<trkpt lat="46.535015" lon="6.981494"><ele></ele><time>2014-4-1T4:11:9Z</time></trkpt>
<trkpt lat="46.535000" lon="6.981567"><ele></ele><time>2014-4-1T4:11:12Z</time></trkpt>
<trkpt lat="46.534977" lon="6.981629"><ele></ele><time>2014-4-1T4:11:15Z</time></trkpt>
<trkpt lat="46.534954" lon="6.981709"><ele></ele><time>2014-4-1T4:11:18Z</time></trkpt>
<trkpt lat="46.534946" lon="6.981792"><ele></ele><time>2014-4-1T4:11:21Z</time></trkpt>
<trkpt lat="46.534946" lon="6.981875"><ele></ele><time>2014-4-1T4:11:24Z</time></trkpt>
<trkpt lat="46.534958" lon="6.981956"><ele></ele><time>2014-4-1T4:11:27Z</time></trkpt>
<trkpt lat="46.535004" lon="6.982001"><ele></ele><time>2014-4-1T4:11:30Z</time></trkpt>
<trkpt lat="46.535061" lon="6.982040"><ele></ele><time>2014-4-1T4:11:33Z</time></trkpt>
<trkpt lat="46.535114" lon="6.982060"><ele></ele><time>2014-4-1T4:11:36Z</time></trkpt>
<trkpt lat="46.535179" lon="6.982067"><ele></ele><time>2014-4-1T4:11:39Z</time></trkpt>
<trkpt lat="46.535236" lon="6.982082"><ele></ele><time>2014-4-1T4:11:42Z</time></trkpt>
<trkpt lat="46.535290" lon="6.982097"><ele></ele><time>2014-4-1T4:11:45Z</time></trkpt>
<trkpt lat="46.535339" lon="6.982105"><ele></ele><time>2014-4-1T4:11:48Z</time></trkpt>
<trkpt lat="46.535400" lon="6.982108"><ele></ele><time>2014-4-1T4:11:51Z</time></trkpt>
<trkpt lat="46.535458" lon="6.982127"><ele></ele><time>2014-4-1T4:11:54Z</time></trkpt>
<trkpt lat="46.535522" lon="6.982159"><ele></ele><time>2014-4-1T4:11:57Z</time></trkpt>
<trkpt lat="46.535583" lon="6.982194"><ele></ele><time>2014-4-1T4:12:0Z</time></trkpt>
<trkpt lat="46.535648" lon="6.982234"><ele></ele><time>2014-4-1T4:12:3Z</time></trkpt>
<trkpt lat="46.535709" lon="6.982266"><ele></ele><time>2014-4-1T4:12:6Z</time></trkpt>
<trkpt lat="46.535767" lon="6.982306"><ele></ele><time>2014-4-1T4:12:9Z</time></trkpt>
<trkpt lat="46.535828" lon="6.982333"><ele></ele><time>2014-4-1T4:12:12Z</time></trkpt>
<trkpt lat="46.535877" lon="6.982380"><ele></ele><time>2014-4-1T4:12:15Z</time></trkpt>
<trkpt lat="46.535900" lon="6.982441"><ele></ele><time>2014-4-1T4:12:18Z</time></trkpt>
<trkpt lat="46.535912" lon="6.982526"><ele></ele><time>2014-4-1T4:12:21Z</time></trkpt>
<trkpt lat="46.535912" lon="6.982629"><ele></ele><time>2014-4-1T4:12:24Z</time></trkpt>
<trkpt lat="46.535889" lon="6.982700"><ele></ele><time>2014-4-1T4:12:27Z</time></trkpt>
<trkpt lat="46.535854" lon="6.982781"><ele></ele><time>2014-4-1T4:12:30Z</time></trkpt>
<trkpt lat="46.535816" lon="6.982853"><ele></ele><time>2014-4-1T4:12:33Z</time></trkpt>
<trkpt lat="46.535763" lon="6.982877"><ele></ele><time>2014-4-1T4:12:36Z</time></trkpt>
<trkpt lat="46.535709" lon="6.982905"><ele></ele><time>2014-4-1T4:12:39Z</time></trkpt>
<trkpt lat="46.535660" lon="6.982945"><ele></ele><time>2014-4-1T4:12:42Z</time></trkpt>
<trkpt lat="46.535591" lon="6.982964"><ele></ele><time>2014-4-1T4:12:45Z</time></trkpt>
<trkpt lat="46.535530" lon="6.982992"><ele></ele><time>2014-4-1T4:12:48Z</time></trkpt>
<trkpt lat="46.535473" lon="6.983038"><ele></ele><time>2014-4-1T4:12:51Z</time></trkpt>
<trkpt lat="46.535412" lon="6.983072"><ele></ele><time>2014-4-1T4:12:54Z</time></trkpt>
<trkpt lat="46.535343" lon="6.983099"><ele></ele><time>2014-4-1T4:12:57Z</time></trkpt>
<trkpt lat="46.535290" lon="6.983154"><ele></ele><time>2014-4-1T4:13:0Z</time></trkpt>
<trkpt lat="46.535236" lon="6.983202"><ele></ele><time>2014-4-1T4:13:3Z</time></trkpt>
<trkpt lat="46.535179" lon="6.983234"><ele></ele><time>2014-4-1T4:13:6Z</time></trkpt>
<trkpt lat="46.535118" lon="6.983289"><ele></ele><time>2014-4-1T4:13:9Z</time></trkpt>
<trkpt lat="46.535076" lon="6.983362"><ele></ele><time>2014-4-1T4:13:12Z</time></trkpt>
<trkpt lat="46.535023" lon="6.983404"><ele></ele><time>2014-4-1T4:13:15Z</time></trkpt>
<trkpt lat="46.534985" lon="6.983472"><ele></ele><time>2014-4-1T4:13:18Z</time></trkpt>
<trkpt lat="46.534935" lon="6.983525"><ele></ele><time>2014-4-1T4:13:21Z</time></trkpt>
<trkpt lat="46.534889" lon="6.983593"><ele></ele><time>2014-4-1T4:13:24Z</time></trkpt>
<trkpt lat="46.534843" lon="6.983671"><ele></ele><time>2014-4-1T4:13:27Z</time></trkpt>
<trkpt lat="46.534794" lon="6.983724"><ele></ele><time>2014-4-1T4:13:30Z</time></trkpt>
<trkpt lat="46.534760" lon="6.983797"><ele></ele><time>2014-4-1T4:13:33Z</time></trkpt>
<trkpt lat="46.534729" lon="6.983877"><ele></ele><time>2014-4-1T4:13:36Z</time></trkpt>
<trkpt lat="46.534714" lon="6.983963"><ele></ele><time>2014-4-1T4:13:39Z</time></trkpt>
<trkpt lat="46.534698" lon="6.984057"><ele></ele><time>2014-4-1T4:13:42Z</time></trkpt>
<trkpt lat="46.534702" lon="6.984153"><ele></ele><time>2014-4-1T4:13:45Z</time></trkpt>
<trkpt lat="46.534706" lon="6.984241"><ele></ele><time>2014-4-1T4:13:48Z</time></trkpt>
<trkpt lat="46.534725" lon="6.984339"><ele></ele><time>2014-4-1T4:13:51Z</time></trkpt>
<trkpt lat="46.534744" lon="6.984421"><ele></ele><time>2014-4-1T4:13:54Z</time></trkpt>
<trkpt lat="46.534775" lon="6.984497"><ele></ele><time>2014-4-1T4:13:57Z</time></trkpt>
<trkpt lat="46.534805" lon="6.984565"><ele></ele><time>2014-4-1T4:14:0Z</time></trkpt>
<trkpt lat="46.534843" lon="6.984638"><ele></ele><time>2014-4-1T4:14:3Z</time></trkpt>
<trkpt lat="46.534882" lon="6.984717"><ele></ele><time>2014-4-1T4:14:6Z</time></trkpt>
<trkpt lat="46.534920" lon="6.984787"><ele></ele><time>2014-4-1T4:14:9Z</time></trkpt>
<trkpt lat="46.534962" lon="6.984852"><ele></ele><time>2014-4-1T4:14:12Z</time></trkpt>
<trkpt lat="46.535007" lon="6.984926"><ele></ele><time>2014-4-1T4:14:15Z</time></trkpt>
<trkpt lat="46.535053" lon="6.985001"><ele></ele><time>2014-4-1T4:14:18Z</time></trkpt>
<trkpt lat="46.535107" lon="6.985075"><ele></ele><time>2014-4-1T4:14:21Z</time></trkpt>
<trkpt lat="46.535160" lon="6.985162"><ele></ele><time>2014-4-1T4:14:24Z</time></trkpt>
<trkpt lat="46.535213" lon="6.985241"><ele></ele><time>2014-4-1T4:14:27Z</time></trkpt>
<trkpt lat="46.535267" lon="6.985318"><ele></ele><time>2014-4-1T4:14:30Z</time></trkpt>
<trkpt lat="46.535309" lon="6.985411"><ele></ele><time>2014-4-1T4:14:33Z</time></trkpt>
<trkpt lat="46.535313" lon="6.985518"><ele></ele><time>2014-4-1T4:14:36Z</time></trkpt>
<trkpt lat="46.535290" lon="6.985619"><ele></ele><time>2014-4-1T4:14:39Z</time></trkpt>
<trkpt lat="46.535267" lon="6.985724"><ele></ele><time>2014-4-1T4:14:42Z</time></trkpt>
<trkpt lat="46.535248" lon="6.985824"><ele></ele><time>2014-4-1T4:14:45Z</time></trkpt>
<trkpt lat="46.535248" lon="6.985929"><ele></ele><time>2014-4-1T4:14:48Z</time></trkpt>
<trkpt lat="46.535255" lon="6.986039"><ele></ele><time>2014-4-1T4:14:51Z</time></trkpt>
<trkpt lat="46.535263" lon="6.986108"><ele></ele><time>2014-4-1T4:14:54Z</time></trkpt>
<trkpt lat="46.535294" lon="6.986176"><ele></ele><time>2014-4-1T4:14:57Z</time></trkpt>
<trkpt lat="46.535351" lon="6.986203"><ele></ele><time>2014-4-1T4:15:0Z</time></trkpt>
<trkpt lat="46.535412" lon="6.986242"><ele></ele><time>2014-4-1T4:15:3Z</time></trkpt>
<trkpt lat="46.535477" lon="6.986290"><ele></ele><time>2014-4-1T4:15:6Z</time></trkpt>
<trkpt lat="46.535545" lon="6.986309"><ele></ele><time>2014-4-1T4:15:9Z</time></trkpt>
<trkpt lat="46.535610" lon="6.986318"><ele></ele><time>2014-4-1T4:15:12Z</time></trkpt>
<trkpt lat="46.535690" lon="6.986331"><ele></ele><time>2014-4-1T4:15:15Z</time></trkpt>
<trkpt lat="46.535774" lon="6.986339"><ele></ele><time>2014-4-1T4:15:18Z</time></trkpt>
<trkpt lat="46.535854" lon="6.986304"><ele></ele><time>2014-4-1T4:15:21Z</time></trkpt>
<trkpt lat="46.535915" lon="6.986228"><ele></ele><time>2014-4-1T4:15:24Z</time></trkpt>
<trkpt lat="46.535976" lon="6.986154"><ele></ele><time>2014-4-1T4:15:27Z</time></trkpt>
<trkpt lat="46.536041" lon="6.986079"><ele></ele><time>2014-4-1T4:15:30Z</time></trkpt>
<trkpt lat="46.536079" lon="6.985979"><ele></ele><time>2014-4-1T4:15:33Z</time></trkpt>
<trkpt lat="46.536144" lon="6.985912"><ele></ele><time>2014-4-1T4:15:36Z</time></trkpt>
<trkpt lat="46.536217" lon="6.985900"><ele></ele><time>2014-4-1T4:15:39Z</time></trkpt>
<trkpt lat="46.536293" lon="6.985938"><ele></ele><time>2014-4-1T4:15:42Z</time></trkpt>
<trkpt lat="46.536343" lon="6.985989"><ele></ele><time>2014-4-1T4:15:45Z</time></trkpt>
<trkpt lat="46.536369" lon="6.986055"><ele></ele><time>2014-4-1T4:15:48Z</time></trkpt>
<trkpt lat="46.536381" lon="6.986103"><ele></ele><time>2014-4-1T4:15:51Z</time></trkpt>
<trkpt lat="46.536415" lon="6.986178"><ele></ele><time>2014-4-1T4:15:54Z</time></trkpt>
<trkpt lat="46.536423" lon="6.986262"><ele></ele><time>2014-4-1T4:15:57Z</time></trkpt>
<trkpt lat="46.536446" lon="6.986317"><ele></ele><time>2014-4-1T4:16:0Z</time></trkpt>
<trkpt lat="46.536499" lon="6.986363"><ele></ele><time>2014-4-1T4:16:3Z</time></trkpt>
<trkpt lat="46.536564" lon="6.986423"><ele></ele><time>2014-4-1T4:16:6Z</time></trkpt>
<trkpt lat="46.536640" lon="6.986460"><ele></ele><time>2014-4-1T4:16:9Z</time></trkpt>
<trkpt lat="46.536728" lon="6.986452"><ele></ele><time>2014-4-1T4:16:12Z</time></trkpt>
<trkpt lat="46.536808" lon="6.986467"><ele></ele><time>2014-4-1T4:16:15Z</time></trkpt>
<trkpt lat="46.536888" lon="6.986483"><ele></ele><time>2014-4-1T4:16:18Z</time></trkpt>
<trkpt lat="46.536964" lon="6.986521"><ele></ele><time>2014-4-1T4:16:21Z</time></trkpt>
<trkpt lat="46.537045" lon="6.986539"><ele></ele><time>2014-4-1T4:16:24Z</time></trkpt>
<trkpt lat="46.537117" lon="6.986584"><ele></ele><time>2014-4-1T4:16:27Z</time></trkpt>
<trkpt lat="46.537178" lon="6.986641"><ele></ele><time>2014-4-1T4:16:30Z</time></trkpt>
<trkpt lat="46.537228" lon="6.986742"><ele></ele><time>2014-4-1T4:16:33Z</time></trkpt>
<trkpt lat="46.537273" lon="6.986842"><ele></ele><time>2014-4-1T4:16:36Z</time></trkpt>
<trkpt lat="46.537323" lon="6.986921"><ele></ele><time>2014-4-1T4:16:39Z</time></trkpt>
<trkpt lat="46.537376" lon="6.987004"><ele></ele><time>2014-4-1T4:16:42Z</time></trkpt>
<trkpt lat="46.537434" lon="6.987090"><ele></ele><time>2014-4-1T4:16:45Z</time></trkpt>
<trkpt lat="46.537483" lon="6.987170"><ele></ele><time>2014-4-1T4:16:48Z</time></trkpt>
<trkpt lat="46.537506" lon="6.987243"><ele></ele><time>2014-4-1T4:16:51Z</time></trkpt>
<trkpt lat="46.537537" lon="6.987319"><ele></ele><time>2014-4-1T4:16:54Z</time></trkpt>
<trkpt lat="46.537601" lon="6.987417"><ele></ele><time>2014-4-1T4:16:57Z</time></trkpt>
<trkpt lat="46.537663" lon="6.987490"><ele></ele><time>2014-4-1T4:17:0Z</time></trkpt>
<trkpt lat="46.537716" lon="6.987528"><ele></ele><time>2014-4-1T4:17:3Z</time></trkpt>
<trkpt lat="46.537781" lon="6.987573"><ele></ele><time>2014-4-1T4:17:6Z</time></trkpt>
<trkpt lat="46.537857" lon="6.987636"><ele></ele><time>2014-4-1T4:17:9Z</time></trkpt>
<trkpt lat="46.538025" lon="6.987762"><ele></ele><time>2014-4-1T4:17:12Z</time></trkpt>
<trkpt lat="46.538143" lon="6.987840"><ele></ele><time>2014-4-1T4:17:15Z</time></trkpt>
<trkpt lat="46.538242" lon="6.987949"><ele></ele><time>2014-4-1T4:17:18Z</time></trkpt>
<trkpt lat="46.538288" lon="6.988067"><ele></ele><time>2014-4-1T4:17:21Z</time></trkpt>
<trkpt lat="46.538353" lon="6.988195"><ele></ele><time>2014-4-1T4:17:24Z</time></trkpt>
<trkpt lat="46.538357" lon="6.988312"><ele></ele><time>2014-4-1T4:17:27Z</time></trkpt>
<trkpt lat="46.538410" lon="6.988418"><ele></ele><time>2014-4-1T4:17:30Z</time></trkpt>
<trkpt lat="46.538399" lon="6.988591"><ele></ele><time>2014-4-1T4:17:33Z</time></trkpt>
<trkpt lat="46.538391" lon="6.988710"><ele></ele><time>2014-4-1T4:17:36Z</time></trkpt>
<trkpt lat="46.538422" lon="6.988838"><ele></ele><time>2014-4-1T4:17:39Z</time></trkpt>
<trkpt lat="46.538475" lon="6.988975"><ele></ele><time>2014-4-1T4:17:42Z</time></trkpt>
<trkpt lat="46.538544" lon="6.989122"><ele></ele><time>2014-4-1T4:17:45Z</time></trkpt>
<trkpt lat="46.538589" lon="6.989256"><ele></ele><time>2014-4-1T4:17:48Z</time></trkpt>
<trkpt lat="46.538670" lon="6.989365"><ele></ele><time>2014-4-1T4:17:51Z</time></trkpt>
<trkpt lat="46.538761" lon="6.989462"><ele></ele><time>2014-4-1T4:17:54Z</time></trkpt>
<trkpt lat="46.538876" lon="6.989531"><ele></ele><time>2014-4-1T4:17:57Z</time></trkpt>
<trkpt lat="46.538986" lon="6.989612"><ele></ele><time>2014-4-1T4:18:0Z</time></trkpt>
<trkpt lat="46.539055" lon="6.989734"><ele></ele><time>2014-4-1T4:18:3Z</time></trkpt>
<trkpt lat="46.539127" lon="6.989831"><ele></ele><time>2014-4-1T4:18:6Z</time></trkpt>
<trkpt lat="46.539177" lon="6.989935"><ele></ele><time>2014-4-1T4:18:9Z</time></trkpt>
<trkpt lat="46.539230" lon="6.990044"><ele></ele><time>2014-4-1T4:18:12Z</time></trkpt>
<trkpt lat="46.539288" lon="6.990164"><ele></ele><time>2014-4-1T4:18:15Z</time></trkpt>
<trkpt lat="46.539341" lon="6.990260"><ele></ele><time>2014-4-1T4:18:18Z</time></trkpt>
<trkpt lat="46.539379" lon="6.990344"><ele></ele><time>2014-4-1T4:18:21Z</time></trkpt>
<trkpt lat="46.539429" lon="6.990438"><ele></ele><time>2014-4-1T4:18:24Z</time></trkpt>
<trkpt lat="46.539494" lon="6.990536"><ele></ele><time>2014-4-1T4:18:27Z</time></trkpt>
<trkpt lat="46.539585" lon="6.990597"><ele></ele><time>2014-4-1T4:18:30Z</time></trkpt>
<trkpt lat="46.539673" lon="6.990662"><ele></ele><time>2014-4-1T4:18:33Z</time></trkpt>
<trkpt lat="46.539757" lon="6.990753"><ele></ele><time>2014-4-1T4:18:36Z</time></trkpt>
<trkpt lat="46.539841" lon="6.990816"><ele></ele><time>2014-4-1T4:18:39Z</time></trkpt>
<trkpt lat="46.539925" lon="6.990869"><ele></ele><time>2014-4-1T4:18:42Z</time></trkpt>
<trkpt lat="46.540001" lon="6.990942"><ele></ele><time>2014-4-1T4:18:45Z</time></trkpt>
<trkpt lat="46.540092" lon="6.991000"><ele></ele><time>2014-4-1T4:18:48Z</time></trkpt>
<trkpt lat="46.540199" lon="6.991088"><ele></ele><time>2014-4-1T4:18:51Z</time></trkpt>
<trkpt lat="46.540314" lon="6.991156"><ele></ele><time>2014-4-1T4:18:54Z</time></trkpt>
<trkpt lat="46.540417" lon="6.991189"><ele></ele><time>2014-4-1T4:18:57Z</time></trkpt>
<trkpt lat="46.540539" lon="6.991192"><ele></ele><time>2014-4-1T4:19:0Z</time></trkpt>
<trkpt lat="46.540649" lon="6.991197"><ele></ele><time>2014-4-1T4:19:3Z</time></trkpt>
<trkpt lat="46.540752" lon="6.991210"><ele></ele><time>2014-4-1T4:19:6Z</time></trkpt>
<trkpt lat="46.540852" lon="6.991240"><ele></ele><time>2014-4-1T4:19:9Z</time></trkpt>
<trkpt lat="46.540955" lon="6.991270"><ele></ele><time>2014-4-1T4:19:12Z</time></trkpt>
<trkpt lat="46.541019" lon="6.991355"><ele></ele><time>2014-4-1T4:19:15Z</time></trkpt>
<trkpt lat="46.541046" lon="6.991416"><ele></ele><time>2014-4-1T4:19:18Z</time></trkpt>
<trkpt lat="46.541080" lon="6.991469"><ele></ele><time>2014-4-1T4:19:21Z</time></trkpt>
<trkpt lat="46.541088" lon="6.991475"><ele></ele><time>2014-4-1T4:19:24Z</time></trkpt>
<trkpt lat="46.541088" lon="6.991476"><ele></ele><time>2014-4-1T4:19:27Z</time></trkpt>
<trkpt lat="46.541111" lon="6.991514"><ele></ele><time>2014-4-1T4:19:30Z</time></trkpt>
<trkpt lat="46.541142" lon="6.991601"><ele></ele><time>2014-4-1T4:19:33Z</time></trkpt>
<trkpt lat="46.541149" lon="6.991706"><ele></ele><time>2014-4-1T4:19:36Z</time></trkpt>
<trkpt lat="46.541115" lon="6.992064"><ele></ele><time>2014-4-1T4:19:39Z</time></trkpt>
<trkpt lat="46.541256" lon="6.992207"><ele></ele><time>2014-4-1T4:19:42Z</time></trkpt>
<trkpt lat="46.541584" lon="6.992079"><ele></ele><time>2014-4-1T4:19:45Z</time></trkpt>
<trkpt lat="46.541851" lon="6.992201"><ele></ele><time>2014-4-1T4:19:48Z</time></trkpt>
<trkpt lat="46.541954" lon="6.992738"><ele></ele><time>2014-4-1T4:19:51Z</time></trkpt>
<trkpt lat="46.541908" lon="6.993193"><ele></ele><time>2014-4-1T4:19:54Z</time></trkpt>
<trkpt lat="46.542072" lon="6.993651"><ele></ele><time>2014-4-1T4:19:57Z</time></trkpt>
<trkpt lat="46.542263" lon="6.993991"><ele></ele><time>2014-4-1T4:20:0Z</time></trkpt>
<trkpt lat="46.542282" lon="6.993992"><ele></ele><time>2014-4-1T4:20:3Z</time></trkpt>
<trkpt lat="46.542286" lon="6.993996"><ele></ele><time>2014-4-1T4:20:6Z</time></trkpt>
<trkpt lat="46.542294" lon="6.994003"><ele></ele><time>2014-4-1T4:20:9Z</time></trkpt>
<trkpt lat="46.542309" lon="6.993988"><ele></ele><time>2014-4-1T4:20:12Z</time></trkpt>
<trkpt lat="46.542309" lon="6.993989"><ele></ele><time>2014-4-1T4:20:15Z</time></trkpt>
<trkpt lat="46.542309" lon="6.993991"><ele></ele><time>2014-4-1T4:20:18Z</time></trkpt>
<trkpt lat="46.542313" lon="6.993992"><ele></ele><time>2014-4-1T4:20:21Z</time></trkpt>
<trkpt lat="46.542313" lon="6.993993"><ele></ele><time>2014-4-1T4:20:24Z</time></trkpt>
<trkpt lat="46.542313" lon="6.993995"><ele></ele><time>2014-4-1T4:20:27Z</time></trkpt>
<trkpt lat="46.542313" lon="6.993996"><ele></ele><time>2014-4-1T4:20:30Z</time></trkpt>
<trkpt lat="46.542313" lon="6.993997"><ele></ele><time>2014-4-1T4:20:33Z</time></trkpt>
<trkpt lat="46.542313" lon="6.993998"><ele></ele><time>2014-4-1T4:20:36Z</time></trkpt>
<trkpt lat="46.542313" lon="6.993998"><ele></ele><time>2014-4-1T4:20:39Z</time></trkpt>
<trkpt lat="46.542313" lon="6.993999"><ele></ele><time>2014-4-1T4:20:42Z</time></trkpt>
<trkpt lat="46.542313" lon="6.994001"><ele></ele><time>2014-4-1T4:20:45Z</time></trkpt>
<trkpt lat="46.542313" lon="6.994002"><ele></ele><time>2014-4-1T4:20:48Z</time></trkpt>
<trkpt lat="46.542313" lon="6.994003"><ele></ele><time>2014-4-1T4:20:51Z</time></trkpt>
<trkpt lat="46.542313" lon="6.994004"><ele></ele><time>2014-4-1T4:20:54Z</time></trkpt>
<trkpt lat="46.542313" lon="6.994006"><ele></ele><time>2014-4-1T4:20:57Z</time></trkpt>
<trkpt lat="46.542313" lon="6.994007"><ele></ele><time>2014-4-1T4:21:0Z</time></trkpt>
<trkpt lat="46.542313" lon="6.994008"><ele></ele><time>2014-4-1T4:21:3Z</time></trkpt>
<trkpt lat="46.542313" lon="6.994009"><ele></ele><time>2014-4-1T4:21:6Z</time></trkpt>
<trkpt lat="46.542316" lon="6.994010"><ele></ele><time>2014-4-1T4:21:9Z</time></trkpt>
<trkpt lat="46.542316" lon="6.994011"><ele></ele><time>2014-4-1T4:21:12Z</time></trkpt>
<trkpt lat="46.542316" lon="6.994012"><ele></ele><time>2014-4-1T4:21:15Z</time></trkpt>
<trkpt lat="46.542316" lon="6.994013"><ele></ele><time>2014-4-1T4:21:18Z</time></trkpt>
<trkpt lat="46.542316" lon="6.994014"><ele></ele><time>2014-4-1T4:21:21Z</time></trkpt>
<trkpt lat="46.542316" lon="6.994015"><ele></ele><time>2014-4-1T4:21:24Z</time></trkpt>
<trkpt lat="46.542316" lon="6.994016"><ele></ele><time>2014-4-1T4:21:27Z</time></trkpt>
<trkpt lat="46.542316" lon="6.994016"><ele></ele><time>2014-4-1T4:21:30Z</time></trkpt>
<trkpt lat="46.542313" lon="6.994017"><ele></ele><time>2014-4-1T4:21:33Z</time></trkpt>
<trkpt lat="46.542313" lon="6.994017"><ele></ele><time>2014-4-1T4:21:36Z</time></trkpt>
<trkpt lat="46.542313" lon="6.994017"><ele></ele><time>2014-4-1T4:21:39Z</time></trkpt>
<trkpt lat="46.542313" lon="6.994016"><ele></ele><time>2014-4-1T4:21:42Z</time></trkpt>
<trkpt lat="46.542305" lon="6.994014"><ele></ele><time>2014-4-1T4:21:45Z</time></trkpt>
<trkpt lat="46.542301" lon="6.994013"><ele></ele><time>2014-4-1T4:21:48Z</time></trkpt>
<trkpt lat="46.542286" lon="6.994047"><ele></ele><time>2014-4-1T4:21:51Z</time></trkpt>
<trkpt lat="46.542290" lon="6.994056"><ele></ele><time>2014-4-1T4:21:54Z</time></trkpt>
<trkpt lat="46.542347" lon="6.994041"><ele></ele><time>2014-4-1T4:21:57Z</time></trkpt>
<trkpt lat="46.542458" lon="6.994059"><ele></ele><time>2014-4-1T4:22:0Z</time></trkpt>
<trkpt lat="46.542561" lon="6.994161"><ele></ele><time>2014-4-1T4:22:3Z</time></trkpt>
<trkpt lat="46.542587" lon="6.994250"><ele></ele><time>2014-4-1T4:22:6Z</time></trkpt>
<trkpt lat="46.542595" lon="6.994268"><ele></ele><time>2014-4-1T4:22:9Z</time></trkpt>
<trkpt lat="46.542603" lon="6.994275"><ele></ele><time>2014-4-1T4:22:12Z</time></trkpt>
<trkpt lat="46.542606" lon="6.994282"><ele></ele><time>2014-4-1T4:22:15Z</time></trkpt>
<trkpt lat="46.542648" lon="6.994379"><ele></ele><time>2014-4-1T4:22:18Z</time></trkpt>
<trkpt lat="46.542751" lon="6.994599"><ele></ele><time>2014-4-1T4:22:21Z</time></trkpt>
<trkpt lat="46.542831" lon="6.994927"><ele></ele><time>2014-4-1T4:22:24Z</time></trkpt>
<trkpt lat="46.543056" lon="6.995162"><ele></ele><time>2014-4-1T4:22:27Z</time></trkpt>
<trkpt lat="46.543266" lon="6.995310"><ele></ele><time>2014-4-1T4:22:30Z</time></trkpt>
<trkpt lat="46.543564" lon="6.995576"><ele></ele><time>2014-4-1T4:22:33Z</time></trkpt>
<trkpt lat="46.543915" lon="6.995758"><ele></ele><time>2014-4-1T4:22:36Z</time></trkpt>
<trkpt lat="46.544235" lon="6.995907"><ele></ele><time>2014-4-1T4:22:39Z</time></trkpt>
<trkpt lat="46.544464" lon="6.995969"><ele></ele><time>2014-4-1T4:22:42Z</time></trkpt>
<trkpt lat="46.544376" lon="6.996252"><ele></ele><time>2014-4-1T4:22:45Z</time></trkpt>
<trkpt lat="46.544327" lon="6.996634"><ele></ele><time>2014-4-1T4:22:48Z</time></trkpt>
<trkpt lat="46.544449" lon="6.996927"><ele></ele><time>2014-4-1T4:22:51Z</time></trkpt>
<trkpt lat="46.544605" lon="6.997189"><ele></ele><time>2014-4-1T4:22:54Z</time></trkpt>
<trkpt lat="46.544765" lon="6.997495"><ele></ele><time>2014-4-1T4:22:57Z</time></trkpt>
<trkpt lat="46.544933" lon="6.997724"><ele></ele><time>2014-4-1T4:23:0Z</time></trkpt>
<trkpt lat="46.545013" lon="6.997903"><ele></ele><time>2014-4-1T4:23:3Z</time></trkpt>
<trkpt lat="46.545135" lon="6.998144"><ele></ele><time>2014-4-1T4:23:6Z</time></trkpt>
<trkpt lat="46.545261" lon="6.998364"><ele></ele><time>2014-4-1T4:23:9Z</time></trkpt>
<trkpt lat="46.545353" lon="6.998507"><ele></ele><time>2014-4-1T4:23:12Z</time></trkpt>
<trkpt lat="46.545418" lon="6.998618"><ele></ele><time>2014-4-1T4:23:15Z</time></trkpt>
<trkpt lat="46.545483" lon="6.998740"><ele></ele><time>2014-4-1T4:23:18Z</time></trkpt>
<trkpt lat="46.545551" lon="6.998844"><ele></ele><time>2014-4-1T4:23:21Z</time></trkpt>
<trkpt lat="46.545647" lon="6.998929"><ele></ele><time>2014-4-1T4:23:24Z</time></trkpt>
<trkpt lat="46.545765" lon="6.998989"><ele></ele><time>2014-4-1T4:23:27Z</time></trkpt>
<trkpt lat="46.545906" lon="6.999049"><ele></ele><time>2014-4-1T4:23:30Z</time></trkpt>
<trkpt lat="46.546040" lon="6.999093"><ele></ele><time>2014-4-1T4:23:33Z</time></trkpt>
<trkpt lat="46.546146" lon="6.999212"><ele></ele><time>2014-4-1T4:23:36Z</time></trkpt>
<trkpt lat="46.546246" lon="6.999277"><ele></ele><time>2014-4-1T4:23:39Z</time></trkpt>
<trkpt lat="46.546333" lon="6.999319"><ele></ele><time>2014-4-1T4:23:42Z</time></trkpt>
<trkpt lat="46.546425" lon="6.999338"><ele></ele><time>2014-4-1T4:23:45Z</time></trkpt>
<trkpt lat="46.546528" lon="6.999376"><ele></ele><time>2014-4-1T4:23:48Z</time></trkpt>
<trkpt lat="46.546616" lon="6.999404"><ele></ele><time>2014-4-1T4:23:51Z</time></trkpt>
<trkpt lat="46.546677" lon="6.999487"><ele></ele><time>2014-4-1T4:23:54Z</time></trkpt>
<trkpt lat="46.546776" lon="6.999521"><ele></ele><time>2014-4-1T4:23:57Z</time></trkpt>
<trkpt lat="46.546867" lon="6.999515"><ele></ele><time>2014-4-1T4:24:0Z</time></trkpt>
<trkpt lat="46.546944" lon="6.999552"><ele></ele><time>2014-4-1T4:24:3Z</time></trkpt>
<trkpt lat="46.547009" lon="6.999615"><ele></ele><time>2014-4-1T4:24:6Z</time></trkpt>
<trkpt lat="46.547104" lon="6.999706"><ele></ele><time>2014-4-1T4:24:9Z</time></trkpt>
<trkpt lat="46.547241" lon="6.999823"><ele></ele><time>2014-4-1T4:24:12Z</time></trkpt>
<trkpt lat="46.547443" lon="7.000000"><ele></ele><time>2014-4-1T4:24:15Z</time></trkpt>
<trkpt lat="46.547707" lon="7.000251"><ele></ele><time>2014-4-1T4:24:18Z</time></trkpt>
<trkpt lat="46.547905" lon="7.000403"><ele></ele><time>2014-4-1T4:24:21Z</time></trkpt>
<trkpt lat="46.548115" lon="7.000556"><ele></ele><time>2014-4-1T4:24:24Z</time></trkpt>
<trkpt lat="46.548286" lon="7.000767"><ele></ele><time>2014-4-1T4:24:27Z</time></trkpt>
<trkpt lat="46.548512" lon="7.001002"><ele></ele><time>2014-4-1T4:24:30Z</time></trkpt>
<trkpt lat="46.548790" lon="7.001198"><ele></ele><time>2014-4-1T4:24:33Z</time></trkpt>
<trkpt lat="46.548939" lon="7.001331"><ele></ele><time>2014-4-1T4:24:36Z</time></trkpt>
<trkpt lat="46.549049" lon="7.001409"><ele></ele><time>2014-4-1T4:24:39Z</time></trkpt>
<trkpt lat="46.549145" lon="7.001462"><ele></ele><time>2014-4-1T4:24:42Z</time></trkpt>
<trkpt lat="46.549229" lon="7.001519"><ele></ele><time>2014-4-1T4:24:45Z</time></trkpt>
<trkpt lat="46.549328" lon="7.001537"><ele></ele><time>2014-4-1T4:24:48Z</time></trkpt>
<trkpt lat="46.549435" lon="7.001585"><ele></ele><time>2014-4-1T4:24:51Z</time></trkpt>
<trkpt lat="46.549541" lon="7.001607"><ele></ele><time>2014-4-1T4:24:54Z</time></trkpt>
<trkpt lat="46.549644" lon="7.001625"><ele></ele><time>2014-4-1T4:24:57Z</time></trkpt>
<trkpt lat="46.549740" lon="7.001668"><ele></ele><time>2014-4-1T4:25:0Z</time></trkpt>
<trkpt lat="46.549839" lon="7.001713"><ele></ele><time>2014-4-1T4:25:3Z</time></trkpt>
<trkpt lat="46.549927" lon="7.001758"><ele></ele><time>2014-4-1T4:25:6Z</time></trkpt>
<trkpt lat="46.550011" lon="7.001815"><ele></ele><time>2014-4-1T4:25:9Z</time></trkpt>
<trkpt lat="46.550091" lon="7.001865"><ele></ele><time>2014-4-1T4:25:12Z</time></trkpt>
<trkpt lat="46.550198" lon="7.001912"><ele></ele><time>2014-4-1T4:25:15Z</time></trkpt>
<trkpt lat="46.550293" lon="7.001974"><ele></ele><time>2014-4-1T4:25:18Z</time></trkpt>
<trkpt lat="46.550388" lon="7.002012"><ele></ele><time>2014-4-1T4:25:21Z</time></trkpt>
<trkpt lat="46.550484" lon="7.002052"><ele></ele><time>2014-4-1T4:25:24Z</time></trkpt>
<trkpt lat="46.550587" lon="7.002066"><ele></ele><time>2014-4-1T4:25:27Z</time></trkpt>
<trkpt lat="46.550674" lon="7.002019"><ele></ele><time>2014-4-1T4:25:30Z</time></trkpt>
<trkpt lat="46.550747" lon="7.001939"><ele></ele><time>2014-4-1T4:25:33Z</time></trkpt>
<trkpt lat="46.550842" lon="7.001931"><ele></ele><time>2014-4-1T4:25:36Z</time></trkpt>
<trkpt lat="46.550926" lon="7.002002"><ele></ele><time>2014-4-1T4:25:39Z</time></trkpt>
<trkpt lat="46.551018" lon="7.002057"><ele></ele><time>2014-4-1T4:25:42Z</time></trkpt>
<trkpt lat="46.551121" lon="7.002067"><ele></ele><time>2014-4-1T4:25:45Z</time></trkpt>
<trkpt lat="46.551235" lon="7.002101"><ele></ele><time>2014-4-1T4:25:48Z</time></trkpt>
<trkpt lat="46.551350" lon="7.002106"><ele></ele><time>2014-4-1T4:25:51Z</time></trkpt>
<trkpt lat="46.551453" lon="7.002128"><ele></ele><time>2014-4-1T4:25:54Z</time></trkpt>
<trkpt lat="46.551544" lon="7.002158"><ele></ele><time>2014-4-1T4:25:57Z</time></trkpt>
<trkpt lat="46.551632" lon="7.002171"><ele></ele><time>2014-4-1T4:26:0Z</time></trkpt>
<trkpt lat="46.551727" lon="7.002166"><ele></ele><time>2014-4-1T4:26:3Z</time></trkpt>
<trkpt lat="46.551823" lon="7.002139"><ele></ele><time>2014-4-1T4:26:6Z</time></trkpt>
<trkpt lat="46.551907" lon="7.002099"><ele></ele><time>2014-4-1T4:26:9Z</time></trkpt>
<trkpt lat="46.551971" lon="7.002029"><ele></ele><time>2014-4-1T4:26:12Z</time></trkpt>
<trkpt lat="46.552040" lon="7.001941"><ele></ele><time>2014-4-1T4:26:15Z</time></trkpt>
<trkpt lat="46.552109" lon="7.001877"><ele></ele><time>2014-4-1T4:26:18Z</time></trkpt>
<trkpt lat="46.552166" lon="7.001832"><ele></ele><time>2014-4-1T4:26:21Z</time></trkpt>
<trkpt lat="46.552235" lon="7.001826"><ele></ele><time>2014-4-1T4:26:24Z</time></trkpt>
<trkpt lat="46.552299" lon="7.001846"><ele></ele><time>2014-4-1T4:26:27Z</time></trkpt>
<trkpt lat="46.552368" lon="7.001912"><ele></ele><time>2014-4-1T4:26:30Z</time></trkpt>
<trkpt lat="46.552422" lon="7.001996"><ele></ele><time>2014-4-1T4:26:33Z</time></trkpt>
<trkpt lat="46.552460" lon="7.002071"><ele></ele><time>2014-4-1T4:26:36Z</time></trkpt>
<trkpt lat="46.552444" lon="7.002153"><ele></ele><time>2014-4-1T4:26:39Z</time></trkpt>
<trkpt lat="46.552433" lon="7.002223"><ele></ele><time>2014-4-1T4:26:42Z</time></trkpt>
<trkpt lat="46.552391" lon="7.002285"><ele></ele><time>2014-4-1T4:26:45Z</time></trkpt>
<trkpt lat="46.552361" lon="7.002339"><ele></ele><time>2014-4-1T4:26:48Z</time></trkpt>
<trkpt lat="46.552322" lon="7.002400"><ele></ele><time>2014-4-1T4:26:51Z</time></trkpt>
<trkpt lat="46.552277" lon="7.002452"><ele></ele><time>2014-4-1T4:26:54Z</time></trkpt>
<trkpt lat="46.552246" lon="7.002535"><ele></ele><time>2014-4-1T4:26:57Z</time></trkpt>
<trkpt lat="46.552265" lon="7.002616"><ele></ele><time>2014-4-1T4:27:0Z</time></trkpt>
<trkpt lat="46.552326" lon="7.002648"><ele></ele><time>2014-4-1T4:27:3Z</time></trkpt>
<trkpt lat="46.552399" lon="7.002672"><ele></ele><time>2014-4-1T4:27:6Z</time></trkpt>
<trkpt lat="46.552456" lon="7.002698"><ele></ele><time>2014-4-1T4:27:9Z</time></trkpt>
<trkpt lat="46.552513" lon="7.002738"><ele></ele><time>2014-4-1T4:27:12Z</time></trkpt>
<trkpt lat="46.552574" lon="7.002758"><ele></ele><time>2014-4-1T4:27:15Z</time></trkpt>
<trkpt lat="46.552628" lon="7.002774"><ele></ele><time>2014-4-1T4:27:18Z</time></trkpt>
<trkpt lat="46.552700" lon="7.002826"><ele></ele><time>2014-4-1T4:27:21Z</time></trkpt>
<trkpt lat="46.552761" lon="7.002942"><ele></ele><time>2014-4-1T4:27:24Z</time></trkpt>
<trkpt lat="46.552853" lon="7.002991"><ele></ele><time>2014-4-1T4:27:27Z</time></trkpt>
<trkpt lat="46.552944" lon="7.003030"><ele></ele><time>2014-4-1T4:27:30Z</time></trkpt>
<trkpt lat="46.553085" lon="7.003059"><ele></ele><time>2014-4-1T4:27:33Z</time></trkpt>
<trkpt lat="46.553211" lon="7.003083"><ele></ele><time>2014-4-1T4:27:36Z</time></trkpt>
<trkpt lat="46.553223" lon="7.003076"><ele></ele><time>2014-4-1T4:27:39Z</time></trkpt>
<trkpt lat="46.553226" lon="7.003063"><ele></ele><time>2014-4-1T4:27:42Z</time></trkpt>
<trkpt lat="46.553226" lon="7.003064"><ele></ele><time>2014-4-1T4:27:45Z</time></trkpt>
<trkpt lat="46.553223" lon="7.003065"><ele></ele><time>2014-4-1T4:27:48Z</time></trkpt>
<trkpt lat="46.553223" lon="7.003065"><ele></ele><time>2014-4-1T4:27:51Z</time></trkpt>
<trkpt lat="46.553223" lon="7.003066"><ele></ele><time>2014-4-1T4:27:54Z</time></trkpt>
<trkpt lat="46.553223" lon="7.003066"><ele></ele><time>2014-4-1T4:27:57Z</time></trkpt>
<trkpt lat="46.553223" lon="7.003066"><ele></ele><time>2014-4-1T4:28:0Z</time></trkpt>
<trkpt lat="46.553223" lon="7.003066"><ele></ele><time>2014-4-1T4:28:3Z</time></trkpt>
<trkpt lat="46.553223" lon="7.003065"><ele></ele><time>2014-4-1T4:28:6Z</time></trkpt>
<trkpt lat="46.553223" lon="7.003066"><ele></ele><time>2014-4-1T4:28:9Z</time></trkpt>
<trkpt lat="46.553223" lon="7.003066"><ele></ele><time>2014-4-1T4:28:12Z</time></trkpt>
<trkpt lat="46.553223" lon="7.003066"><ele></ele><time>2014-4-1T4:28:15Z</time></trkpt>
<trkpt lat="46.553223" lon="7.003065"><ele></ele><time>2014-4-1T4:28:18Z</time></trkpt>
<trkpt lat="46.553223" lon="7.003065"><ele></ele><time>2014-4-1T4:28:21Z</time></trkpt>
<trkpt lat="46.553223" lon="7.003065"><ele></ele><time>2014-4-1T4:28:24Z</time></trkpt>
<trkpt lat="46.553223" lon="7.003065"><ele></ele><time>2014-4-1T4:28:27Z</time></trkpt>
<trkpt lat="46.553223" lon="7.003065"><ele></ele><time>2014-4-1T4:28:30Z</time></trkpt>
<trkpt lat="46.553223" lon="7.003065"><ele></ele><time>2014-4-1T4:28:33Z</time></trkpt>
<trkpt lat="46.553223" lon="7.003065"><ele></ele><time>2014-4-1T4:28:36Z</time></trkpt>
<trkpt lat="46.553230" lon="7.003079"><ele></ele><time>2014-4-1T4:28:39Z</time></trkpt>
<trkpt lat="46.553326" lon="7.003132"><ele></ele><time>2014-4-1T4:28:42Z</time></trkpt>
<trkpt lat="46.553570" lon="7.003261"><ele></ele><time>2014-4-1T4:28:45Z</time></trkpt>
<trkpt lat="46.553974" lon="7.003363"><ele></ele><time>2014-4-1T4:28:48Z</time></trkpt>
<trkpt lat="46.554401" lon="7.003325"><ele></ele><time>2014-4-1T4:28:51Z</time></trkpt>
<trkpt lat="46.554756" lon="7.003348"><ele></ele><time>2014-4-1T4:28:54Z</time></trkpt>
<trkpt lat="46.555149" lon="7.003396"><ele></ele><time>2014-4-1T4:28:57Z</time></trkpt>
<trkpt lat="46.555470" lon="7.003423"><ele></ele><time>2014-4-1T4:29:0Z</time></trkpt>
<trkpt lat="46.555859" lon="7.003437"><ele></ele><time>2014-4-1T4:29:3Z</time></trkpt>
<trkpt lat="46.556286" lon="7.003241"><ele></ele><time>2014-4-1T4:29:6Z</time></trkpt>
<trkpt lat="46.556782" lon="7.003057"><ele></ele><time>2014-4-1T4:29:9Z</time></trkpt>
<trkpt lat="46.557308" lon="7.003038"><ele></ele><time>2014-4-1T4:29:12Z</time></trkpt>
<trkpt lat="46.557621" lon="7.002958"><ele></ele><time>2014-4-1T4:29:15Z</time></trkpt>
<trkpt lat="46.557632" lon="7.002490"><ele></ele><time>2014-4-1T4:29:18Z</time></trkpt>
<trkpt lat="46.557976" lon="7.002174"><ele></ele><time>2014-4-1T4:29:21Z</time></trkpt>
<trkpt lat="46.558384" lon="7.001917"><ele></ele><time>2014-4-1T4:29:24Z</time></trkpt>
<trkpt lat="46.558861" lon="7.001944"><ele></ele><time>2014-4-1T4:29:27Z</time></trkpt>
<trkpt lat="46.559177" lon="7.002450"><ele></ele><time>2014-4-1T4:29:30Z</time></trkpt>
<trkpt lat="46.559471" lon="7.003098"><ele></ele><time>2014-4-1T4:29:33Z</time></trkpt>
<trkpt lat="46.559898" lon="7.003455"><ele></ele><time>2014-4-1T4:29:36Z</time></trkpt>
<trkpt lat="46.560417" lon="7.003626"><ele></ele><time>2014-4-1T4:29:39Z</time></trkpt>
<trkpt lat="46.560791" lon="7.003973"><ele></ele><time>2014-4-1T4:29:42Z</time></trkpt>
<trkpt lat="46.561077" lon="7.004601"><ele></ele><time>2014-4-1T4:29:45Z</time></trkpt>
<trkpt lat="46.561470" lon="7.005192"><ele></ele><time>2014-4-1T4:29:48Z</time></trkpt>
<trkpt lat="46.561829" lon="7.005716"><ele></ele><time>2014-4-1T4:29:51Z</time></trkpt>
<trkpt lat="46.561890" lon="7.006407"><ele></ele><time>2014-4-1T4:29:54Z</time></trkpt>
<trkpt lat="46.561523" lon="7.006743"><ele></ele><time>2014-4-1T4:29:57Z</time></trkpt>
<trkpt lat="46.561024" lon="7.006934"><ele></ele><time>2014-4-1T4:30:0Z</time></trkpt>
<trkpt lat="46.560627" lon="7.007187"><ele></ele><time>2014-4-1T4:30:3Z</time></trkpt>
<trkpt lat="46.560352" lon="7.007396"><ele></ele><time>2014-4-1T4:30:6Z</time></trkpt>
<trkpt lat="46.560192" lon="7.007816"><ele></ele><time>2014-4-1T4:30:9Z</time></trkpt>
<trkpt lat="46.560150" lon="7.008286"><ele></ele><time>2014-4-1T4:30:12Z</time></trkpt>
<trkpt lat="46.560158" lon="7.008862"><ele></ele><time>2014-4-1T4:30:15Z</time></trkpt>
<trkpt lat="46.560207" lon="7.009259"><ele></ele><time>2014-4-1T4:30:18Z</time></trkpt>
<trkpt lat="46.560200" lon="7.009227"><ele></ele><time>2014-4-1T4:30:21Z</time></trkpt>
<trkpt lat="46.560184" lon="7.009253"><ele></ele><time>2014-4-1T4:30:24Z</time></trkpt>
<trkpt lat="46.560184" lon="7.009252"><ele></ele><time>2014-4-1T4:30:27Z</time></trkpt>
<trkpt lat="46.560188" lon="7.009250"><ele></ele><time>2014-4-1T4:30:30Z</time></trkpt>
<trkpt lat="46.560192" lon="7.009249"><ele></ele><time>2014-4-1T4:30:33Z</time></trkpt>
<trkpt lat="46.560192" lon="7.009248"><ele></ele><time>2014-4-1T4:30:36Z</time></trkpt>
<trkpt lat="46.560196" lon="7.009248"><ele></ele><time>2014-4-1T4:30:39Z</time></trkpt>
<trkpt lat="46.560200" lon="7.009247"><ele></ele><time>2014-4-1T4:30:42Z</time></trkpt>
<trkpt lat="46.560200" lon="7.009248"><ele></ele><time>2014-4-1T4:30:45Z</time></trkpt>
<trkpt lat="46.560200" lon="7.009248"><ele></ele><time>2014-4-1T4:30:48Z</time></trkpt>
<trkpt lat="46.560204" lon="7.009247"><ele></ele><time>2014-4-1T4:30:51Z</time></trkpt>
<trkpt lat="46.560204" lon="7.009246"><ele></ele><time>2014-4-1T4:30:54Z</time></trkpt>
<trkpt lat="46.560207" lon="7.009246"><ele></ele><time>2014-4-1T4:30:57Z</time></trkpt>
<trkpt lat="46.560207" lon="7.009245"><ele></ele><time>2014-4-1T4:31:0Z</time></trkpt>
<trkpt lat="46.560211" lon="7.009244"><ele></ele><time>2014-4-1T4:31:3Z</time></trkpt>
<trkpt lat="46.560211" lon="7.009244"><ele></ele><time>2014-4-1T4:31:6Z</time></trkpt>
<trkpt lat="46.560215" lon="7.009244"><ele></ele><time>2014-4-1T4:31:9Z</time></trkpt>
<trkpt lat="46.560215" lon="7.009244"><ele></ele><time>2014-4-1T4:31:12Z</time></trkpt>
<trkpt lat="46.560219" lon="7.009243"><ele></ele><time>2014-4-1T4:31:15Z</time></trkpt>
<trkpt lat="46.560219" lon="7.009243"><ele></ele><time>2014-4-1T4:31:18Z</time></trkpt>
<trkpt lat="46.560219" lon="7.009243"><ele></ele><time>2014-4-1T4:31:21Z</time></trkpt>
<trkpt lat="46.560223" lon="7.009243"><ele></ele><time>2014-4-1T4:31:24Z</time></trkpt>
<trkpt lat="46.560223" lon="7.009242"><ele></ele><time>2014-4-1T4:31:27Z</time></trkpt>
<trkpt lat="46.560226" lon="7.009242"><ele></ele><time>2014-4-1T4:31:30Z</time></trkpt>
<trkpt lat="46.560223" lon="7.009242"><ele></ele><time>2014-4-1T4:31:33Z</time></trkpt>
<trkpt lat="46.560223" lon="7.009243"><ele></ele><time>2014-4-1T4:31:36Z</time></trkpt>
<trkpt lat="46.560226" lon="7.009242"><ele></ele><time>2014-4-1T4:31:39Z</time></trkpt>
<trkpt lat="46.560226" lon="7.009242"><ele></ele><time>2014-4-1T4:31:42Z</time></trkpt>
<trkpt lat="46.560230" lon="7.009241"><ele></ele><time>2014-4-1T4:31:45Z</time></trkpt>
<trkpt lat="46.560230" lon="7.009240"><ele></ele><time>2014-4-1T4:31:48Z</time></trkpt>
<trkpt lat="46.560234" lon="7.009240"><ele></ele><time>2014-4-1T4:31:51Z</time></trkpt>
<trkpt lat="46.560238" lon="7.009239"><ele></ele><time>2014-4-1T4:31:54Z</time></trkpt>
<trkpt lat="46.560246" lon="7.009241"><ele></ele><time>2014-4-1T4:31:57Z</time></trkpt>
<trkpt lat="46.560253" lon="7.009289"><ele></ele><time>2014-4-1T4:32:0Z</time></trkpt>
<trkpt lat="46.560253" lon="7.009423"><ele></ele><time>2014-4-1T4:32:3Z</time></trkpt>
<trkpt lat="46.560261" lon="7.009700"><ele></ele><time>2014-4-1T4:32:6Z</time></trkpt>
<trkpt lat="46.560387" lon="7.010041"><ele></ele><time>2014-4-1T4:32:9Z</time></trkpt>
<trkpt lat="46.560490" lon="7.010515"><ele></ele><time>2014-4-1T4:32:12Z</time></trkpt>
<trkpt lat="46.560516" lon="7.011053"><ele></ele><time>2014-4-1T4:32:15Z</time></trkpt>
<trkpt lat="46.560558" lon="7.011760"><ele></ele><time>2014-4-1T4:32:18Z</time></trkpt>
<trkpt lat="46.560421" lon="7.012299"><ele></ele><time>2014-4-1T4:32:21Z</time></trkpt>
<trkpt lat="46.560490" lon="7.012823"><ele></ele><time>2014-4-1T4:32:24Z</time></trkpt>
<trkpt lat="46.560665" lon="7.013387"><ele></ele><time>2014-4-1T4:32:27Z</time></trkpt>
<trkpt lat="46.560616" lon="7.013937"><ele></ele><time>2014-4-1T4:32:30Z</time></trkpt>
<trkpt lat="46.560364" lon="7.014432"><ele></ele><time>2014-4-1T4:32:33Z</time></trkpt>
<trkpt lat="46.560047" lon="7.014889"><ele></ele><time>2014-4-1T4:32:36Z</time></trkpt>
<trkpt lat="46.559994" lon="7.015512"><ele></ele><time>2014-4-1T4:32:39Z</time></trkpt>
<trkpt lat="46.560238" lon="7.015882"><ele></ele><time>2014-4-1T4:32:42Z</time></trkpt>
<trkpt lat="46.560551" lon="7.016046"><ele></ele><time>2014-4-1T4:32:45Z</time></trkpt>
<trkpt lat="46.560917" lon="7.016009"><ele></ele><time>2014-4-1T4:32:48Z</time></trkpt>
<trkpt lat="46.561207" lon="7.016026"><ele></ele><time>2014-4-1T4:32:51Z</time></trkpt>
<trkpt lat="46.561520" lon="7.016150"><ele></ele><time>2014-4-1T4:32:54Z</time></trkpt>
<trkpt lat="46.561756" lon="7.016158"><ele></ele><time>2014-4-1T4:32:57Z</time></trkpt>
<trkpt lat="46.561966" lon="7.015984"><ele></ele><time>2014-4-1T4:33:0Z</time></trkpt>
<trkpt lat="46.562344" lon="7.015840"><ele></ele><time>2014-4-1T4:33:3Z</time></trkpt>
<trkpt lat="46.562710" lon="7.015362"><ele></ele><time>2014-4-1T4:33:6Z</time></trkpt>
<trkpt lat="46.563084" lon="7.015035"><ele></ele><time>2014-4-1T4:33:9Z</time></trkpt>
<trkpt lat="46.563503" lon="7.014727"><ele></ele><time>2014-4-1T4:33:12Z</time></trkpt>
<trkpt lat="46.563766" lon="7.014258"><ele></ele><time>2014-4-1T4:33:15Z</time></trkpt>
<trkpt lat="46.564091" lon="7.014305"><ele></ele><time>2014-4-1T4:33:18Z</time></trkpt>
<trkpt lat="46.564545" lon="7.014453"><ele></ele><time>2014-4-1T4:33:21Z</time></trkpt>
<trkpt lat="46.565022" lon="7.014049"><ele></ele><time>2014-4-1T4:33:24Z</time></trkpt>
<trkpt lat="46.565323" lon="7.013535"><ele></ele><time>2014-4-1T4:33:27Z</time></trkpt>
<trkpt lat="46.565575" lon="7.013029"><ele></ele><time>2014-4-1T4:33:30Z</time></trkpt>
<trkpt lat="46.565990" lon="7.012856"><ele></ele><time>2014-4-1T4:33:33Z</time></trkpt>
<trkpt lat="46.566444" lon="7.012614"><ele></ele><time>2014-4-1T4:33:36Z</time></trkpt>
<trkpt lat="46.566933" lon="7.012333"><ele></ele><time>2014-4-1T4:33:39Z</time></trkpt>
<trkpt lat="46.567455" lon="7.012022"><ele></ele><time>2014-4-1T4:33:42Z</time></trkpt>
<trkpt lat="46.567875" lon="7.011800"><ele></ele><time>2014-4-1T4:33:45Z</time></trkpt>
<trkpt lat="46.568249" lon="7.012068"><ele></ele><time>2014-4-1T4:33:48Z</time></trkpt>
<trkpt lat="46.577175" lon="7.010360"><ele></ele><time>2014-4-1T4:33:51Z</time></trkpt>
<trkpt lat="46.577324" lon="7.010664"><ele></ele><time>2014-4-1T4:33:54Z</time></trkpt>
<trkpt lat="46.577419" lon="7.010984"><ele></ele><time>2014-4-1T4:33:57Z</time></trkpt>
<trkpt lat="46.577457" lon="7.011240"><ele></ele><time>2014-4-1T4:34:0Z</time></trkpt>
<trkpt lat="46.577526" lon="7.011491"><ele></ele><time>2014-4-1T4:34:3Z</time></trkpt>
<trkpt lat="46.577751" lon="7.011637"><ele></ele><time>2014-4-1T4:34:6Z</time></trkpt>
<trkpt lat="46.577953" lon="7.011835"><ele></ele><time>2014-4-1T4:34:9Z</time></trkpt>
<trkpt lat="46.578224" lon="7.012084"><ele></ele><time>2014-4-1T4:34:12Z</time></trkpt>
<trkpt lat="46.578499" lon="7.012275"><ele></ele><time>2014-4-1T4:34:15Z</time></trkpt>
<trkpt lat="46.578785" lon="7.012378"><ele></ele><time>2014-4-1T4:34:18Z</time></trkpt>
<trkpt lat="46.579063" lon="7.012433"><ele></ele><time>2014-4-1T4:34:21Z</time></trkpt>
<trkpt lat="46.579384" lon="7.012627"><ele></ele><time>2014-4-1T4:34:24Z</time></trkpt>
<trkpt lat="46.579617" lon="7.012969"><ele></ele><time>2014-4-1T4:34:27Z</time></trkpt>
<trkpt lat="46.579880" lon="7.013423"><ele></ele><time>2014-4-1T4:34:30Z</time></trkpt>
<trkpt lat="46.580181" lon="7.013965"><ele></ele><time>2014-4-1T4:34:33Z</time></trkpt>
<trkpt lat="46.580421" lon="7.014489"><ele></ele><time>2014-4-1T4:34:36Z</time></trkpt>
<trkpt lat="46.580582" lon="7.015049"><ele></ele><time>2014-4-1T4:34:39Z</time></trkpt>
<trkpt lat="46.580753" lon="7.015605"><ele></ele><time>2014-4-1T4:34:42Z</time></trkpt>
<trkpt lat="46.581059" lon="7.015473"><ele></ele><time>2014-4-1T4:34:45Z</time></trkpt>
<trkpt lat="46.581310" lon="7.015235"><ele></ele><time>2014-4-1T4:34:48Z</time></trkpt>
<trkpt lat="46.581650" lon="7.015396"><ele></ele><time>2014-4-1T4:34:51Z</time></trkpt>
<trkpt lat="46.581951" lon="7.015743"><ele></ele><time>2014-4-1T4:34:54Z</time></trkpt>
<trkpt lat="46.582340" lon="7.016031"><ele></ele><time>2014-4-1T4:34:57Z</time></trkpt>
<trkpt lat="46.582787" lon="7.016224"><ele></ele><time>2014-4-1T4:35:0Z</time></trkpt>
<trkpt lat="46.583302" lon="7.016332"><ele></ele><time>2014-4-1T4:35:3Z</time></trkpt>
<trkpt lat="46.583721" lon="7.016453"><ele></ele><time>2014-4-1T4:35:6Z</time></trkpt>
<trkpt lat="46.584171" lon="7.016629"><ele></ele><time>2014-4-1T4:35:9Z</time></trkpt>
<trkpt lat="46.584618" lon="7.016638"><ele></ele><time>2014-4-1T4:35:12Z</time></trkpt>
<trkpt lat="46.585110" lon="7.016714"><ele></ele><time>2014-4-1T4:35:15Z</time></trkpt>
<trkpt lat="46.585533" lon="7.016967"><ele></ele><time>2014-4-1T4:35:18Z</time></trkpt>
<trkpt lat="46.585918" lon="7.017375"><ele></ele><time>2014-4-1T4:35:21Z</time></trkpt>
<trkpt lat="46.586399" lon="7.017561"><ele></ele><time>2014-4-1T4:35:24Z</time></trkpt>
<trkpt lat="46.586807" lon="7.017463"><ele></ele><time>2014-4-1T4:35:27Z</time></trkpt>
<trkpt lat="46.587208" lon="7.017550"><ele></ele><time>2014-4-1T4:35:30Z</time></trkpt>
<trkpt lat="46.587749" lon="7.017660"><ele></ele><time>2014-4-1T4:35:33Z</time></trkpt>
<trkpt lat="46.588223" lon="7.017866"><ele></ele><time>2014-4-1T4:35:36Z</time></trkpt>
<trkpt lat="46.588654" lon="7.018063"><ele></ele><time>2014-4-1T4:35:39Z</time></trkpt>
<trkpt lat="46.589031" lon="7.018231"><ele></ele><time>2014-4-1T4:35:42Z</time></trkpt>
<trkpt lat="46.589314" lon="7.018579"><ele></ele><time>2014-4-1T4:35:45Z</time></trkpt>
<trkpt lat="46.589733" lon="7.018825"><ele></ele><time>2014-4-1T4:35:48Z</time></trkpt>
<trkpt lat="46.590164" lon="7.019107"><ele></ele><time>2014-4-1T4:35:51Z</time></trkpt>
<trkpt lat="46.590519" lon="7.019511"><ele></ele><time>2014-4-1T4:35:54Z</time></trkpt>
<trkpt lat="46.590839" lon="7.019996"><ele></ele><time>2014-4-1T4:35:57Z</time></trkpt>
<trkpt lat="46.591167" lon="7.020472"><ele></ele><time>2014-4-1T4:36:0Z</time></trkpt>
<trkpt lat="46.591579" lon="7.020721"><ele></ele><time>2014-4-1T4:36:3Z</time></trkpt>
<trkpt lat="46.592037" lon="7.020796"><ele></ele><time>2014-4-1T4:36:6Z</time></trkpt>
<trkpt lat="46.592476" lon="7.020997"><ele></ele><time>2014-4-1T4:36:9Z</time></trkpt>
<trkpt lat="46.592918" lon="7.021279"><ele></ele><time>2014-4-1T4:36:12Z</time></trkpt>
<trkpt lat="46.593365" lon="7.021569"><ele></ele><time>2014-4-1T4:36:15Z</time></trkpt>
<trkpt lat="46.593739" lon="7.021809"><ele></ele><time>2014-4-1T4:36:18Z</time></trkpt>
<trkpt lat="46.593967" lon="7.022061"><ele></ele><time>2014-4-1T4:36:21Z</time></trkpt>
<trkpt lat="46.593975" lon="7.022209"><ele></ele><time>2014-4-1T4:36:24Z</time></trkpt>
<trkpt lat="46.593975" lon="7.022208"><ele></ele><time>2014-4-1T4:36:27Z</time></trkpt>
<trkpt lat="46.593975" lon="7.022209"><ele></ele><time>2014-4-1T4:36:30Z</time></trkpt>
<trkpt lat="46.593975" lon="7.022209"><ele></ele><time>2014-4-1T4:36:33Z</time></trkpt>
<trkpt lat="46.593975" lon="7.022210"><ele></ele><time>2014-4-1T4:36:36Z</time></trkpt>
<trkpt lat="46.593975" lon="7.022211"><ele></ele><time>2014-4-1T4:36:39Z</time></trkpt>
<trkpt lat="46.593975" lon="7.022211"><ele></ele><time>2014-4-1T4:36:42Z</time></trkpt>
<trkpt lat="46.593971" lon="7.022212"><ele></ele><time>2014-4-1T4:36:45Z</time></trkpt>
<trkpt lat="46.593971" lon="7.022213"><ele></ele><time>2014-4-1T4:36:48Z</time></trkpt>
<trkpt lat="46.593971" lon="7.022213"><ele></ele><time>2014-4-1T4:36:51Z</time></trkpt>
<trkpt lat="46.593971" lon="7.022214"><ele></ele><time>2014-4-1T4:36:54Z</time></trkpt>
<trkpt lat="46.593971" lon="7.022215"><ele></ele><time>2014-4-1T4:36:57Z</time></trkpt>
<trkpt lat="46.593971" lon="7.022215"><ele></ele><time>2014-4-1T4:37:0Z</time></trkpt>
<trkpt lat="46.593967" lon="7.022216"><ele></ele><time>2014-4-1T4:37:3Z</time></trkpt>
<trkpt lat="46.593967" lon="7.022217"><ele></ele><time>2014-4-1T4:37:6Z</time></trkpt>
<trkpt lat="46.593967" lon="7.022217"><ele></ele><time>2014-4-1T4:37:9Z</time></trkpt>
<trkpt lat="46.593967" lon="7.022218"><ele></ele><time>2014-4-1T4:37:12Z</time></trkpt>
<trkpt lat="46.593967" lon="7.022218"><ele></ele><time>2014-4-1T4:37:15Z</time></trkpt>
<trkpt lat="46.593967" lon="7.022219"><ele></ele><time>2014-4-1T4:37:18Z</time></trkpt>
<trkpt lat="46.593964" lon="7.022219"><ele></ele><time>2014-4-1T4:37:21Z</time></trkpt>
<trkpt lat="46.593964" lon="7.022220"><ele></ele><time>2014-4-1T4:37:24Z</time></trkpt>
<trkpt lat="46.593964" lon="7.022220"><ele></ele><time>2014-4-1T4:37:27Z</time></trkpt>
<trkpt lat="46.593964" lon="7.022221"><ele></ele><time>2014-4-1T4:37:30Z</time></trkpt>
<trkpt lat="46.593964" lon="7.022222"><ele></ele><time>2014-4-1T4:37:33Z</time></trkpt>
<trkpt lat="46.593964" lon="7.022222"><ele></ele><time>2014-4-1T4:37:36Z</time></trkpt>
<trkpt lat="46.593964" lon="7.022222"><ele></ele><time>2014-4-1T4:37:39Z</time></trkpt>
<trkpt lat="46.593964" lon="7.022222"><ele></ele><time>2014-4-1T4:37:42Z</time></trkpt>
<trkpt lat="46.593964" lon="7.022222"><ele></ele><time>2014-4-1T4:37:45Z</time></trkpt>
<trkpt lat="46.593960" lon="7.022223"><ele></ele><time>2014-4-1T4:37:48Z</time></trkpt>
<trkpt lat="46.593960" lon="7.022223"><ele></ele><time>2014-4-1T4:37:51Z</time></trkpt>
<trkpt lat="46.593964" lon="7.022224"><ele></ele><time>2014-4-1T4:37:54Z</time></trkpt>
<trkpt lat="46.593960" lon="7.022224"><ele></ele><time>2014-4-1T4:37:57Z</time></trkpt>
<trkpt lat="46.593960" lon="7.022225"><ele></ele><time>2014-4-1T4:38:0Z</time></trkpt>
<trkpt lat="46.593960" lon="7.022225"><ele></ele><time>2014-4-1T4:38:3Z</time></trkpt>
<trkpt lat="46.593960" lon="7.022226"><ele></ele><time>2014-4-1T4:38:6Z</time></trkpt>
<trkpt lat="46.593960" lon="7.022226"><ele></ele><time>2014-4-1T4:38:9Z</time></trkpt>
<trkpt lat="46.593960" lon="7.022227"><ele></ele><time>2014-4-1T4:38:12Z</time></trkpt>
<trkpt lat="46.593960" lon="7.022227"><ele></ele><time>2014-4-1T4:38:15Z</time></trkpt>
<trkpt lat="46.593960" lon="7.022228"><ele></ele><time>2014-4-1T4:38:18Z</time></trkpt>
<trkpt lat="46.593960" lon="7.022228"><ele></ele><time>2014-4-1T4:38:21Z</time></trkpt>
<trkpt lat="46.593952" lon="7.022236"><ele></ele><time>2014-4-1T4:38:24Z</time></trkpt>
<trkpt lat="46.593853" lon="7.022318"><ele></ele><time>2014-4-1T4:38:27Z</time></trkpt>
<trkpt lat="46.593586" lon="7.022329"><ele></ele><time>2014-4-1T4:38:30Z</time></trkpt>
<trkpt lat="46.593239" lon="7.022475"><ele></ele><time>2014-4-1T4:38:33Z</time></trkpt>
<trkpt lat="46.593002" lon="7.022773"><ele></ele><time>2014-4-1T4:38:36Z</time></trkpt>
<trkpt lat="46.593155" lon="7.023137"><ele></ele><time>2014-4-1T4:38:39Z</time></trkpt>
<trkpt lat="46.593239" lon="7.023607"><ele></ele><time>2014-4-1T4:38:42Z</time></trkpt>
<trkpt lat="46.593338" lon="7.024152"><ele></ele><time>2014-4-1T4:38:45Z</time></trkpt>
<trkpt lat="46.593769" lon="7.024808"><ele></ele><time>2014-4-1T4:38:48Z</time></trkpt>
<trkpt lat="46.594017" lon="7.025260"><ele></ele><time>2014-4-1T4:38:51Z</time></trkpt>
<trkpt lat="46.594257" lon="7.025547"><ele></ele><time>2014-4-1T4:38:54Z</time></trkpt>
<trkpt lat="46.594521" lon="7.025916"><ele></ele><time>2014-4-1T4:38:57Z</time></trkpt>
<trkpt lat="46.594711" lon="7.026391"><ele></ele><time>2014-4-1T4:39:0Z</time></trkpt>
<trkpt lat="46.594734" lon="7.026923"><ele></ele><time>2014-4-1T4:39:3Z</time></trkpt>
<trkpt lat="46.594765" lon="7.027563"><ele></ele><time>2014-4-1T4:39:6Z</time></trkpt>
<trkpt lat="46.594830" lon="7.028241"><ele></ele><time>2014-4-1T4:39:9Z</time></trkpt>
<trkpt lat="46.594872" lon="7.028989"><ele></ele><time>2014-4-1T4:39:12Z</time></trkpt>
<trkpt lat="46.595066" lon="7.029612"><ele></ele><time>2014-4-1T4:39:15Z</time></trkpt>
<trkpt lat="46.595352" lon="7.030265"><ele></ele><time>2014-4-1T4:39:18Z</time></trkpt>
<trkpt lat="46.595623" lon="7.030947"><ele></ele><time>2014-4-1T4:39:21Z</time></trkpt>
<trkpt lat="46.595688" lon="7.031415"><ele></ele><time>2014-4-1T4:39:24Z</time></trkpt>
<trkpt lat="46.595707" lon="7.031728"><ele></ele><time>2014-4-1T4:39:27Z</time></trkpt>
<trkpt lat="46.595718" lon="7.032142"><ele></ele><time>2014-4-1T4:39:30Z</time></trkpt>
<trkpt lat="46.595753" lon="7.032599"><ele></ele><time>2014-4-1T4:39:33Z</time></trkpt>
<trkpt lat="46.595829" lon="7.033015"><ele></ele><time>2014-4-1T4:39:36Z</time></trkpt>
<trkpt lat="46.595890" lon="7.033267"><ele></ele><time>2014-4-1T4:39:39Z</time></trkpt>
<trkpt lat="46.595894" lon="7.033268"><ele></ele><time>2014-4-1T4:39:42Z</time></trkpt>
<trkpt lat="46.595894" lon="7.033268"><ele></ele><time>2014-4-1T4:39:45Z</time></trkpt>
<trkpt lat="46.595894" lon="7.033269"><ele></ele><time>2014-4-1T4:39:48Z</time></trkpt>
<trkpt lat="46.595894" lon="7.033269"><ele></ele><time>2014-4-1T4:39:51Z</time></trkpt>
<trkpt lat="46.595894" lon="7.033270"><ele></ele><time>2014-4-1T4:39:54Z</time></trkpt>
<trkpt lat="46.595894" lon="7.033271"><ele></ele><time>2014-4-1T4:39:57Z</time></trkpt>
<trkpt lat="46.595894" lon="7.033272"><ele></ele><time>2014-4-1T4:40:0Z</time></trkpt>
<trkpt lat="46.595894" lon="7.033273"><ele></ele><time>2014-4-1T4:40:3Z</time></trkpt>
<trkpt lat="46.595894" lon="7.033274"><ele></ele><time>2014-4-1T4:40:6Z</time></trkpt>
<trkpt lat="46.595890" lon="7.033274"><ele></ele><time>2014-4-1T4:40:9Z</time></trkpt>
<trkpt lat="46.595890" lon="7.033275"><ele></ele><time>2014-4-1T4:40:12Z</time></trkpt>
<trkpt lat="46.595890" lon="7.033276"><ele></ele><time>2014-4-1T4:40:15Z</time></trkpt>
<trkpt lat="46.595890" lon="7.033277"><ele></ele><time>2014-4-1T4:40:18Z</time></trkpt>
<trkpt lat="46.595890" lon="7.033278"><ele></ele><time>2014-4-1T4:40:21Z</time></trkpt>
<trkpt lat="46.595890" lon="7.033279"><ele></ele><time>2014-4-1T4:40:24Z</time></trkpt>
<trkpt lat="46.595890" lon="7.033279"><ele></ele><time>2014-4-1T4:40:27Z</time></trkpt>
<trkpt lat="46.595890" lon="7.033280"><ele></ele><time>2014-4-1T4:40:30Z</time></trkpt>
<trkpt lat="46.595890" lon="7.033287"><ele></ele><time>2014-4-1T4:40:33Z</time></trkpt>
<trkpt lat="46.595921" lon="7.033504"><ele></ele><time>2014-4-1T4:40:36Z</time></trkpt>
<trkpt lat="46.596016" lon="7.033954"><ele></ele><time>2014-4-1T4:40:39Z</time></trkpt>
<trkpt lat="46.596088" lon="7.034534"><ele></ele><time>2014-4-1T4:40:42Z</time></trkpt>
<trkpt lat="46.595875" lon="7.034856"><ele></ele><time>2014-4-1T4:40:45Z</time></trkpt>
<trkpt lat="46.595558" lon="7.035144"><ele></ele><time>2014-4-1T4:40:48Z</time></trkpt>
<trkpt lat="46.595287" lon="7.035560"><ele></ele><time>2014-4-1T4:40:51Z</time></trkpt>
<trkpt lat="46.594936" lon="7.035989"><ele></ele><time>2014-4-1T4:40:54Z</time></trkpt>
<trkpt lat="46.594585" lon="7.036438"><ele></ele><time>2014-4-1T4:40:57Z</time></trkpt>
<trkpt lat="46.594482" lon="7.037044"><ele></ele><time>2014-4-1T4:41:0Z</time></trkpt>
<trkpt lat="46.594440" lon="7.037708"><ele></ele><time>2014-4-1T4:41:3Z</time></trkpt>
<trkpt lat="46.594669" lon="7.038173"><ele></ele><time>2014-4-1T4:41:6Z</time></trkpt>
<trkpt lat="46.595100" lon="7.038363"><ele></ele><time>2014-4-1T4:41:9Z</time></trkpt>
<trkpt lat="46.595558" lon="7.038526"><ele></ele><time>2014-4-1T4:41:12Z</time></trkpt>
<trkpt lat="46.595974" lon="7.038596"><ele></ele><time>2014-4-1T4:41:15Z</time></trkpt>
<trkpt lat="46.596367" lon="7.038713"><ele></ele><time>2014-4-1T4:41:18Z</time></trkpt>
<trkpt lat="46.596836" lon="7.038202"><ele></ele><time>2014-4-1T4:41:21Z</time></trkpt>
<trkpt lat="46.597252" lon="7.037776"><ele></ele><time>2014-4-1T4:41:24Z</time></trkpt>
<trkpt lat="46.597797" lon="7.037731"><ele></ele><time>2014-4-1T4:41:27Z</time></trkpt>
<trkpt lat="46.598343" lon="7.038091"><ele></ele><time>2014-4-1T4:41:30Z</time></trkpt>
<trkpt lat="46.598896" lon="7.038411"><ele></ele><time>2014-4-1T4:41:33Z</time></trkpt>
<trkpt lat="46.599155" lon="7.038286"><ele></ele><time>2014-4-1T4:41:36Z</time></trkpt>
<trkpt lat="46.599285" lon="7.037982"><ele></ele><time>2014-4-1T4:41:39Z</time></trkpt>
<trkpt lat="46.599461" lon="7.037642"><ele></ele><time>2014-4-1T4:41:42Z</time></trkpt>
<trkpt lat="46.599636" lon="7.037302"><ele></ele><time>2014-4-1T4:41:45Z</time></trkpt>
<trkpt lat="46.599812" lon="7.036981"><ele></ele><time>2014-4-1T4:41:48Z</time></trkpt>
<trkpt lat="46.600044" lon="7.036742"><ele></ele><time>2014-4-1T4:41:51Z</time></trkpt>
<trkpt lat="46.600342" lon="7.036543"><ele></ele><time>2014-4-1T4:41:54Z</time></trkpt>
<trkpt lat="46.600700" lon="7.036357"><ele></ele><time>2014-4-1T4:41:57Z</time></trkpt>
<trkpt lat="46.601097" lon="7.036168"><ele></ele><time>2014-4-1T4:42:0Z</time></trkpt>
<trkpt lat="46.601505" lon="7.035998"><ele></ele><time>2014-4-1T4:42:3Z</time></trkpt>
<trkpt lat="46.601933" lon="7.035829"><ele></ele><time>2014-4-1T4:42:6Z</time></trkpt>
<trkpt lat="46.602360" lon="7.035644"><ele></ele><time>2014-4-1T4:42:9Z</time></trkpt>
<trkpt lat="46.602791" lon="7.035439"><ele></ele><time>2014-4-1T4:42:12Z</time></trkpt>
<trkpt lat="46.603146" lon="7.035129"><ele></ele><time>2014-4-1T4:42:15Z</time></trkpt>
<trkpt lat="46.603485" lon="7.034798"><ele></ele><time>2014-4-1T4:42:18Z</time></trkpt>
<trkpt lat="46.603836" lon="7.034418"><ele></ele><time>2014-4-1T4:42:21Z</time></trkpt>
<trkpt lat="46.604164" lon="7.033942"><ele></ele><time>2014-4-1T4:42:24Z</time></trkpt>
<trkpt lat="46.604424" lon="7.033556"><ele></ele><time>2014-4-1T4:42:27Z</time></trkpt>
<trkpt lat="46.604740" lon="7.033429"><ele></ele><time>2014-4-1T4:42:30Z</time></trkpt>
<trkpt lat="46.605061" lon="7.033264"><ele></ele><time>2014-4-1T4:42:33Z</time></trkpt>
<trkpt lat="46.605415" lon="7.032955"><ele></ele><time>2014-4-1T4:42:36Z</time></trkpt>
<trkpt lat="46.605812" lon="7.032601"><ele></ele><time>2014-4-1T4:42:39Z</time></trkpt>
<trkpt lat="46.606213" lon="7.032282"><ele></ele><time>2014-4-1T4:42:42Z</time></trkpt>
<trkpt lat="46.606594" lon="7.031989"><ele></ele><time>2014-4-1T4:42:45Z</time></trkpt>
<trkpt lat="46.606945" lon="7.031655"><ele></ele><time>2014-4-1T4:42:48Z</time></trkpt>
<trkpt lat="46.607212" lon="7.031308"><ele></ele><time>2014-4-1T4:42:51Z</time></trkpt>
<trkpt lat="46.607426" lon="7.031095"><ele></ele><time>2014-4-1T4:42:54Z</time></trkpt>
<trkpt lat="46.607635" lon="7.031147"><ele></ele><time>2014-4-1T4:42:57Z</time></trkpt>
<trkpt lat="46.607819" lon="7.031462"><ele></ele><time>2014-4-1T4:43:0Z</time></trkpt>
<trkpt lat="46.608047" lon="7.031794"><ele></ele><time>2014-4-1T4:43:3Z</time></trkpt>
<trkpt lat="46.608307" lon="7.032135"><ele></ele><time>2014-4-1T4:43:6Z</time></trkpt>
<trkpt lat="46.608593" lon="7.032434"><ele></ele><time>2014-4-1T4:43:9Z</time></trkpt>
<trkpt lat="46.608829" lon="7.032682"><ele></ele><time>2014-4-1T4:43:12Z</time></trkpt>
<trkpt lat="46.608974" lon="7.032592"><ele></ele><time>2014-4-1T4:43:15Z</time></trkpt>
<trkpt lat="46.608913" lon="7.032310"><ele></ele><time>2014-4-1T4:43:18Z</time></trkpt>
<trkpt lat="46.608776" lon="7.032133"><ele></ele><time>2014-4-1T4:43:21Z</time></trkpt>
<trkpt lat="46.608635" lon="7.031984"><ele></ele><time>2014-4-1T4:43:24Z</time></trkpt>
<trkpt lat="46.608459" lon="7.031835"><ele></ele><time>2014-4-1T4:43:27Z</time></trkpt>
<trkpt lat="46.608273" lon="7.031685"><ele></ele><time>2014-4-1T4:43:30Z</time></trkpt>
<trkpt lat="46.608101" lon="7.031511"><ele></ele><time>2014-4-1T4:43:33Z</time></trkpt>
<trkpt lat="46.607941" lon="7.031302"><ele></ele><time>2014-4-1T4:43:36Z</time></trkpt>
<trkpt lat="46.607811" lon="7.031085"><ele></ele><time>2014-4-1T4:43:39Z</time></trkpt>
<trkpt lat="46.607716" lon="7.030886"><ele></ele><time>2014-4-1T4:43:42Z</time></trkpt>
<trkpt lat="46.607662" lon="7.030708"><ele></ele><time>2014-4-1T4:43:45Z</time></trkpt>
<trkpt lat="46.607643" lon="7.030519"><ele></ele><time>2014-4-1T4:43:48Z</time></trkpt>
<trkpt lat="46.607697" lon="7.030334"><ele></ele><time>2014-4-1T4:43:51Z</time></trkpt>
<trkpt lat="46.607746" lon="7.030169"><ele></ele><time>2014-4-1T4:43:54Z</time></trkpt>
<trkpt lat="46.607796" lon="7.030001"><ele></ele><time>2014-4-1T4:43:57Z</time></trkpt>
<trkpt lat="46.607819" lon="7.029825"><ele></ele><time>2014-4-1T4:44:0Z</time></trkpt>
<trkpt lat="46.607883" lon="7.029671"><ele></ele><time>2014-4-1T4:44:3Z</time></trkpt>
<trkpt lat="46.607899" lon="7.029496"><ele></ele><time>2014-4-1T4:44:6Z</time></trkpt>
<trkpt lat="46.607891" lon="7.029292"><ele></ele><time>2014-4-1T4:44:9Z</time></trkpt>
<trkpt lat="46.607903" lon="7.029088"><ele></ele><time>2014-4-1T4:44:12Z</time></trkpt>
<trkpt lat="46.607872" lon="7.028901"><ele></ele><time>2014-4-1T4:44:15Z</time></trkpt>
<trkpt lat="46.607849" lon="7.028827"><ele></ele><time>2014-4-1T4:44:18Z</time></trkpt>
<trkpt lat="46.607849" lon="7.028829"><ele></ele><time>2014-4-1T4:44:21Z</time></trkpt>
<trkpt lat="46.607849" lon="7.028831"><ele></ele><time>2014-4-1T4:44:24Z</time></trkpt>
<trkpt lat="46.607849" lon="7.028831"><ele></ele><time>2014-4-1T4:44:27Z</time></trkpt>
<trkpt lat="46.607849" lon="7.028831"><ele></ele><time>2014-4-1T4:44:30Z</time></trkpt>
<trkpt lat="46.607849" lon="7.028832"><ele></ele><time>2014-4-1T4:44:33Z</time></trkpt>
<trkpt lat="46.607849" lon="7.028832"><ele></ele><time>2014-4-1T4:44:36Z</time></trkpt>
<trkpt lat="46.607849" lon="7.028833"><ele></ele><time>2014-4-1T4:44:39Z</time></trkpt>
<trkpt lat="46.607845" lon="7.028833"><ele></ele><time>2014-4-1T4:44:42Z</time></trkpt>
<trkpt lat="46.607845" lon="7.028834"><ele></ele><time>2014-4-1T4:44:45Z</time></trkpt>
<trkpt lat="46.607845" lon="7.028834"><ele></ele><time>2014-4-1T4:44:48Z</time></trkpt>
<trkpt lat="46.607845" lon="7.028835"><ele></ele><time>2014-4-1T4:44:51Z</time></trkpt>
<trkpt lat="46.607845" lon="7.028835"><ele></ele><time>2014-4-1T4:44:54Z</time></trkpt>
<trkpt lat="46.607845" lon="7.028835"><ele></ele><time>2014-4-1T4:44:57Z</time></trkpt>
<trkpt lat="46.607841" lon="7.028836"><ele></ele><time>2014-4-1T4:45:0Z</time></trkpt>
<trkpt lat="46.607841" lon="7.028836"><ele></ele><time>2014-4-1T4:45:3Z</time></trkpt>
<trkpt lat="46.607841" lon="7.028835"><ele></ele><time>2014-4-1T4:45:6Z</time></trkpt>
<trkpt lat="46.607841" lon="7.028835"><ele></ele><time>2014-4-1T4:45:9Z</time></trkpt>
<trkpt lat="46.607841" lon="7.028836"><ele></ele><time>2014-4-1T4:45:12Z</time></trkpt>
<trkpt lat="46.607841" lon="7.028837"><ele></ele><time>2014-4-1T4:45:15Z</time></trkpt>
<trkpt lat="46.607857" lon="7.028839"><ele></ele><time>2014-4-1T4:45:18Z</time></trkpt>
<trkpt lat="46.607857" lon="7.028837"><ele></ele><time>2014-4-1T4:45:21Z</time></trkpt>
<trkpt lat="46.607834" lon="7.028824"><ele></ele><time>2014-4-1T4:45:24Z</time></trkpt>
<trkpt lat="46.607788" lon="7.028733"><ele></ele><time>2014-4-1T4:45:27Z</time></trkpt>
<trkpt lat="46.607700" lon="7.028616"><ele></ele><time>2014-4-1T4:45:30Z</time></trkpt>
<trkpt lat="46.607613" lon="7.028473"><ele></ele><time>2014-4-1T4:45:33Z</time></trkpt>
<trkpt lat="46.607613" lon="7.028439"><ele></ele><time>2014-4-1T4:45:36Z</time></trkpt>
<trkpt lat="46.607613" lon="7.028440"><ele></ele><time>2014-4-1T4:45:39Z</time></trkpt>
<trkpt lat="46.607613" lon="7.028442"><ele></ele><time>2014-4-1T4:45:42Z</time></trkpt>
<trkpt lat="46.607613" lon="7.028447"><ele></ele><time>2014-4-1T4:45:45Z</time></trkpt>
<trkpt lat="46.607613" lon="7.028452"><ele></ele><time>2014-4-1T4:45:48Z</time></trkpt>
<trkpt lat="46.607613" lon="7.028454"><ele></ele><time>2014-4-1T4:45:51Z</time></trkpt>
<trkpt lat="46.607609" lon="7.028458"><ele></ele><time>2014-4-1T4:45:54Z</time></trkpt>
<trkpt lat="46.607609" lon="7.028459"><ele></ele><time>2014-4-1T4:45:57Z</time></trkpt>
<trkpt lat="46.607609" lon="7.028459"><ele></ele><time>2014-4-1T4:46:0Z</time></trkpt>
<trkpt lat="46.607609" lon="7.028457"><ele></ele><time>2014-4-1T4:46:3Z</time></trkpt>
<trkpt lat="46.607571" lon="7.028406"><ele></ele><time>2014-4-1T4:46:6Z</time></trkpt>
<trkpt lat="46.607513" lon="7.028317"><ele></ele><time>2014-4-1T4:46:9Z</time></trkpt>
<trkpt lat="46.607441" lon="7.028157"><ele></ele><time>2014-4-1T4:46:12Z</time></trkpt>
<trkpt lat="46.607430" lon="7.028108"><ele></ele><time>2014-4-1T4:46:15Z</time></trkpt>
<trkpt lat="46.607433" lon="7.028105"><ele></ele><time>2014-4-1T4:46:18Z</time></trkpt>
<trkpt lat="46.607433" lon="7.028107"><ele></ele><time>2014-4-1T4:46:21Z</time></trkpt>
<trkpt lat="46.607391" lon="7.028039"><ele></ele><time>2014-4-1T4:46:24Z</time></trkpt>
<trkpt lat="46.607300" lon="7.027900"><ele></ele><time>2014-4-1T4:46:27Z</time></trkpt>
<trkpt lat="46.607212" lon="7.027753"><ele></ele><time>2014-4-1T4:46:30Z</time></trkpt>
<trkpt lat="46.607132" lon="7.027596"><ele></ele><time>2014-4-1T4:46:33Z</time></trkpt>
<trkpt lat="46.607048" lon="7.027441"><ele></ele><time>2014-4-1T4:46:36Z</time></trkpt>
<trkpt lat="46.606972" lon="7.027296"><ele></ele><time>2014-4-1T4:46:39Z</time></trkpt>
<trkpt lat="46.606876" lon="7.027173"><ele></ele><time>2014-4-1T4:46:42Z</time></trkpt>
<trkpt lat="46.606777" lon="7.027078"><ele></ele><time>2014-4-1T4:46:45Z</time></trkpt>
<trkpt lat="46.606678" lon="7.027024"><ele></ele><time>2014-4-1T4:46:48Z</time></trkpt>
<trkpt lat="46.606579" lon="7.026981"><ele></ele><time>2014-4-1T4:46:51Z</time></trkpt>
<trkpt lat="46.606483" lon="7.026945"><ele></ele><time>2014-4-1T4:46:54Z</time></trkpt>
<trkpt lat="46.606403" lon="7.026913"><ele></ele><time>2014-4-1T4:46:57Z</time></trkpt>
<trkpt lat="46.606327" lon="7.026893"><ele></ele><time>2014-4-1T4:47:0Z</time></trkpt>
<trkpt lat="46.606236" lon="7.026875"><ele></ele><time>2014-4-1T4:47:3Z</time></trkpt>
<trkpt lat="46.606136" lon="7.026816"><ele></ele><time>2014-4-1T4:47:6Z</time></trkpt>
<trkpt lat="46.606056" lon="7.026742"><ele></ele><time>2014-4-1T4:47:9Z</time></trkpt>
<trkpt lat="46.605911" lon="7.026619"><ele></ele><time>2014-4-1T4:47:12Z</time></trkpt>
<trkpt lat="46.605812" lon="7.026463"><ele></ele><time>2014-4-1T4:47:15Z</time></trkpt>
<trkpt lat="46.605732" lon="7.026296"><ele></ele><time>2014-4-1T4:47:18Z</time></trkpt>
<trkpt lat="46.605648" lon="7.026164"><ele></ele><time>2014-4-1T4:47:21Z</time></trkpt>
<trkpt lat="46.605576" lon="7.026020"><ele></ele><time>2014-4-1T4:47:24Z</time></trkpt>
<trkpt lat="46.605488" lon="7.025877"><ele></ele><time>2014-4-1T4:47:27Z</time></trkpt>
<trkpt lat="46.605419" lon="7.025739"><ele></ele><time>2014-4-1T4:47:30Z</time></trkpt>
<trkpt lat="46.605331" lon="7.025555"><ele></ele><time>2014-4-1T4:47:33Z</time></trkpt>
<trkpt lat="46.605228" lon="7.025351"><ele></ele><time>2014-4-1T4:47:36Z</time></trkpt>
<trkpt lat="46.605114" lon="7.025148"><ele></ele><time>2014-4-1T4:47:39Z</time></trkpt>
<trkpt lat="46.604996" lon="7.024977"><ele></ele><time>2014-4-1T4:47:42Z</time></trkpt>
<trkpt lat="46.604908" lon="7.024780"><ele></ele><time>2014-4-1T4:47:45Z</time></trkpt>
<trkpt lat="46.604824" lon="7.024590"><ele></ele><time>2014-4-1T4:47:48Z</time></trkpt>
<trkpt lat="46.604755" lon="7.024401"><ele></ele><time>2014-4-1T4:47:51Z</time></trkpt>
<trkpt lat="46.604687" lon="7.024197"><ele></ele><time>2014-4-1T4:47:54Z</time></trkpt>
<trkpt lat="46.604599" lon="7.024014"><ele></ele><time>2014-4-1T4:47:57Z</time></trkpt>
<trkpt lat="46.604523" lon="7.023818"><ele></ele><time>2014-4-1T4:48:0Z</time></trkpt>
<trkpt lat="46.604439" lon="7.023638"><ele></ele><time>2014-4-1T4:48:3Z</time></trkpt>
<trkpt lat="46.604370" lon="7.023449"><ele></ele><time>2014-4-1T4:48:6Z</time></trkpt>
<trkpt lat="46.604324" lon="7.023227"><ele></ele><time>2014-4-1T4:48:9Z</time></trkpt>
<trkpt lat="46.604225" lon="7.022993"><ele></ele><time>2014-4-1T4:48:12Z</time></trkpt>
<trkpt lat="46.604137" lon="7.022749"><ele></ele><time>2014-4-1T4:48:15Z</time></trkpt>
<trkpt lat="46.604038" lon="7.022504"><ele></ele><time>2014-4-1T4:48:18Z</time></trkpt>
<trkpt lat="46.603939" lon="7.022295"><ele></ele><time>2014-4-1T4:48:21Z</time></trkpt>
<trkpt lat="46.603855" lon="7.022108"><ele></ele><time>2014-4-1T4:48:24Z</time></trkpt>
<trkpt lat="46.603790" lon="7.021902"><ele></ele><time>2014-4-1T4:48:27Z</time></trkpt>
<trkpt lat="46.603718" lon="7.021717"><ele></ele><time>2014-4-1T4:48:30Z</time></trkpt>
<trkpt lat="46.603653" lon="7.021551"><ele></ele><time>2014-4-1T4:48:33Z</time></trkpt>
<trkpt lat="46.603569" lon="7.021382"><ele></ele><time>2014-4-1T4:48:36Z</time></trkpt>
<trkpt lat="46.603508" lon="7.021196"><ele></ele><time>2014-4-1T4:48:39Z</time></trkpt>
<trkpt lat="46.603443" lon="7.021022"><ele></ele><time>2014-4-1T4:48:42Z</time></trkpt>
<trkpt lat="46.603367" lon="7.020846"><ele></ele><time>2014-4-1T4:48:45Z</time></trkpt>
<trkpt lat="46.603279" lon="7.020670"><ele></ele><time>2014-4-1T4:48:48Z</time></trkpt>
<trkpt lat="46.603207" lon="7.020425"><ele></ele><time>2014-4-1T4:48:51Z</time></trkpt>
<trkpt lat="46.603092" lon="7.020201"><ele></ele><time>2014-4-1T4:48:54Z</time></trkpt>
<trkpt lat="46.602974" lon="7.019970"><ele></ele><time>2014-4-1T4:48:57Z</time></trkpt>
<trkpt lat="46.602848" lon="7.019720"><ele></ele><time>2014-4-1T4:49:0Z</time></trkpt>
<trkpt lat="46.602737" lon="7.019481"><ele></ele><time>2014-4-1T4:49:3Z</time></trkpt>
<trkpt lat="46.602650" lon="7.019273"><ele></ele><time>2014-4-1T4:49:6Z</time></trkpt>
<trkpt lat="46.602570" lon="7.019085"><ele></ele><time>2014-4-1T4:49:9Z</time></trkpt>
<trkpt lat="46.602489" lon="7.018908"><ele></ele><time>2014-4-1T4:49:12Z</time></trkpt>
<trkpt lat="46.602402" lon="7.018698"><ele></ele><time>2014-4-1T4:49:15Z</time></trkpt>
<trkpt lat="46.602310" lon="7.018485"><ele></ele><time>2014-4-1T4:49:18Z</time></trkpt>
<trkpt lat="46.602215" lon="7.018284"><ele></ele><time>2014-4-1T4:49:21Z</time></trkpt>
<trkpt lat="46.602116" lon="7.018064"><ele></ele><time>2014-4-1T4:49:24Z</time></trkpt>
<trkpt lat="46.602009" lon="7.017817"><ele></ele><time>2014-4-1T4:49:27Z</time></trkpt>
<trkpt lat="46.601894" lon="7.017537"><ele></ele><time>2014-4-1T4:49:30Z</time></trkpt>
<trkpt lat="46.601776" lon="7.017231"><ele></ele><time>2014-4-1T4:49:33Z</time></trkpt>
<trkpt lat="46.601654" lon="7.016903"><ele></ele><time>2014-4-1T4:49:36Z</time></trkpt>
<trkpt lat="46.601528" lon="7.016533"><ele></ele><time>2014-4-1T4:49:39Z</time></trkpt>
<trkpt lat="46.601421" lon="7.016134"><ele></ele><time>2014-4-1T4:49:42Z</time></trkpt>
<trkpt lat="46.601341" lon="7.015732"><ele></ele><time>2014-4-1T4:49:45Z</time></trkpt>
<trkpt lat="46.601273" lon="7.015337"><ele></ele><time>2014-4-1T4:49:48Z</time></trkpt>
<trkpt lat="46.601208" lon="7.014945"><ele></ele><time>2014-4-1T4:49:51Z</time></trkpt>
<trkpt lat="46.601124" lon="7.014557"><ele></ele><time>2014-4-1T4:49:54Z</time></trkpt>
<trkpt lat="46.601032" lon="7.014190"><ele></ele><time>2014-4-1T4:49:57Z</time></trkpt>
<trkpt lat="46.600925" lon="7.013909"><ele></ele><time>2014-4-1T4:50:0Z</time></trkpt>
<trkpt lat="46.600777" lon="7.013659"><ele></ele><time>2014-4-1T4:50:3Z</time></trkpt>
<trkpt lat="46.600628" lon="7.013421"><ele></ele><time>2014-4-1T4:50:6Z</time></trkpt>
<trkpt lat="46.600471" lon="7.013160"><ele></ele><time>2014-4-1T4:50:9Z</time></trkpt>
<trkpt lat="46.600330" lon="7.012899"><ele></ele><time>2014-4-1T4:50:12Z</time></trkpt>
<trkpt lat="46.600231" lon="7.012719"><ele></ele><time>2014-4-1T4:50:15Z</time></trkpt>
<trkpt lat="46.600166" lon="7.012565"><ele></ele><time>2014-4-1T4:50:18Z</time></trkpt>
<trkpt lat="46.600098" lon="7.012395"><ele></ele><time>2014-4-1T4:50:21Z</time></trkpt>
<trkpt lat="46.600056" lon="7.012233"><ele></ele><time>2014-4-1T4:50:24Z</time></trkpt>
<trkpt lat="46.599979" lon="7.012072"><ele></ele><time>2014-4-1T4:50:27Z</time></trkpt>
<trkpt lat="46.599895" lon="7.011920"><ele></ele><time>2014-4-1T4:50:30Z</time></trkpt>
<trkpt lat="46.599796" lon="7.011781"><ele></ele><time>2014-4-1T4:50:33Z</time></trkpt>
<trkpt lat="46.599670" lon="7.011688"><ele></ele><time>2014-4-1T4:50:36Z</time></trkpt>
<trkpt lat="46.599525" lon="7.011659"><ele></ele><time>2014-4-1T4:50:39Z</time></trkpt>
<trkpt lat="46.599350" lon="7.011633"><ele></ele><time>2014-4-1T4:50:42Z</time></trkpt>
<trkpt lat="46.599174" lon="7.011615"><ele></ele><time>2014-4-1T4:50:45Z</time></trkpt>
<trkpt lat="46.599037" lon="7.011713"><ele></ele><time>2014-4-1T4:50:48Z</time></trkpt>
<trkpt lat="46.598942" lon="7.011860"><ele></ele><time>2014-4-1T4:50:51Z</time></trkpt>
<trkpt lat="46.598835" lon="7.011937"><ele></ele><time>2014-4-1T4:50:54Z</time></trkpt>
<trkpt lat="46.598728" lon="7.011882"><ele></ele><time>2014-4-1T4:50:57Z</time></trkpt>
<trkpt lat="46.598663" lon="7.011827"><ele></ele><time>2014-4-1T4:51:0Z</time></trkpt>
<trkpt lat="46.598629" lon="7.011729"><ele></ele><time>2014-4-1T4:51:3Z</time></trkpt>
<trkpt lat="46.598621" lon="7.011584"><ele></ele><time>2014-4-1T4:51:6Z</time></trkpt>
<trkpt lat="46.598583" lon="7.011424"><ele></ele><time>2014-4-1T4:51:9Z</time></trkpt>
<trkpt lat="46.598579" lon="7.011303"><ele></ele><time>2014-4-1T4:51:12Z</time></trkpt>
<trkpt lat="46.598507" lon="7.011137"><ele></ele><time>2014-4-1T4:51:15Z</time></trkpt>
<trkpt lat="46.598457" lon="7.010986"><ele></ele><time>2014-4-1T4:51:18Z</time></trkpt>
<trkpt lat="46.598457" lon="7.010849"><ele></ele><time>2014-4-1T4:51:21Z</time></trkpt>
<trkpt lat="46.598446" lon="7.010717"><ele></ele><time>2014-4-1T4:51:24Z</time></trkpt>
<trkpt lat="46.598412" lon="7.010587"><ele></ele><time>2014-4-1T4:51:27Z</time></trkpt>
<trkpt lat="46.598362" lon="7.010476"><ele></ele><time>2014-4-1T4:51:30Z</time></trkpt>
<trkpt lat="46.598316" lon="7.010309"><ele></ele><time>2014-4-1T4:51:33Z</time></trkpt>
<trkpt lat="46.598270" lon="7.010151"><ele></ele><time>2014-4-1T4:51:36Z</time></trkpt>
<trkpt lat="46.598251" lon="7.010017"><ele></ele><time>2014-4-1T4:51:39Z</time></trkpt>
<trkpt lat="46.598232" lon="7.009842"><ele></ele><time>2014-4-1T4:51:42Z</time></trkpt>
<trkpt lat="46.598152" lon="7.009593"><ele></ele><time>2014-4-1T4:51:45Z</time></trkpt>
<trkpt lat="46.598057" lon="7.009311"><ele></ele><time>2014-4-1T4:51:48Z</time></trkpt>
<trkpt lat="46.597973" lon="7.009072"><ele></ele><time>2014-4-1T4:51:51Z</time></trkpt>
<trkpt lat="46.597889" lon="7.008873"><ele></ele><time>2014-4-1T4:51:54Z</time></trkpt>
<trkpt lat="46.597740" lon="7.008663"><ele></ele><time>2014-4-1T4:51:57Z</time></trkpt>
<trkpt lat="46.597652" lon="7.008486"><ele></ele><time>2014-4-1T4:52:0Z</time></trkpt>
<trkpt lat="46.597534" lon="7.008331"><ele></ele><time>2014-4-1T4:52:3Z</time></trkpt>
<trkpt lat="46.597412" lon="7.008177"><ele></ele><time>2014-4-1T4:52:6Z</time></trkpt>
<trkpt lat="46.597275" lon="7.008097"><ele></ele><time>2014-4-1T4:52:9Z</time></trkpt>
<trkpt lat="46.597130" lon="7.008078"><ele></ele><time>2014-4-1T4:52:12Z</time></trkpt>
<trkpt lat="46.596989" lon="7.008148"><ele></ele><time>2014-4-1T4:52:15Z</time></trkpt>
<trkpt lat="46.596859" lon="7.008261"><ele></ele><time>2014-4-1T4:52:18Z</time></trkpt>
<trkpt lat="46.596733" lon="7.008373"><ele></ele><time>2014-4-1T4:52:21Z</time></trkpt>
<trkpt lat="46.596603" lon="7.008482"><ele></ele><time>2014-4-1T4:52:24Z</time></trkpt>
<trkpt lat="46.596485" lon="7.008579"><ele></ele><time>2014-4-1T4:52:27Z</time></trkpt>
<trkpt lat="46.596378" lon="7.008696"><ele></ele><time>2014-4-1T4:52:30Z</time></trkpt>
<trkpt lat="46.596268" lon="7.008794"><ele></ele><time>2014-4-1T4:52:33Z</time></trkpt>
<trkpt lat="46.596146" lon="7.008897"><ele></ele><time>2014-4-1T4:52:36Z</time></trkpt>
<trkpt lat="46.596031" lon="7.009003"><ele></ele><time>2014-4-1T4:52:39Z</time></trkpt>
<trkpt lat="46.595913" lon="7.009092"><ele></ele><time>2014-4-1T4:52:42Z</time></trkpt>
<trkpt lat="46.595802" lon="7.009144"><ele></ele><time>2014-4-1T4:52:45Z</time></trkpt>
<trkpt lat="46.595684" lon="7.009142"><ele></ele><time>2014-4-1T4:52:48Z</time></trkpt>
<trkpt lat="46.595562" lon="7.009111"><ele></ele><time>2014-4-1T4:52:51Z</time></trkpt>
<trkpt lat="46.595448" lon="7.009041"><ele></ele><time>2014-4-1T4:52:54Z</time></trkpt>
<trkpt lat="46.595329" lon="7.008995"><ele></ele><time>2014-4-1T4:52:57Z</time></trkpt>
<trkpt lat="46.595211" lon="7.008945"><ele></ele><time>2014-4-1T4:53:0Z</time></trkpt>
<trkpt lat="46.595081" lon="7.008899"><ele></ele><time>2014-4-1T4:53:3Z</time></trkpt>
<trkpt lat="46.594948" lon="7.008884"><ele></ele><time>2014-4-1T4:53:6Z</time></trkpt>
<trkpt lat="46.594799" lon="7.008922"><ele></ele><time>2014-4-1T4:53:9Z</time></trkpt>
<trkpt lat="46.594669" lon="7.009019"><ele></ele><time>2014-4-1T4:53:12Z</time></trkpt>
<trkpt lat="46.594559" lon="7.009169"><ele></ele><time>2014-4-1T4:53:15Z</time></trkpt>
<trkpt lat="46.594452" lon="7.009326"><ele></ele><time>2014-4-1T4:53:18Z</time></trkpt>
<trkpt lat="46.594345" lon="7.009491"><ele></ele><time>2014-4-1T4:53:21Z</time></trkpt>
<trkpt lat="46.594234" lon="7.009654"><ele></ele><time>2014-4-1T4:53:24Z</time></trkpt>
<trkpt lat="46.594120" lon="7.009796"><ele></ele><time>2014-4-1T4:53:27Z</time></trkpt>
<trkpt lat="46.594021" lon="7.009808"><ele></ele><time>2014-4-1T4:53:30Z</time></trkpt>
<trkpt lat="46.593906" lon="7.009928"><ele></ele><time>2014-4-1T4:53:33Z</time></trkpt>
<trkpt lat="46.593750" lon="7.009880"><ele></ele><time>2014-4-1T4:53:36Z</time></trkpt>
<trkpt lat="46.593586" lon="7.009912"><ele></ele><time>2014-4-1T4:53:39Z</time></trkpt>
<trkpt lat="46.593452" lon="7.009930"><ele></ele><time>2014-4-1T4:53:42Z</time></trkpt>
<trkpt lat="46.593346" lon="7.009966"><ele></ele><time>2014-4-1T4:53:45Z</time></trkpt>
<trkpt lat="46.593239" lon="7.009990"><ele></ele><time>2014-4-1T4:53:48Z</time></trkpt>
<trkpt lat="46.593117" lon="7.009996"><ele></ele><time>2014-4-1T4:53:51Z</time></trkpt>
<trkpt lat="46.593021" lon="7.010009"><ele></ele><time>2014-4-1T4:53:54Z</time></trkpt>
<trkpt lat="46.592926" lon="7.010026"><ele></ele><time>2014-4-1T4:53:57Z</time></trkpt>
<trkpt lat="46.592838" lon="7.010065"><ele></ele><time>2014-4-1T4:54:0Z</time></trkpt>
<trkpt lat="46.592739" lon="7.010102"><ele></ele><time>2014-4-1T4:54:3Z</time></trkpt>
<trkpt lat="46.592590" lon="7.010175"><ele></ele><time>2014-4-1T4:54:6Z</time></trkpt>
<trkpt lat="46.592434" lon="7.010197"><ele></ele><time>2014-4-1T4:54:9Z</time></trkpt>
<trkpt lat="46.592285" lon="7.010256"><ele></ele><time>2014-4-1T4:54:12Z</time></trkpt>
<trkpt lat="46.592125" lon="7.010289"><ele></ele><time>2014-4-1T4:54:15Z</time></trkpt>
<trkpt lat="46.591995" lon="7.010359"><ele></ele><time>2014-4-1T4:54:18Z</time></trkpt>
<trkpt lat="46.591873" lon="7.010390"><ele></ele><time>2014-4-1T4:54:21Z</time></trkpt>
<trkpt lat="46.591740" lon="7.010439"><ele></ele><time>2014-4-1T4:54:24Z</time></trkpt>
<trkpt lat="46.591595" lon="7.010419"><ele></ele><time>2014-4-1T4:54:27Z</time></trkpt>
<trkpt lat="46.591446" lon="7.010386"><ele></ele><time>2014-4-1T4:54:30Z</time></trkpt>
<trkpt lat="46.591301" lon="7.010340"><ele></ele><time>2014-4-1T4:54:33Z</time></trkpt>
<trkpt lat="46.591190" lon="7.010261"><ele></ele><time>2014-4-1T4:54:36Z</time></trkpt>
<trkpt lat="46.591110" lon="7.010186"><ele></ele><time>2014-4-1T4:54:39Z</time></trkpt>
<trkpt lat="46.591030" lon="7.010059"><ele></ele><time>2014-4-1T4:54:42Z</time></trkpt>
<trkpt lat="46.590954" lon="7.009900"><ele></ele><time>2014-4-1T4:54:45Z</time></trkpt>
<trkpt lat="46.590874" lon="7.009763"><ele></ele><time>2014-4-1T4:54:48Z</time></trkpt>
<trkpt lat="46.590858" lon="7.009651"><ele></ele><time>2014-4-1T4:54:51Z</time></trkpt>
<trkpt lat="46.590851" lon="7.009510"><ele></ele><time>2014-4-1T4:54:54Z</time></trkpt>
<trkpt lat="46.590824" lon="7.009332"><ele></ele><time>2014-4-1T4:54:57Z</time></trkpt>
<trkpt lat="46.590740" lon="7.009102"><ele></ele><time>2014-4-1T4:55:0Z</time></trkpt>
<trkpt lat="46.590698" lon="7.008960"><ele></ele><time>2014-4-1T4:55:3Z</time></trkpt>
<trkpt lat="46.590668" lon="7.008845"><ele></ele><time>2014-4-1T4:55:6Z</time></trkpt>
<trkpt lat="46.590672" lon="7.008718"><ele></ele><time>2014-4-1T4:55:9Z</time></trkpt>
<trkpt lat="46.590679" lon="7.008601"><ele></ele><time>2014-4-1T4:55:12Z</time></trkpt>
<trkpt lat="46.590694" lon="7.008490"><ele></ele><time>2014-4-1T4:55:15Z</time></trkpt>
<trkpt lat="46.590714" lon="7.008316"><ele></ele><time>2014-4-1T4:55:18Z</time></trkpt>
<trkpt lat="46.590733" lon="7.008113"><ele></ele><time>2014-4-1T4:55:21Z</time></trkpt>
<trkpt lat="46.590710" lon="7.007893"><ele></ele><time>2014-4-1T4:55:24Z</time></trkpt>
<trkpt lat="46.590694" lon="7.007749"><ele></ele><time>2014-4-1T4:55:27Z</time></trkpt>
<trkpt lat="46.590572" lon="7.007633"><ele></ele><time>2014-4-1T4:55:30Z</time></trkpt>
<trkpt lat="46.590469" lon="7.007507"><ele></ele><time>2014-4-1T4:55:33Z</time></trkpt>
<trkpt lat="46.590363" lon="7.007374"><ele></ele><time>2014-4-1T4:55:36Z</time></trkpt>
<trkpt lat="46.590313" lon="7.007113"><ele></ele><time>2014-4-1T4:55:39Z</time></trkpt>
<trkpt lat="46.590179" lon="7.007020"><ele></ele><time>2014-4-1T4:55:42Z</time></trkpt>
<trkpt lat="46.590042" lon="7.006951"><ele></ele><time>2014-4-1T4:55:45Z</time></trkpt>
<trkpt lat="46.589924" lon="7.006822"><ele></ele><time>2014-4-1T4:55:48Z</time></trkpt>
<trkpt lat="46.589771" lon="7.006711"><ele></ele><time>2014-4-1T4:55:51Z</time></trkpt>
<trkpt lat="46.589615" lon="7.006503"><ele></ele><time>2014-4-1T4:55:54Z</time></trkpt>
<trkpt lat="46.589375" lon="7.006226"><ele></ele><time>2014-4-1T4:55:57Z</time></trkpt>
<trkpt lat="46.589119" lon="7.005939"><ele></ele><time>2014-4-1T4:56:0Z</time></trkpt>
<trkpt lat="46.588902" lon="7.005819"><ele></ele><time>2014-4-1T4:56:3Z</time></trkpt>
<trkpt lat="46.588589" lon="7.005854"><ele></ele><time>2014-4-1T4:56:6Z</time></trkpt>
<trkpt lat="46.588154" lon="7.005641"><ele></ele><time>2014-4-1T4:56:9Z</time></trkpt>
<trkpt lat="46.587746" lon="7.005416"><ele></ele><time>2014-4-1T4:56:12Z</time></trkpt>
<trkpt lat="46.587635" lon="7.005370"><ele></ele><time>2014-4-1T4:56:15Z</time></trkpt>
<trkpt lat="46.587631" lon="7.005373"><ele></ele><time>2014-4-1T4:56:18Z</time></trkpt>
<trkpt lat="46.587631" lon="7.005374"><ele></ele><time>2014-4-1T4:56:21Z</time></trkpt>
<trkpt lat="46.587631" lon="7.005374"><ele></ele><time>2014-4-1T4:56:24Z</time></trkpt>
<trkpt lat="46.587635" lon="7.005375"><ele></ele><time>2014-4-1T4:56:27Z</time></trkpt>
<trkpt lat="46.587635" lon="7.005374"><ele></ele><time>2014-4-1T4:56:30Z</time></trkpt>
<trkpt lat="46.587635" lon="7.005375"><ele></ele><time>2014-4-1T4:56:33Z</time></trkpt>
<trkpt lat="46.587631" lon="7.005376"><ele></ele><time>2014-4-1T4:56:36Z</time></trkpt>
<trkpt lat="46.587631" lon="7.005377"><ele></ele><time>2014-4-1T4:56:39Z</time></trkpt>
<trkpt lat="46.587631" lon="7.005378"><ele></ele><time>2014-4-1T4:56:42Z</time></trkpt>
<trkpt lat="46.587627" lon="7.005379"><ele></ele><time>2014-4-1T4:56:45Z</time></trkpt>
<trkpt lat="46.587627" lon="7.005379"><ele></ele><time>2014-4-1T4:56:48Z</time></trkpt>
<trkpt lat="46.587627" lon="7.005380"><ele></ele><time>2014-4-1T4:56:51Z</time></trkpt>
<trkpt lat="46.587608" lon="7.005360"><ele></ele><time>2014-4-1T4:56:54Z</time></trkpt>
<trkpt lat="46.587437" lon="7.005203"><ele></ele><time>2014-4-1T4:56:57Z</time></trkpt>
<trkpt lat="46.587109" lon="7.004962"><ele></ele><time>2014-4-1T4:57:0Z</time></trkpt>
<trkpt lat="46.586723" lon="7.004630"><ele></ele><time>2014-4-1T4:57:3Z</time></trkpt>
<trkpt lat="46.586346" lon="7.004151"><ele></ele><time>2014-4-1T4:57:6Z</time></trkpt>
<trkpt lat="46.585846" lon="7.003744"><ele></ele><time>2014-4-1T4:57:9Z</time></trkpt>
<trkpt lat="46.585384" lon="7.003522"><ele></ele><time>2014-4-1T4:57:12Z</time></trkpt>
<trkpt lat="46.585175" lon="7.003340"><ele></ele><time>2014-4-1T4:57:15Z</time></trkpt>
<trkpt lat="46.585136" lon="7.003304"><ele></ele><time>2014-4-1T4:57:18Z</time></trkpt>
<trkpt lat="46.585129" lon="7.003309"><ele></ele><time>2014-4-1T4:57:21Z</time></trkpt>
<trkpt lat="46.585129" lon="7.003310"><ele></ele><time>2014-4-1T4:57:24Z</time></trkpt>
<trkpt lat="46.585129" lon="7.003310"><ele></ele><time>2014-4-1T4:57:27Z</time></trkpt>
<trkpt lat="46.585129" lon="7.003310"><ele></ele><time>2014-4-1T4:57:30Z</time></trkpt>
<trkpt lat="46.585129" lon="7.003310"><ele></ele><time>2014-4-1T4:57:33Z</time></trkpt>
<trkpt lat="46.585133" lon="7.003310"><ele></ele><time>2014-4-1T4:57:36Z</time></trkpt>
<trkpt lat="46.585133" lon="7.003310"><ele></ele><time>2014-4-1T4:57:39Z</time></trkpt>
<trkpt lat="46.585133" lon="7.003311"><ele></ele><time>2014-4-1T4:57:42Z</time></trkpt>
<trkpt lat="46.585133" lon="7.003312"><ele></ele><time>2014-4-1T4:57:45Z</time></trkpt>
<trkpt lat="46.585117" lon="7.003185"><ele></ele><time>2014-4-1T4:57:48Z</time></trkpt>
<trkpt lat="46.585129" lon="7.002929"><ele></ele><time>2014-4-1T4:57:51Z</time></trkpt>
<trkpt lat="46.584991" lon="7.002666"><ele></ele><time>2014-4-1T4:57:54Z</time></trkpt>
<trkpt lat="46.584896" lon="7.002353"><ele></ele><time>2014-4-1T4:57:57Z</time></trkpt>
<trkpt lat="46.584732" lon="7.001901"><ele></ele><time>2014-4-1T4:58:0Z</time></trkpt>
<trkpt lat="46.584492" lon="7.001561"><ele></ele><time>2014-4-1T4:58:3Z</time></trkpt>
<trkpt lat="46.584217" lon="7.001320"><ele></ele><time>2014-4-1T4:58:6Z</time></trkpt>
<trkpt lat="46.583977" lon="7.001189"><ele></ele><time>2014-4-1T4:58:9Z</time></trkpt>
<trkpt lat="46.583786" lon="7.001339"><ele></ele><time>2014-4-1T4:58:12Z</time></trkpt>
<trkpt lat="46.583672" lon="7.001532"><ele></ele><time>2014-4-1T4:58:15Z</time></trkpt>
<trkpt lat="46.583523" lon="7.001771"><ele></ele><time>2014-4-1T4:58:18Z</time></trkpt>
<trkpt lat="46.583340" lon="7.001945"><ele></ele><time>2014-4-1T4:58:21Z</time></trkpt>
<trkpt lat="46.583126" lon="7.001889"><ele></ele><time>2014-4-1T4:58:24Z</time></trkpt>
<trkpt lat="46.582935" lon="7.001888"><ele></ele><time>2014-4-1T4:58:27Z</time></trkpt>
<trkpt lat="46.582741" lon="7.001842"><ele></ele><time>2014-4-1T4:58:30Z</time></trkpt>
<trkpt lat="46.582558" lon="7.001729"><ele></ele><time>2014-4-1T4:58:33Z</time></trkpt>
<trkpt lat="46.582413" lon="7.001569"><ele></ele><time>2014-4-1T4:58:36Z</time></trkpt>
<trkpt lat="46.582287" lon="7.001425"><ele></ele><time>2014-4-1T4:58:39Z</time></trkpt>
<trkpt lat="46.582195" lon="7.001249"><ele></ele><time>2014-4-1T4:58:42Z</time></trkpt>
<trkpt lat="46.582092" lon="7.001041"><ele></ele><time>2014-4-1T4:58:45Z</time></trkpt>
<trkpt lat="46.581978" lon="7.000809"><ele></ele><time>2014-4-1T4:58:48Z</time></trkpt>
<trkpt lat="46.581867" lon="7.000609"><ele></ele><time>2014-4-1T4:58:51Z</time></trkpt>
<trkpt lat="46.581745" lon="7.000408"><ele></ele><time>2014-4-1T4:58:54Z</time></trkpt>
<trkpt lat="46.581612" lon="7.000290"><ele></ele><time>2014-4-1T4:58:57Z</time></trkpt>
<trkpt lat="46.581478" lon="7.000228"><ele></ele><time>2014-4-1T4:59:0Z</time></trkpt>
<trkpt lat="46.581356" lon="7.000196"><ele></ele><time>2014-4-1T4:59:3Z</time></trkpt>
<trkpt lat="46.581219" lon="7.000149"><ele></ele><time>2014-4-1T4:59:6Z</time></trkpt>
<trkpt lat="46.581097" lon="7.000069"><ele></ele><time>2014-4-1T4:59:9Z</time></trkpt>
<trkpt lat="46.580994" lon="7.000021"><ele></ele><time>2014-4-1T4:59:12Z</time></trkpt>
<trkpt lat="46.580894" lon="6.999972"><ele></ele><time>2014-4-1T4:59:15Z</time></trkpt>
<trkpt lat="46.580746" lon="6.999938"><ele></ele><time>2014-4-1T4:59:18Z</time></trkpt>
<trkpt lat="46.580643" lon="6.999927"><ele></ele><time>2014-4-1T4:59:21Z</time></trkpt>
<trkpt lat="46.580498" lon="6.999869"><ele></ele><time>2014-4-1T4:59:24Z</time></trkpt>
<trkpt lat="46.580357" lon="6.999798"><ele></ele><time>2014-4-1T4:59:27Z</time></trkpt>
<trkpt lat="46.580223" lon="6.999776"><ele></ele><time>2014-4-1T4:59:30Z</time></trkpt>
<trkpt lat="46.580097" lon="6.999752"><ele></ele><time>2014-4-1T4:59:33Z</time></trkpt>
<trkpt lat="46.579945" lon="6.999712"><ele></ele><time>2014-4-1T4:59:36Z</time></trkpt>
<trkpt lat="46.579796" lon="6.999692"><ele></ele><time>2014-4-1T4:59:39Z</time></trkpt>
<trkpt lat="46.579613" lon="6.999632"><ele></ele><time>2014-4-1T4:59:42Z</time></trkpt>
<trkpt lat="46.579422" lon="6.999609"><ele></ele><time>2014-4-1T4:59:45Z</time></trkpt>
<trkpt lat="46.579300" lon="6.999568"><ele></ele><time>2014-4-1T4:59:48Z</time></trkpt>
<trkpt lat="46.579205" lon="6.999505"><ele></ele><time>2014-4-1T4:59:51Z</time></trkpt>
<trkpt lat="46.579029" lon="6.999453"><ele></ele><time>2014-4-1T4:59:54Z</time></trkpt>
<trkpt lat="46.578892" lon="6.999375"><ele></ele><time>2014-4-1T4:59:57Z</time></trkpt>
<trkpt lat="46.578751" lon="6.999298"><ele></ele><time>2014-4-1T5:0:0Z</time></trkpt>
<trkpt lat="46.578598" lon="6.999192"><ele></ele><time>2014-4-1T5:0:3Z</time></trkpt>
<trkpt lat="46.578453" lon="6.999034"><ele></ele><time>2014-4-1T5:0:6Z</time></trkpt>
<trkpt lat="46.578331" lon="6.998918"><ele></ele><time>2014-4-1T5:0:9Z</time></trkpt>
<trkpt lat="46.578144" lon="6.998681"><ele></ele><time>2014-4-1T5:0:12Z</time></trkpt>
<trkpt lat="46.577946" lon="6.998473"><ele></ele><time>2014-4-1T5:0:15Z</time></trkpt>
<trkpt lat="46.577759" lon="6.998248"><ele></ele><time>2014-4-1T5:0:18Z</time></trkpt>
<trkpt lat="46.577625" lon="6.997975"><ele></ele><time>2014-4-1T5:0:21Z</time></trkpt>
<trkpt lat="46.577457" lon="6.997730"><ele></ele><time>2014-4-1T5:0:24Z</time></trkpt>
<trkpt lat="46.577267" lon="6.997840"><ele></ele><time>2014-4-1T5:0:27Z</time></trkpt>
<trkpt lat="46.577206" lon="6.998169"><ele></ele><time>2014-4-1T5:0:30Z</time></trkpt>
<trkpt lat="46.577168" lon="6.998488"><ele></ele><time>2014-4-1T5:0:33Z</time></trkpt>
<trkpt lat="46.577091" lon="6.998784"><ele></ele><time>2014-4-1T5:0:36Z</time></trkpt>
<trkpt lat="46.577015" lon="6.999120"><ele></ele><time>2014-4-1T5:0:39Z</time></trkpt>
<trkpt lat="46.576855" lon="6.999416"><ele></ele><time>2014-4-1T5:0:42Z</time></trkpt>
<trkpt lat="46.576572" lon="6.999498"><ele></ele><time>2014-4-1T5:0:45Z</time></trkpt>
<trkpt lat="46.576317" lon="6.999456"><ele></ele><time>2014-4-1T5:0:48Z</time></trkpt>
<trkpt lat="46.576126" lon="6.999184"><ele></ele><time>2014-4-1T5:0:51Z</time></trkpt>
<trkpt lat="46.575981" lon="6.998810"><ele></ele><time>2014-4-1T5:0:54Z</time></trkpt>
<trkpt lat="46.575851" lon="6.998405"><ele></ele><time>2014-4-1T5:0:57Z</time></trkpt>
<trkpt lat="46.575733" lon="6.998040"><ele></ele><time>2014-4-1T5:1:0Z</time></trkpt>
<trkpt lat="46.575642" lon="6.997663"><ele></ele><time>2014-4-1T5:1:3Z</time></trkpt>
<trkpt lat="46.575443" lon="6.997192"><ele></ele><time>2014-4-1T5:1:6Z</time></trkpt>
<trkpt lat="46.575153" lon="6.996981"><ele></ele><time>2014-4-1T5:1:9Z</time></trkpt>
<trkpt lat="46.574871" lon="6.996810"><ele></ele><time>2014-4-1T5:1:12Z</time></trkpt>
<trkpt lat="46.574574" lon="6.996523"><ele></ele><time>2014-4-1T5:1:15Z</time></trkpt>
<trkpt lat="46.574276" lon="6.996259"><ele></ele><time>2014-4-1T5:1:18Z</time></trkpt>
<trkpt lat="46.573967" lon="6.996027"><ele></ele><time>2014-4-1T5:1:21Z</time></trkpt>
<trkpt lat="46.573692" lon="6.996245"><ele></ele><time>2014-4-1T5:1:24Z</time></trkpt>
<trkpt lat="46.573399" lon="6.996326"><ele></ele><time>2014-4-1T5:1:27Z</time></trkpt>
<trkpt lat="46.573174" lon="6.996091"><ele></ele><time>2014-4-1T5:1:30Z</time></trkpt>
<trkpt lat="46.572830" lon="6.996228"><ele></ele><time>2014-4-1T5:1:33Z</time></trkpt>
<trkpt lat="46.572704" lon="6.996641"><ele></ele><time>2014-4-1T5:1:36Z</time></trkpt>
<trkpt lat="46.572556" lon="6.996987"><ele></ele><time>2014-4-1T5:1:39Z</time></trkpt>
<trkpt lat="46.572254" lon="6.997124"><ele></ele><time>2014-4-1T5:1:42Z</time></trkpt>
<trkpt lat="46.571899" lon="6.997053"><ele></ele><time>2014-4-1T5:1:45Z</time></trkpt>
<trkpt lat="46.571571" lon="6.996957"><ele></ele><time>2014-4-1T5:1:48Z</time></trkpt>
<trkpt lat="46.571396" lon="6.997146"><ele></ele><time>2014-4-1T5:1:51Z</time></trkpt>
<trkpt lat="46.571274" lon="6.997288"><ele></ele><time>2014-4-1T5:1:54Z</time></trkpt>
<trkpt lat="46.571243" lon="6.997355"><ele></ele><time>2014-4-1T5:1:57Z</time></trkpt>
<trkpt lat="46.571243" lon="6.997370"><ele></ele><time>2014-4-1T5:2:0Z</time></trkpt>
<trkpt lat="46.571243" lon="6.997372"><ele></ele><time>2014-4-1T5:2:3Z</time></trkpt>
<trkpt lat="46.571243" lon="6.997373"><ele></ele><time>2014-4-1T5:2:6Z</time></trkpt>
<trkpt lat="46.571243" lon="6.997371"><ele></ele><time>2014-4-1T5:2:9Z</time></trkpt>
<trkpt lat="46.571243" lon="6.997371"><ele></ele><time>2014-4-1T5:2:12Z</time></trkpt>
<trkpt lat="46.571243" lon="6.997371"><ele></ele><time>2014-4-1T5:2:15Z</time></trkpt>
<trkpt lat="46.571243" lon="6.997372"><ele></ele><time>2014-4-1T5:2:18Z</time></trkpt>
<trkpt lat="46.571239" lon="6.997372"><ele></ele><time>2014-4-1T5:2:21Z</time></trkpt>
<trkpt lat="46.571239" lon="6.997371"><ele></ele><time>2014-4-1T5:2:24Z</time></trkpt>
<trkpt lat="46.571239" lon="6.997368"><ele></ele><time>2014-4-1T5:2:27Z</time></trkpt>
<trkpt lat="46.571239" lon="6.997367"><ele></ele><time>2014-4-1T5:2:30Z</time></trkpt>
<trkpt lat="46.571239" lon="6.997360"><ele></ele><time>2014-4-1T5:2:33Z</time></trkpt>
<trkpt lat="46.571239" lon="6.997358"><ele></ele><time>2014-4-1T5:2:36Z</time></trkpt>
<trkpt lat="46.571239" lon="6.997356"><ele></ele><time>2014-4-1T5:2:39Z</time></trkpt>
<trkpt lat="46.571239" lon="6.997353"><ele></ele><time>2014-4-1T5:2:42Z</time></trkpt>
<trkpt lat="46.571239" lon="6.997348"><ele></ele><time>2014-4-1T5:2:45Z</time></trkpt>
<trkpt lat="46.571232" lon="6.997401"><ele></ele><time>2014-4-1T5:2:48Z</time></trkpt>
<trkpt lat="46.571232" lon="6.997402"><ele></ele><time>2014-4-1T5:2:51Z</time></trkpt>
<trkpt lat="46.571228" lon="6.997399"><ele></ele><time>2014-4-1T5:2:54Z</time></trkpt>
<trkpt lat="46.571167" lon="6.997458"><ele></ele><time>2014-4-1T5:2:57Z</time></trkpt>
<trkpt lat="46.571095" lon="6.997541"><ele></ele><time>2014-4-1T5:3:0Z</time></trkpt>
<trkpt lat="46.571014" lon="6.997626"><ele></ele><time>2014-4-1T5:3:3Z</time></trkpt>
<trkpt lat="46.570930" lon="6.997680"><ele></ele><time>2014-4-1T5:3:6Z</time></trkpt>
<trkpt lat="46.570839" lon="6.997668"><ele></ele><time>2014-4-1T5:3:9Z</time></trkpt>
<trkpt lat="46.570789" lon="6.997587"><ele></ele><time>2014-4-1T5:3:12Z</time></trkpt>
<trkpt lat="46.570744" lon="6.997431"><ele></ele><time>2014-4-1T5:3:15Z</time></trkpt>
<trkpt lat="46.570747" lon="6.997287"><ele></ele><time>2014-4-1T5:3:18Z</time></trkpt>
<trkpt lat="46.570747" lon="6.997144"><ele></ele><time>2014-4-1T5:3:21Z</time></trkpt>
<trkpt lat="46.570744" lon="6.996982"><ele></ele><time>2014-4-1T5:3:24Z</time></trkpt>
<trkpt lat="46.570698" lon="6.996823"><ele></ele><time>2014-4-1T5:3:27Z</time></trkpt>
<trkpt lat="46.570633" lon="6.996701"><ele></ele><time>2014-4-1T5:3:30Z</time></trkpt>
<trkpt lat="46.570564" lon="6.996619"><ele></ele><time>2014-4-1T5:3:33Z</time></trkpt>
<trkpt lat="46.570477" lon="6.996596"><ele></ele><time>2014-4-1T5:3:36Z</time></trkpt>
<trkpt lat="46.570400" lon="6.996669"><ele></ele><time>2014-4-1T5:3:39Z</time></trkpt>
<trkpt lat="46.570328" lon="6.996752"><ele></ele><time>2014-4-1T5:3:42Z</time></trkpt>
<trkpt lat="46.570248" lon="6.996861"><ele></ele><time>2014-4-1T5:3:45Z</time></trkpt>
<trkpt lat="46.570202" lon="6.996986"><ele></ele><time>2014-4-1T5:3:48Z</time></trkpt>
<trkpt lat="46.570145" lon="6.997085"><ele></ele><time>2014-4-1T5:3:51Z</time></trkpt>
<trkpt lat="46.570080" lon="6.997196"><ele></ele><time>2014-4-1T5:3:54Z</time></trkpt>
<trkpt lat="46.570000" lon="6.997278"><ele></ele><time>2014-4-1T5:3:57Z</time></trkpt>
<trkpt lat="46.569912" lon="6.997365"><ele></ele><time>2014-4-1T5:4:0Z</time></trkpt>
<trkpt lat="46.569832" lon="6.997422"><ele></ele><time>2014-4-1T5:4:3Z</time></trkpt>
<trkpt lat="46.569740" lon="6.997492"><ele></ele><time>2014-4-1T5:4:6Z</time></trkpt>
<trkpt lat="46.569656" lon="6.997566"><ele></ele><time>2014-4-1T5:4:9Z</time></trkpt>
<trkpt lat="46.569572" lon="6.997633"><ele></ele><time>2014-4-1T5:4:12Z</time></trkpt>
<trkpt lat="46.569477" lon="6.997678"><ele></ele><time>2014-4-1T5:4:15Z</time></trkpt>
<trkpt lat="46.569355" lon="6.997724"><ele></ele><time>2014-4-1T5:4:18Z</time></trkpt>
<trkpt lat="46.569225" lon="6.997788"><ele></ele><time>2014-4-1T5:4:21Z</time></trkpt>
<trkpt lat="46.569103" lon="6.997833"><ele></ele><time>2014-4-1T5:4:24Z</time></trkpt>
<trkpt lat="46.568989" lon="6.997833"><ele></ele><time>2014-4-1T5:4:27Z</time></trkpt>
<trkpt lat="46.568874" lon="6.997846"><ele></ele><time>2014-4-1T5:4:30Z</time></trkpt>
<trkpt lat="46.568752" lon="6.997885"><ele></ele><time>2014-4-1T5:4:33Z</time></trkpt>
<trkpt lat="46.568626" lon="6.997942"><ele></ele><time>2014-4-1T5:4:36Z</time></trkpt>
<trkpt lat="46.568497" lon="6.997924"><ele></ele><time>2014-4-1T5:4:39Z</time></trkpt>
<trkpt lat="46.568394" lon="6.997845"><ele></ele><time>2014-4-1T5:4:42Z</time></trkpt>
<trkpt lat="46.568298" lon="6.997739"><ele></ele><time>2014-4-1T5:4:45Z</time></trkpt>
<trkpt lat="46.568260" lon="6.997640"><ele></ele><time>2014-4-1T5:4:48Z</time></trkpt>
<trkpt lat="46.568233" lon="6.997518"><ele></ele><time>2014-4-1T5:4:51Z</time></trkpt>
<trkpt lat="46.568169" lon="6.997301"><ele></ele><time>2014-4-1T5:4:54Z</time></trkpt>
<trkpt lat="46.568104" lon="6.997119"><ele></ele><time>2014-4-1T5:4:57Z</time></trkpt>
<trkpt lat="46.568050" lon="6.996937"><ele></ele><time>2014-4-1T5:5:0Z</time></trkpt>
<trkpt lat="46.567993" lon="6.996714"><ele></ele><time>2014-4-1T5:5:3Z</time></trkpt>
<trkpt lat="46.567936" lon="6.996551"><ele></ele><time>2014-4-1T5:5:6Z</time></trkpt>
<trkpt lat="46.567818" lon="6.996311"><ele></ele><time>2014-4-1T5:5:9Z</time></trkpt>
<trkpt lat="46.567715" lon="6.996168"><ele></ele><time>2014-4-1T5:5:12Z</time></trkpt>
<trkpt lat="46.567604" lon="6.996003"><ele></ele><time>2014-4-1T5:5:15Z</time></trkpt>
<trkpt lat="46.567509" lon="6.995837"><ele></ele><time>2014-4-1T5:5:18Z</time></trkpt>
<trkpt lat="46.567410" lon="6.995674"><ele></ele><time>2014-4-1T5:5:21Z</time></trkpt>
<trkpt lat="46.567314" lon="6.995528"><ele></ele><time>2014-4-1T5:5:24Z</time></trkpt>
<trkpt lat="46.567215" lon="6.995397"><ele></ele><time>2014-4-1T5:5:27Z</time></trkpt>
<trkpt lat="46.567116" lon="6.995255"><ele></ele><time>2014-4-1T5:5:30Z</time></trkpt>
<trkpt lat="46.567013" lon="6.995101"><ele></ele><time>2014-4-1T5:5:33Z</time></trkpt>
<trkpt lat="46.566921" lon="6.994951"><ele></ele><time>2014-4-1T5:5:36Z</time></trkpt>
<trkpt lat="46.566822" lon="6.994791"><ele></ele><time>2014-4-1T5:5:39Z</time></trkpt>
<trkpt lat="46.566734" lon="6.994625"><ele></ele><time>2014-4-1T5:5:42Z</time></trkpt>
<trkpt lat="46.566666" lon="6.994441"><ele></ele><time>2014-4-1T5:5:45Z</time></trkpt>
<trkpt lat="46.566582" lon="6.994264"><ele></ele><time>2014-4-1T5:5:48Z</time></trkpt>
<trkpt lat="46.566502" lon="6.994121"><ele></ele><time>2014-4-1T5:5:51Z</time></trkpt>
<trkpt lat="46.566452" lon="6.993943"><ele></ele><time>2014-4-1T5:5:54Z</time></trkpt>
<trkpt lat="46.566441" lon="6.993744"><ele></ele><time>2014-4-1T5:5:57Z</time></trkpt>
<trkpt lat="46.566418" lon="6.993540"><ele></ele><time>2014-4-1T5:6:0Z</time></trkpt>
<trkpt lat="46.566391" lon="6.993307"><ele></ele><time>2014-4-1T5:6:3Z</time></trkpt>
<trkpt lat="46.566341" lon="6.993102"><ele></ele><time>2014-4-1T5:6:6Z</time></trkpt>
<trkpt lat="46.566257" lon="6.992936"><ele></ele><time>2014-4-1T5:6:9Z</time></trkpt>
<trkpt lat="46.566135" lon="6.992795"><ele></ele><time>2014-4-1T5:6:12Z</time></trkpt>
<trkpt lat="46.566006" lon="6.992677"><ele></ele><time>2014-4-1T5:6:15Z</time></trkpt>
<trkpt lat="46.565849" lon="6.992608"><ele></ele><time>2014-4-1T5:6:18Z</time></trkpt>
<trkpt lat="46.565681" lon="6.992532"><ele></ele><time>2014-4-1T5:6:21Z</time></trkpt>
<trkpt lat="46.565540" lon="6.992377"><ele></ele><time>2014-4-1T5:6:24Z</time></trkpt>
<trkpt lat="46.565414" lon="6.992146"><ele></ele><time>2014-4-1T5:6:27Z</time></trkpt>
<trkpt lat="46.565258" lon="6.991987"><ele></ele><time>2014-4-1T5:6:30Z</time></trkpt>
<trkpt lat="46.565086" lon="6.991857"><ele></ele><time>2014-4-1T5:6:33Z</time></trkpt>
<trkpt lat="46.564896" lon="6.991720"><ele></ele><time>2014-4-1T5:6:36Z</time></trkpt>
<trkpt lat="46.564716" lon="6.991613"><ele></ele><time>2014-4-1T5:6:39Z</time></trkpt>
<trkpt lat="46.564541" lon="6.991517"><ele></ele><time>2014-4-1T5:6:42Z</time></trkpt>
<trkpt lat="46.564362" lon="6.991424"><ele></ele><time>2014-4-1T5:6:45Z</time></trkpt>
<trkpt lat="46.564163" lon="6.991253"><ele></ele><time>2014-4-1T5:6:48Z</time></trkpt>
<trkpt lat="46.564007" lon="6.991038"><ele></ele><time>2014-4-1T5:6:51Z</time></trkpt>
<trkpt lat="46.563839" lon="6.990829"><ele></ele><time>2014-4-1T5:6:54Z</time></trkpt>
<trkpt lat="46.563675" lon="6.990617"><ele></ele><time>2014-4-1T5:6:57Z</time></trkpt>
<trkpt lat="46.563522" lon="6.990429"><ele></ele><time>2014-4-1T5:7:0Z</time></trkpt>
<trkpt lat="46.563396" lon="6.990160"><ele></ele><time>2014-4-1T5:7:3Z</time></trkpt>
<trkpt lat="46.563240" lon="6.989840"><ele></ele><time>2014-4-1T5:7:6Z</time></trkpt>
<trkpt lat="46.563023" lon="6.989474"><ele></ele><time>2014-4-1T5:7:9Z</time></trkpt>
<trkpt lat="46.562790" lon="6.989072"><ele></ele><time>2014-4-1T5:7:12Z</time></trkpt>
<trkpt lat="46.562565" lon="6.988713"><ele></ele><time>2014-4-1T5:7:15Z</time></trkpt>
<trkpt lat="46.562332" lon="6.988426"><ele></ele><time>2014-4-1T5:7:18Z</time></trkpt>
<trkpt lat="46.562107" lon="6.988205"><ele></ele><time>2014-4-1T5:7:21Z</time></trkpt>
<trkpt lat="46.561890" lon="6.988008"><ele></ele><time>2014-4-1T5:7:24Z</time></trkpt>
<trkpt lat="46.561665" lon="6.987825"><ele></ele><time>2014-4-1T5:7:27Z</time></trkpt>
<trkpt lat="46.561451" lon="6.987628"><ele></ele><time>2014-4-1T5:7:30Z</time></trkpt>
<trkpt lat="46.561256" lon="6.987448"><ele></ele><time>2014-4-1T5:7:33Z</time></trkpt>
<trkpt lat="46.561043" lon="6.987305"><ele></ele><time>2014-4-1T5:7:36Z</time></trkpt>
<trkpt lat="46.560825" lon="6.987154"><ele></ele><time>2014-4-1T5:7:39Z</time></trkpt>
<trkpt lat="46.560635" lon="6.986978"><ele></ele><time>2014-4-1T5:7:42Z</time></trkpt>
<trkpt lat="46.560600" lon="6.986948"><ele></ele><time>2014-4-1T5:7:45Z</time></trkpt>
<trkpt lat="46.560604" lon="6.986948"><ele></ele><time>2014-4-1T5:7:48Z</time></trkpt>
<trkpt lat="46.560600" lon="6.986947"><ele></ele><time>2014-4-1T5:7:51Z</time></trkpt>
<trkpt lat="46.560600" lon="6.986943"><ele></ele><time>2014-4-1T5:7:54Z</time></trkpt>
<trkpt lat="46.560600" lon="6.986939"><ele></ele><time>2014-4-1T5:7:57Z</time></trkpt>
<trkpt lat="46.560600" lon="6.986936"><ele></ele><time>2014-4-1T5:8:0Z</time></trkpt>
<trkpt lat="46.560600" lon="6.986933"><ele></ele><time>2014-4-1T5:8:3Z</time></trkpt>
<trkpt lat="46.560600" lon="6.986932"><ele></ele><time>2014-4-1T5:8:6Z</time></trkpt>
<trkpt lat="46.560600" lon="6.986931"><ele></ele><time>2014-4-1T5:8:9Z</time></trkpt>
<trkpt lat="46.560600" lon="6.986932"><ele></ele><time>2014-4-1T5:8:12Z</time></trkpt>
<trkpt lat="46.560604" lon="6.986932"><ele></ele><time>2014-4-1T5:8:15Z</time></trkpt>
<trkpt lat="46.560604" lon="6.986932"><ele></ele><time>2014-4-1T5:8:18Z</time></trkpt>
<trkpt lat="46.560604" lon="6.986933"><ele></ele><time>2014-4-1T5:8:21Z</time></trkpt>
<trkpt lat="46.560593" lon="6.986928"><ele></ele><time>2014-4-1T5:8:24Z</time></trkpt>
<trkpt lat="46.560524" lon="6.986868"><ele></ele><time>2014-4-1T5:8:27Z</time></trkpt>
<trkpt lat="46.560432" lon="6.986782"><ele></ele><time>2014-4-1T5:8:30Z</time></trkpt>
<trkpt lat="46.560280" lon="6.986664"><ele></ele><time>2014-4-1T5:8:33Z</time></trkpt>
<trkpt lat="46.560089" lon="6.986485"><ele></ele><time>2014-4-1T5:8:36Z</time></trkpt>
<trkpt lat="46.559902" lon="6.986261"><ele></ele><time>2014-4-1T5:8:39Z</time></trkpt>
<trkpt lat="46.559696" lon="6.986062"><ele></ele><time>2014-4-1T5:8:42Z</time></trkpt>
<trkpt lat="46.559475" lon="6.986001"><ele></ele><time>2014-4-1T5:8:45Z</time></trkpt>
<trkpt lat="46.559242" lon="6.985960"><ele></ele><time>2014-4-1T5:8:48Z</time></trkpt>
<trkpt lat="46.559006" lon="6.985948"><ele></ele><time>2014-4-1T5:8:51Z</time></trkpt>
<trkpt lat="46.558777" lon="6.985966"><ele></ele><time>2014-4-1T5:8:54Z</time></trkpt>
<trkpt lat="46.558556" lon="6.985954"><ele></ele><time>2014-4-1T5:8:57Z</time></trkpt>
<trkpt lat="46.558338" lon="6.985983"><ele></ele><time>2014-4-1T5:9:0Z</time></trkpt>
<trkpt lat="46.558113" lon="6.985874"><ele></ele><time>2014-4-1T5:9:3Z</time></trkpt>
<trkpt lat="46.557892" lon="6.985744"><ele></ele><time>2014-4-1T5:9:6Z</time></trkpt>
<trkpt lat="46.557697" lon="6.985572"><ele></ele><time>2014-4-1T5:9:9Z</time></trkpt>
<trkpt lat="46.557526" lon="6.985403"><ele></ele><time>2014-4-1T5:9:12Z</time></trkpt>
<trkpt lat="46.557346" lon="6.985244"><ele></ele><time>2014-4-1T5:9:15Z</time></trkpt>
<trkpt lat="46.557144" lon="6.985042"><ele></ele><time>2014-4-1T5:9:18Z</time></trkpt>
<trkpt lat="46.556923" lon="6.984812"><ele></ele><time>2014-4-1T5:9:21Z</time></trkpt>
<trkpt lat="46.556690" lon="6.984610"><ele></ele><time>2014-4-1T5:9:24Z</time></trkpt>
<trkpt lat="46.556419" lon="6.984457"><ele></ele><time>2014-4-1T5:9:27Z</time></trkpt>
<trkpt lat="46.556183" lon="6.984212"><ele></ele><time>2014-4-1T5:9:30Z</time></trkpt>
<trkpt lat="46.555992" lon="6.983893"><ele></ele><time>2014-4-1T5:9:33Z</time></trkpt>
<trkpt lat="46.555805" lon="6.983651"><ele></ele><time>2014-4-1T5:9:36Z</time></trkpt>
<trkpt lat="46.555630" lon="6.983411"><ele></ele><time>2014-4-1T5:9:39Z</time></trkpt>
<trkpt lat="46.555466" lon="6.983160"><ele></ele><time>2014-4-1T5:9:42Z</time></trkpt>
<trkpt lat="46.555302" lon="6.982941"><ele></ele><time>2014-4-1T5:9:45Z</time></trkpt>
<trkpt lat="46.555138" lon="6.982745"><ele></ele><time>2014-4-1T5:9:48Z</time></trkpt>
<trkpt lat="46.554962" lon="6.982577"><ele></ele><time>2014-4-1T5:9:51Z</time></trkpt>
<trkpt lat="46.554768" lon="6.982432"><ele></ele><time>2014-4-1T5:9:54Z</time></trkpt>
<trkpt lat="46.554588" lon="6.982225"><ele></ele><time>2014-4-1T5:9:57Z</time></trkpt>
<trkpt lat="46.554482" lon="6.982079"><ele></ele><time>2014-4-1T5:10:0Z</time></trkpt>
<trkpt lat="46.554470" lon="6.982042"><ele></ele><time>2014-4-1T5:10:3Z</time></trkpt>
<trkpt lat="46.554470" lon="6.982042"><ele></ele><time>2014-4-1T5:10:6Z</time></trkpt>
<trkpt lat="46.554470" lon="6.982044"><ele></ele><time>2014-4-1T5:10:9Z</time></trkpt>
<trkpt lat="46.554474" lon="6.982051"><ele></ele><time>2014-4-1T5:10:12Z</time></trkpt>
<trkpt lat="46.554390" lon="6.981954"><ele></ele><time>2014-4-1T5:10:15Z</time></trkpt>
<trkpt lat="46.554287" lon="6.981807"><ele></ele><time>2014-4-1T5:10:18Z</time></trkpt>
<trkpt lat="46.554173" lon="6.981699"><ele></ele><time>2014-4-1T5:10:21Z</time></trkpt>
<trkpt lat="46.554050" lon="6.981567"><ele></ele><time>2014-4-1T5:10:24Z</time></trkpt>
<trkpt lat="46.553936" lon="6.981451"><ele></ele><time>2014-4-1T5:10:27Z</time></trkpt>
<trkpt lat="46.553806" lon="6.981344"><ele></ele><time>2014-4-1T5:10:30Z</time></trkpt>
<trkpt lat="46.553688" lon="6.981239"><ele></ele><time>2014-4-1T5:10:33Z</time></trkpt>
<trkpt lat="46.553566" lon="6.981140"><ele></ele><time>2014-4-1T5:10:36Z</time></trkpt>
<trkpt lat="46.553463" lon="6.981066"><ele></ele><time>2014-4-1T5:10:39Z</time></trkpt>
<trkpt lat="46.553337" lon="6.980965"><ele></ele><time>2014-4-1T5:10:42Z</time></trkpt>
<trkpt lat="46.553192" lon="6.980887"><ele></ele><time>2014-4-1T5:10:45Z</time></trkpt>
<trkpt lat="46.553062" lon="6.980790"><ele></ele><time>2014-4-1T5:10:48Z</time></trkpt>
<trkpt lat="46.552914" lon="6.980740"><ele></ele><time>2014-4-1T5:10:51Z</time></trkpt>
<trkpt lat="46.552757" lon="6.980707"><ele></ele><time>2014-4-1T5:10:54Z</time></trkpt>
<trkpt lat="46.552628" lon="6.980700"><ele></ele><time>2014-4-1T5:10:57Z</time></trkpt>
<trkpt lat="46.552509" lon="6.980736"><ele></ele><time>2014-4-1T5:11:0Z</time></trkpt>
<trkpt lat="46.552387" lon="6.980792"><ele></ele><time>2014-4-1T5:11:3Z</time></trkpt>
<trkpt lat="46.552307" lon="6.980840"><ele></ele><time>2014-4-1T5:11:6Z</time></trkpt>
<trkpt lat="46.552258" lon="6.980848"><ele></ele><time>2014-4-1T5:11:9Z</time></trkpt>
<trkpt lat="46.552162" lon="6.980821"><ele></ele><time>2014-4-1T5:11:12Z</time></trkpt>
<trkpt lat="46.552032" lon="6.980752"><ele></ele><time>2014-4-1T5:11:15Z</time></trkpt>
<trkpt lat="46.551891" lon="6.980712"><ele></ele><time>2014-4-1T5:11:18Z</time></trkpt>
<trkpt lat="46.551758" lon="6.980655"><ele></ele><time>2014-4-1T5:11:21Z</time></trkpt>
<trkpt lat="46.551632" lon="6.980639"><ele></ele><time>2014-4-1T5:11:24Z</time></trkpt>
<trkpt lat="46.551506" lon="6.980675"><ele></ele><time>2014-4-1T5:11:27Z</time></trkpt>
<trkpt lat="46.551418" lon="6.980672"><ele></ele><time>2014-4-1T5:11:30Z</time></trkpt>
<trkpt lat="46.551292" lon="6.980664"><ele></ele><time>2014-4-1T5:11:33Z</time></trkpt>
<trkpt lat="46.551174" lon="6.980604"><ele></ele><time>2014-4-1T5:11:36Z</time></trkpt>
<trkpt lat="46.551052" lon="6.980560"><ele></ele><time>2014-4-1T5:11:39Z</time></trkpt>
<trkpt lat="46.550949" lon="6.980503"><ele></ele><time>2014-4-1T5:11:42Z</time></trkpt>
<trkpt lat="46.550850" lon="6.980453"><ele></ele><time>2014-4-1T5:11:45Z</time></trkpt>
<trkpt lat="46.550777" lon="6.980376"><ele></ele><time>2014-4-1T5:11:48Z</time></trkpt>
<trkpt lat="46.550682" lon="6.980334"><ele></ele><time>2014-4-1T5:11:51Z</time></trkpt>
<trkpt lat="46.550613" lon="6.980296"><ele></ele><time>2014-4-1T5:11:54Z</time></trkpt>
<trkpt lat="46.550514" lon="6.980259"><ele></ele><time>2014-4-1T5:11:57Z</time></trkpt>
<trkpt lat="46.550449" lon="6.980277"><ele></ele><time>2014-4-1T5:12:0Z</time></trkpt>
<trkpt lat="46.550339" lon="6.980349"><ele></ele><time>2014-4-1T5:12:3Z</time></trkpt>
<trkpt lat="46.550251" lon="6.980434"><ele></ele><time>2014-4-1T5:12:6Z</time></trkpt>
<trkpt lat="46.550137" lon="6.980521"><ele></ele><time>2014-4-1T5:12:9Z</time></trkpt>
<trkpt lat="46.550034" lon="6.980592"><ele></ele><time>2014-4-1T5:12:12Z</time></trkpt>
<trkpt lat="46.549934" lon="6.980649"><ele></ele><time>2014-4-1T5:12:15Z</time></trkpt>
<trkpt lat="46.549797" lon="6.980720"><ele></ele><time>2014-4-1T5:12:18Z</time></trkpt>
<trkpt lat="46.549725" lon="6.980756"><ele></ele><time>2014-4-1T5:12:21Z</time></trkpt>
<trkpt lat="46.549580" lon="6.980761"><ele></ele><time>2014-4-1T5:12:24Z</time></trkpt>
<trkpt lat="46.549435" lon="6.980758"><ele></ele><time>2014-4-1T5:12:27Z</time></trkpt>
<trkpt lat="46.549290" lon="6.980793"><ele></ele><time>2014-4-1T5:12:30Z</time></trkpt>
<trkpt lat="46.549156" lon="6.980808"><ele></ele><time>2014-4-1T5:12:33Z</time></trkpt>
<trkpt lat="46.549042" lon="6.980839"><ele></ele><time>2014-4-1T5:12:36Z</time></trkpt>
<trkpt lat="46.548923" lon="6.980920"><ele></ele><time>2014-4-1T5:12:39Z</time></trkpt>
<trkpt lat="46.548832" lon="6.981074"><ele></ele><time>2014-4-1T5:12:42Z</time></trkpt>
<trkpt lat="46.548767" lon="6.981197"><ele></ele><time>2014-4-1T5:12:45Z</time></trkpt>
<trkpt lat="46.548702" lon="6.981325"><ele></ele><time>2014-4-1T5:12:48Z</time></trkpt>
<trkpt lat="46.548637" lon="6.981462"><ele></ele><time>2014-4-1T5:12:51Z</time></trkpt>
<trkpt lat="46.548580" lon="6.981584"><ele></ele><time>2014-4-1T5:12:54Z</time></trkpt>
<trkpt lat="46.548473" lon="6.981620"><ele></ele><time>2014-4-1T5:12:57Z</time></trkpt>
<trkpt lat="46.548328" lon="6.981625"><ele></ele><time>2014-4-1T5:13:0Z</time></trkpt>
<trkpt lat="46.548172" lon="6.981613"><ele></ele><time>2014-4-1T5:13:3Z</time></trkpt>
<trkpt lat="46.548012" lon="6.981623"><ele></ele><time>2014-4-1T5:13:6Z</time></trkpt>
<trkpt lat="46.547855" lon="6.981659"><ele></ele><time>2014-4-1T5:13:9Z</time></trkpt>
<trkpt lat="46.547684" lon="6.981696"><ele></ele><time>2014-4-1T5:13:12Z</time></trkpt>
<trkpt lat="46.547520" lon="6.981715"><ele></ele><time>2014-4-1T5:13:15Z</time></trkpt>
<trkpt lat="46.547344" lon="6.981746"><ele></ele><time>2014-4-1T5:13:18Z</time></trkpt>
<trkpt lat="46.547173" lon="6.981780"><ele></ele><time>2014-4-1T5:13:21Z</time></trkpt>
<trkpt lat="46.546993" lon="6.981667"><ele></ele><time>2014-4-1T5:13:24Z</time></trkpt>
<trkpt lat="46.546860" lon="6.981435"><ele></ele><time>2014-4-1T5:13:27Z</time></trkpt>
<trkpt lat="46.546734" lon="6.981236"><ele></ele><time>2014-4-1T5:13:30Z</time></trkpt>
<trkpt lat="46.546593" lon="6.981070"><ele></ele><time>2014-4-1T5:13:33Z</time></trkpt>
<trkpt lat="46.546410" lon="6.980938"><ele></ele><time>2014-4-1T5:13:36Z</time></trkpt>
<trkpt lat="46.546223" lon="6.980824"><ele></ele><time>2014-4-1T5:13:39Z</time></trkpt>
<trkpt lat="46.546032" lon="6.980772"><ele></ele><time>2014-4-1T5:13:42Z</time></trkpt>
<trkpt lat="46.545860" lon="6.980664"><ele></ele><time>2014-4-1T5:13:45Z</time></trkpt>
<trkpt lat="46.545700" lon="6.980505"><ele></ele><time>2014-4-1T5:13:48Z</time></trkpt>
<trkpt lat="46.545528" lon="6.980389"><ele></ele><time>2014-4-1T5:13:51Z</time></trkpt>
<trkpt lat="46.545353" lon="6.980289"><ele></ele><time>2014-4-1T5:13:54Z</time></trkpt>
<trkpt lat="46.545265" lon="6.980175"><ele></ele><time>2014-4-1T5:13:57Z</time></trkpt>
<trkpt lat="46.545227" lon="6.980033"><ele></ele><time>2014-4-1T5:14:0Z</time></trkpt>
<trkpt lat="46.545166" lon="6.979924"><ele></ele><time>2014-4-1T5:14:3Z</time></trkpt>
<trkpt lat="46.545101" lon="6.979803"><ele></ele><time>2014-4-1T5:14:6Z</time></trkpt>
<trkpt lat="46.545036" lon="6.979689"><ele></ele><time>2014-4-1T5:14:9Z</time></trkpt>
<trkpt lat="46.544968" lon="6.979588"><ele></ele><time>2014-4-1T5:14:12Z</time></trkpt>
<trkpt lat="46.544907" lon="6.979480"><ele></ele><time>2014-4-1T5:14:15Z</time></trkpt>
<trkpt lat="46.544834" lon="6.979369"><ele></ele><time>2014-4-1T5:14:18Z</time></trkpt>
<trkpt lat="46.544750" lon="6.979268"><ele></ele><time>2014-4-1T5:14:21Z</time></trkpt>
<trkpt lat="46.544682" lon="6.979140"><ele></ele><time>2014-4-1T5:14:24Z</time></trkpt>
<trkpt lat="46.544601" lon="6.979026"><ele></ele><time>2014-4-1T5:14:27Z</time></trkpt>
<trkpt lat="46.544525" lon="6.978909"><ele></ele><time>2014-4-1T5:14:30Z</time></trkpt>
<trkpt lat="46.544456" lon="6.978768"><ele></ele><time>2014-4-1T5:14:33Z</time></trkpt>
<trkpt lat="46.544388" lon="6.978619"><ele></ele><time>2014-4-1T5:14:36Z</time></trkpt>
<trkpt lat="46.544334" lon="6.978458"><ele></ele><time>2014-4-1T5:14:39Z</time></trkpt>
<trkpt lat="46.544281" lon="6.978322"><ele></ele><time>2014-4-1T5:14:42Z</time></trkpt>
<trkpt lat="46.544220" lon="6.978223"><ele></ele><time>2014-4-1T5:14:45Z</time></trkpt>
<trkpt lat="46.544140" lon="6.978150"><ele></ele><time>2014-4-1T5:14:48Z</time></trkpt>
<trkpt lat="46.544052" lon="6.978070"><ele></ele><time>2014-4-1T5:14:51Z</time></trkpt>
<trkpt lat="46.543968" lon="6.978007"><ele></ele><time>2014-4-1T5:14:54Z</time></trkpt>
<trkpt lat="46.543888" lon="6.977942"><ele></ele><time>2014-4-1T5:14:57Z</time></trkpt>
<trkpt lat="46.543808" lon="6.977862"><ele></ele><time>2014-4-1T5:15:0Z</time></trkpt>
<trkpt lat="46.543728" lon="6.977779"><ele></ele><time>2014-4-1T5:15:3Z</time></trkpt>
<trkpt lat="46.543663" lon="6.977687"><ele></ele><time>2014-4-1T5:15:6Z</time></trkpt>
<trkpt lat="46.543629" lon="6.977547"><ele></ele><time>2014-4-1T5:15:9Z</time></trkpt>
<trkpt lat="46.543629" lon="6.977412"><ele></ele><time>2014-4-1T5:15:12Z</time></trkpt>
<trkpt lat="46.543644" lon="6.977279"><ele></ele><time>2014-4-1T5:15:15Z</time></trkpt>
<trkpt lat="46.543636" lon="6.977127"><ele></ele><time>2014-4-1T5:15:18Z</time></trkpt>
<trkpt lat="46.543579" lon="6.976989"><ele></ele><time>2014-4-1T5:15:21Z</time></trkpt>
<trkpt lat="46.543480" lon="6.976900"><ele></ele><time>2014-4-1T5:15:24Z</time></trkpt>
<trkpt lat="46.543362" lon="6.976781"><ele></ele><time>2014-4-1T5:15:27Z</time></trkpt>
<trkpt lat="46.543228" lon="6.976688"><ele></ele><time>2014-4-1T5:15:30Z</time></trkpt>
<trkpt lat="46.543087" lon="6.976649"><ele></ele><time>2014-4-1T5:15:33Z</time></trkpt>
<trkpt lat="46.542919" lon="6.976625"><ele></ele><time>2014-4-1T5:15:36Z</time></trkpt>
<trkpt lat="46.542744" lon="6.976508"><ele></ele><time>2014-4-1T5:15:39Z</time></trkpt>
<trkpt lat="46.542583" lon="6.976376"><ele></ele><time>2014-4-1T5:15:42Z</time></trkpt>
<trkpt lat="46.542458" lon="6.976255"><ele></ele><time>2014-4-1T5:15:45Z</time></trkpt>
<trkpt lat="46.542343" lon="6.976126"><ele></ele><time>2014-4-1T5:15:48Z</time></trkpt>
<trkpt lat="46.542252" lon="6.975922"><ele></ele><time>2014-4-1T5:15:51Z</time></trkpt>
<trkpt lat="46.542191" lon="6.975696"><ele></ele><time>2014-4-1T5:15:54Z</time></trkpt>
<trkpt lat="46.542141" lon="6.975450"><ele></ele><time>2014-4-1T5:15:57Z</time></trkpt>
<trkpt lat="46.542084" lon="6.975211"><ele></ele><time>2014-4-1T5:16:0Z</time></trkpt>
<trkpt lat="46.541981" lon="6.975021"><ele></ele><time>2014-4-1T5:16:3Z</time></trkpt>
<trkpt lat="46.541843" lon="6.974934"><ele></ele><time>2014-4-1T5:16:6Z</time></trkpt>
<trkpt lat="46.541683" lon="6.974906"><ele></ele><time>2014-4-1T5:16:9Z</time></trkpt>
<trkpt lat="46.541515" lon="6.974864"><ele></ele><time>2014-4-1T5:16:12Z</time></trkpt>
<trkpt lat="46.541355" lon="6.974792"><ele></ele><time>2014-4-1T5:16:15Z</time></trkpt>
<trkpt lat="46.541229" lon="6.974632"><ele></ele><time>2014-4-1T5:16:18Z</time></trkpt>
<trkpt lat="46.541084" lon="6.974518"><ele></ele><time>2014-4-1T5:16:21Z</time></trkpt>
<trkpt lat="46.540909" lon="6.974500"><ele></ele><time>2014-4-1T5:16:24Z</time></trkpt>
<trkpt lat="46.540787" lon="6.974393"><ele></ele><time>2014-4-1T5:16:27Z</time></trkpt>
<trkpt lat="46.540703" lon="6.974217"><ele></ele><time>2014-4-1T5:16:30Z</time></trkpt>
<trkpt lat="46.540661" lon="6.974003"><ele></ele><time>2014-4-1T5:16:33Z</time></trkpt>
<trkpt lat="46.540615" lon="6.973779"><ele></ele><time>2014-4-1T5:16:36Z</time></trkpt>
<trkpt lat="46.540588" lon="6.973505"><ele></ele><time>2014-4-1T5:16:39Z</time></trkpt>
<trkpt lat="46.540501" lon="6.973239"><ele></ele><time>2014-4-1T5:16:42Z</time></trkpt>
<trkpt lat="46.540352" lon="6.972936"><ele></ele><time>2014-4-1T5:16:45Z</time></trkpt>
<trkpt lat="46.540173" lon="6.972556"><ele></ele><time>2014-4-1T5:16:48Z</time></trkpt>
<trkpt lat="46.539978" lon="6.972112"><ele></ele><time>2014-4-1T5:16:51Z</time></trkpt>
<trkpt lat="46.539810" lon="6.971666"><ele></ele><time>2014-4-1T5:16:54Z</time></trkpt>
<trkpt lat="46.539631" lon="6.971242"><ele></ele><time>2014-4-1T5:16:57Z</time></trkpt>
<trkpt lat="46.539440" lon="6.970840"><ele></ele><time>2014-4-1T5:17:0Z</time></trkpt>
<trkpt lat="46.539337" lon="6.970543"><ele></ele><time>2014-4-1T5:17:3Z</time></trkpt>
<trkpt lat="46.539165" lon="6.970329"><ele></ele><time>2014-4-1T5:17:6Z</time></trkpt>
<trkpt lat="46.539024" lon="6.970040"><ele></ele><time>2014-4-1T5:17:9Z</time></trkpt>
<trkpt lat="46.538853" lon="6.969807"><ele></ele><time>2014-4-1T5:17:12Z</time></trkpt>
<trkpt lat="46.538685" lon="6.969553"><ele></ele><time>2014-4-1T5:17:15Z</time></trkpt>
<trkpt lat="46.538517" lon="6.969272"><ele></ele><time>2014-4-1T5:17:18Z</time></trkpt>
<trkpt lat="46.538372" lon="6.968969"><ele></ele><time>2014-4-1T5:17:21Z</time></trkpt>
<trkpt lat="46.538265" lon="6.968632"><ele></ele><time>2014-4-1T5:17:24Z</time></trkpt>
<trkpt lat="46.538181" lon="6.968328"><ele></ele><time>2014-4-1T5:17:27Z</time></trkpt>
<trkpt lat="46.538116" lon="6.968040"><ele></ele><time>2014-4-1T5:17:30Z</time></trkpt>
<trkpt lat="46.538078" lon="6.967756"><ele></ele><time>2014-4-1T5:17:33Z</time></trkpt>
<trkpt lat="46.538136" lon="6.967488"><ele></ele><time>2014-4-1T5:17:36Z</time></trkpt>
<trkpt lat="46.538059" lon="6.967221"><ele></ele><time>2014-4-1T5:17:39Z</time></trkpt>
<trkpt lat="46.537857" lon="6.967121"><ele></ele><time>2014-4-1T5:17:42Z</time></trkpt>
<trkpt lat="46.537701" lon="6.966884"><ele></ele><time>2014-4-1T5:17:45Z</time></trkpt>
<trkpt lat="46.537598" lon="6.966546"><ele></ele><time>2014-4-1T5:17:48Z</time></trkpt>
<trkpt lat="46.537514" lon="6.966228"><ele></ele><time>2014-4-1T5:17:51Z</time></trkpt>
<trkpt lat="46.537468" lon="6.965923"><ele></ele><time>2014-4-1T5:17:54Z</time></trkpt>
<trkpt lat="46.537323" lon="6.965648"><ele></ele><time>2014-4-1T5:17:57Z</time></trkpt>
<trkpt lat="46.537098" lon="6.965455"><ele></ele><time>2014-4-1T5:18:0Z</time></trkpt>
<trkpt lat="46.536819" lon="6.965264"><ele></ele><time>2014-4-1T5:18:3Z</time></trkpt>
<trkpt lat="46.536549" lon="6.965063"><ele></ele><time>2014-4-1T5:18:6Z</time></trkpt>
<trkpt lat="46.536297" lon="6.964794"><ele></ele><time>2014-4-1T5:18:9Z</time></trkpt>
<trkpt lat="46.536060" lon="6.964526"><ele></ele><time>2014-4-1T5:18:12Z</time></trkpt>
<trkpt lat="46.535835" lon="6.964234"><ele></ele><time>2014-4-1T5:18:15Z</time></trkpt>
<trkpt lat="46.535603" lon="6.963935"><ele></ele><time>2014-4-1T5:18:18Z</time></trkpt>
<trkpt lat="46.535374" lon="6.963575"><ele></ele><time>2014-4-1T5:18:21Z</time></trkpt>
<trkpt lat="46.535179" lon="6.963177"><ele></ele><time>2014-4-1T5:18:24Z</time></trkpt>
<trkpt lat="46.535053" lon="6.962855"><ele></ele><time>2014-4-1T5:18:27Z</time></trkpt>
<trkpt lat="46.535019" lon="6.962606"><ele></ele><time>2014-4-1T5:18:30Z</time></trkpt>
<trkpt lat="46.534992" lon="6.962343"><ele></ele><time>2014-4-1T5:18:33Z</time></trkpt>
<trkpt lat="46.534981" lon="6.962086"><ele></ele><time>2014-4-1T5:18:36Z</time></trkpt>
<trkpt lat="46.534981" lon="6.961793"><ele></ele><time>2014-4-1T5:18:39Z</time></trkpt>
<trkpt lat="46.534935" lon="6.961520"><ele></ele><time>2014-4-1T5:18:42Z</time></trkpt>
<trkpt lat="46.534889" lon="6.961279"><ele></ele><time>2014-4-1T5:18:45Z</time></trkpt>
<trkpt lat="46.534813" lon="6.961050"><ele></ele><time>2014-4-1T5:18:48Z</time></trkpt>
<trkpt lat="46.534721" lon="6.960880"><ele></ele><time>2014-4-1T5:18:51Z</time></trkpt>
<trkpt lat="46.534595" lon="6.960736"><ele></ele><time>2014-4-1T5:18:54Z</time></trkpt>
<trkpt lat="46.534481" lon="6.960553"><ele></ele><time>2014-4-1T5:18:57Z</time></trkpt>
<trkpt lat="46.534382" lon="6.960350"><ele></ele><time>2014-4-1T5:19:0Z</time></trkpt>
<trkpt lat="46.534283" lon="6.960160"><ele></ele><time>2014-4-1T5:19:3Z</time></trkpt>
<trkpt lat="46.534206" lon="6.959995"><ele></ele><time>2014-4-1T5:19:6Z</time></trkpt>
<trkpt lat="46.534126" lon="6.959845"><ele></ele><time>2014-4-1T5:19:9Z</time></trkpt>
<trkpt lat="46.534035" lon="6.959666"><ele></ele><time>2014-4-1T5:19:12Z</time></trkpt>
<trkpt lat="46.533962" lon="6.959469"><ele></ele><time>2014-4-1T5:19:15Z</time></trkpt>
<trkpt lat="46.533901" lon="6.959255"><ele></ele><time>2014-4-1T5:19:18Z</time></trkpt>
<trkpt lat="46.533981" lon="6.959045"><ele></ele><time>2014-4-1T5:19:21Z</time></trkpt>
<trkpt lat="46.534081" lon="6.959034"><ele></ele><time>2014-4-1T5:19:24Z</time></trkpt>
<trkpt lat="46.534088" lon="6.959003"><ele></ele><time>2014-4-1T5:19:27Z</time></trkpt>
<trkpt lat="46.534088" lon="6.958997"><ele></ele><time>2014-4-1T5:19:30Z</time></trkpt>
<trkpt lat="46.534088" lon="6.958997"><ele></ele><time>2014-4-1T5:19:33Z</time></trkpt>
<trkpt lat="46.534088" lon="6.958997"><ele></ele><time>2014-4-1T5:19:36Z</time></trkpt>
<trkpt lat="46.534084" lon="6.958998"><ele></ele><time>2014-4-1T5:19:39Z</time></trkpt>
<trkpt lat="46.534084" lon="6.958997"><ele></ele><time>2014-4-1T5:19:42Z</time></trkpt>
<trkpt lat="46.534084" lon="6.958998"><ele></ele><time>2014-4-1T5:19:45Z</time></trkpt>
<trkpt lat="46.534084" lon="6.958998"><ele></ele><time>2014-4-1T5:19:48Z</time></trkpt>
<trkpt lat="46.534084" lon="6.958998"><ele></ele><time>2014-4-1T5:19:51Z</time></trkpt>
<trkpt lat="46.534084" lon="6.958999"><ele></ele><time>2014-4-1T5:19:54Z</time></trkpt>
<trkpt lat="46.534084" lon="6.958999"><ele></ele><time>2014-4-1T5:19:57Z</time></trkpt>
<trkpt lat="46.534084" lon="6.958998"><ele></ele><time>2014-4-1T5:20:0Z</time></trkpt>
<trkpt lat="46.534084" lon="6.958998"><ele></ele><time>2014-4-1T5:20:3Z</time></trkpt>
<trkpt lat="46.534084" lon="6.958998"><ele></ele><time>2014-4-1T5:20:6Z</time></trkpt>
<trkpt lat="46.534081" lon="6.958998"><ele></ele><time>2014-4-1T5:20:9Z</time></trkpt>
<trkpt lat="46.534081" lon="6.958999"><ele></ele><time>2014-4-1T5:20:12Z</time></trkpt>
<trkpt lat="46.534081" lon="6.958999"><ele></ele><time>2014-4-1T5:20:15Z</time></trkpt>
<trkpt lat="46.534081" lon="6.958999"><ele></ele><time>2014-4-1T5:20:18Z</time></trkpt>
<trkpt lat="46.534081" lon="6.958999"><ele></ele><time>2014-4-1T5:20:21Z</time></trkpt>
<trkpt lat="46.534081" lon="6.958999"><ele></ele><time>2014-4-1T5:20:24Z</time></trkpt>
<trkpt lat="46.534077" lon="6.959000"><ele></ele><time>2014-4-1T5:20:27Z</time></trkpt>
<trkpt lat="46.534077" lon="6.959001"><ele></ele><time>2014-4-1T5:20:30Z</time></trkpt>
<trkpt lat="46.534077" lon="6.959001"><ele></ele><time>2014-4-1T5:20:33Z</time></trkpt>
<trkpt lat="46.534077" lon="6.959002"><ele></ele><time>2014-4-1T5:20:36Z</time></trkpt>
<trkpt lat="46.534077" lon="6.959002"><ele></ele><time>2014-4-1T5:20:39Z</time></trkpt>
<trkpt lat="46.534073" lon="6.959002"><ele></ele><time>2014-4-1T5:20:42Z</time></trkpt>
<trkpt lat="46.534073" lon="6.959002"><ele></ele><time>2014-4-1T5:20:45Z</time></trkpt>
<trkpt lat="46.534073" lon="6.959002"><ele></ele><time>2014-4-1T5:20:48Z</time></trkpt>
<trkpt lat="46.534073" lon="6.959002"><ele></ele><time>2014-4-1T5:20:51Z</time></trkpt>
<trkpt lat="46.534073" lon="6.959002"><ele></ele><time>2014-4-1T5:20:54Z</time></trkpt>
<trkpt lat="46.534073" lon="6.959002"><ele></ele><time>2014-4-1T5:20:57Z</time></trkpt>
<trkpt lat="46.534073" lon="6.959002"><ele></ele><time>2014-4-1T5:21:0Z</time></trkpt>
<trkpt lat="46.534069" lon="6.959002"><ele></ele><time>2014-4-1T5:21:3Z</time></trkpt>
<trkpt lat="46.534069" lon="6.959002"><ele></ele><time>2014-4-1T5:21:6Z</time></trkpt>
<trkpt lat="46.534069" lon="6.959002"><ele></ele><time>2014-4-1T5:21:9Z</time></trkpt>
<trkpt lat="46.534069" lon="6.959002"><ele></ele><time>2014-4-1T5:21:12Z</time></trkpt>
<trkpt lat="46.534069" lon="6.959001"><ele></ele><time>2014-4-1T5:21:15Z</time></trkpt>
<trkpt lat="46.534069" lon="6.959002"><ele></ele><time>2014-4-1T5:21:18Z</time></trkpt>
<trkpt lat="46.534065" lon="6.959002"><ele></ele><time>2014-4-1T5:21:21Z</time></trkpt>
<trkpt lat="46.534065" lon="6.959002"><ele></ele><time>2014-4-1T5:21:24Z</time></trkpt>
<trkpt lat="46.534065" lon="6.959002"><ele></ele><time>2014-4-1T5:21:27Z</time></trkpt>
<trkpt lat="46.534065" lon="6.959003"><ele></ele><time>2014-4-1T5:21:30Z</time></trkpt>
<trkpt lat="46.534061" lon="6.959004"><ele></ele><time>2014-4-1T5:21:33Z</time></trkpt>
<trkpt lat="46.534061" lon="6.959003"><ele></ele><time>2014-4-1T5:21:36Z</time></trkpt>
<trkpt lat="46.534061" lon="6.959003"><ele></ele><time>2014-4-1T5:21:39Z</time></trkpt>
<trkpt lat="46.534061" lon="6.959003"><ele></ele><time>2014-4-1T5:21:42Z</time></trkpt>
<trkpt lat="46.534061" lon="6.959003"><ele></ele><time>2014-4-1T5:21:45Z</time></trkpt>
<trkpt lat="46.534061" lon="6.959003"><ele></ele><time>2014-4-1T5:21:48Z</time></trkpt>
<trkpt lat="46.534061" lon="6.959004"><ele></ele><time>2014-4-1T5:21:51Z</time></trkpt>
<trkpt lat="46.534061" lon="6.959004"><ele></ele><time>2014-4-1T5:21:54Z</time></trkpt>
<trkpt lat="46.534061" lon="6.959004"><ele></ele><time>2014-4-1T5:21:57Z</time></trkpt>
<trkpt lat="46.534061" lon="6.959003"><ele></ele><time>2014-4-1T5:22:0Z</time></trkpt>
<trkpt lat="46.534061" lon="6.959003"><ele></ele><time>2014-4-1T5:22:3Z</time></trkpt>
<trkpt lat="46.534061" lon="6.959003"><ele></ele><time>2014-4-1T5:22:6Z</time></trkpt>
<trkpt lat="46.534061" lon="6.959003"><ele></ele><time>2014-4-1T5:22:9Z</time></trkpt>
<trkpt lat="46.534061" lon="6.959003"><ele></ele><time>2014-4-1T5:22:12Z</time></trkpt>
<trkpt lat="46.534061" lon="6.959003"><ele></ele><time>2014-4-1T5:22:15Z</time></trkpt>
<trkpt lat="46.534061" lon="6.959003"><ele></ele><time>2014-4-1T5:22:18Z</time></trkpt>
<trkpt lat="46.534061" lon="6.959003"><ele></ele><time>2014-4-1T5:22:21Z</time></trkpt>
<trkpt lat="46.534061" lon="6.959002"><ele></ele><time>2014-4-1T5:22:24Z</time></trkpt>
<trkpt lat="46.534061" lon="6.959002"><ele></ele><time>2014-4-1T5:22:27Z</time></trkpt>
<trkpt lat="46.534061" lon="6.959002"><ele></ele><time>2014-4-1T5:22:30Z</time></trkpt>
<trkpt lat="46.534061" lon="6.959002"><ele></ele><time>2014-4-1T5:22:33Z</time></trkpt>
<trkpt lat="46.534061" lon="6.959002"><ele></ele><time>2014-4-1T5:22:36Z</time></trkpt>
<trkpt lat="46.534061" lon="6.959003"><ele></ele><time>2014-4-1T5:22:39Z</time></trkpt>
<trkpt lat="46.534061" lon="6.959003"><ele></ele><time>2014-4-1T5:22:42Z</time></trkpt>
<trkpt lat="46.534061" lon="6.959003"><ele></ele><time>2014-4-1T5:22:45Z</time></trkpt>
<trkpt lat="46.534061" lon="6.959003"><ele></ele><time>2014-4-1T5:22:48Z</time></trkpt>
<trkpt lat="46.534061" lon="6.959003"><ele></ele><time>2014-4-1T5:22:51Z</time></trkpt>
<trkpt lat="46.534061" lon="6.959003"><ele></ele><time>2014-4-1T5:22:54Z</time></trkpt>
<trkpt lat="46.534061" lon="6.959003"><ele></ele><time>2014-4-1T5:22:57Z</time></trkpt>
<trkpt lat="46.534061" lon="6.959003"><ele></ele><time>2014-4-1T5:23:0Z</time></trkpt>
<trkpt lat="46.534061" lon="6.959003"><ele></ele><time>2014-4-1T5:23:3Z</time></trkpt>
<trkpt lat="46.534061" lon="6.959002"><ele></ele><time>2014-4-1T5:23:6Z</time></trkpt>
<trkpt lat="46.534061" lon="6.959002"><ele></ele><time>2014-4-1T5:23:9Z</time></trkpt>
<trkpt lat="46.534061" lon="6.959002"><ele></ele><time>2014-4-1T5:23:12Z</time></trkpt>
<trkpt lat="46.534061" lon="6.959002"><ele></ele><time>2014-4-1T5:23:15Z</time></trkpt>
<trkpt lat="46.534061" lon="6.959002"><ele></ele><time>2014-4-1T5:23:18Z</time></trkpt>
<trkpt lat="46.534061" lon="6.959002"><ele></ele><time>2014-4-1T5:23:21Z</time></trkpt>
<trkpt lat="46.534061" lon="6.959002"><ele></ele><time>2014-4-1T5:23:24Z</time></trkpt>
<trkpt lat="46.534061" lon="6.959002"><ele></ele><time>2014-4-1T5:23:27Z</time></trkpt>
<trkpt lat="46.534061" lon="6.959002"><ele></ele><time>2014-4-1T5:23:30Z</time></trkpt>
<trkpt lat="46.534061" lon="6.959002"><ele></ele><time>2014-4-1T5:23:33Z</time></trkpt>
<trkpt lat="46.534061" lon="6.959002"><ele></ele><time>2014-4-1T5:23:36Z</time></trkpt>
<trkpt lat="46.534061" lon="6.959002"><ele></ele><time>2014-4-1T5:23:39Z</time></trkpt>
<trkpt lat="46.534061" lon="6.959002"><ele></ele><time>2014-4-1T5:23:42Z</time></trkpt>
<trkpt lat="46.534061" lon="6.959002"><ele></ele><time>2014-4-1T5:23:45Z</time></trkpt>
<trkpt lat="46.534061" lon="6.959002"><ele></ele><time>2014-4-1T5:23:48Z</time></trkpt>
<trkpt lat="46.534061" lon="6.959002"><ele></ele><time>2014-4-1T5:23:51Z</time></trkpt>
<trkpt lat="46.534061" lon="6.959002"><ele></ele><time>2014-4-1T5:23:54Z</time></trkpt>
<trkpt lat="46.534061" lon="6.959003"><ele></ele><time>2014-4-1T5:23:57Z</time></trkpt>
<trkpt lat="46.534061" lon="6.959003"><ele></ele><time>2014-4-1T5:24:0Z</time></trkpt>
<trkpt lat="46.534061" lon="6.959003"><ele></ele><time>2014-4-1T5:24:3Z</time></trkpt>
<trkpt lat="46.534061" lon="6.959003"><ele></ele><time>2014-4-1T5:24:6Z</time></trkpt>
<trkpt lat="46.534061" lon="6.959002"><ele></ele><time>2014-4-1T5:24:9Z</time></trkpt>
<trkpt lat="46.534061" lon="6.959002"><ele></ele><time>2014-4-1T5:24:12Z</time></trkpt>
<trkpt lat="46.534061" lon="6.959002"><ele></ele><time>2014-4-1T5:24:15Z</time></trkpt>
<trkpt lat="46.534061" lon="6.959002"><ele></ele><time>2014-4-1T5:24:18Z</time></trkpt>
<trkpt lat="46.534061" lon="6.959002"><ele></ele><time>2014-4-1T5:24:21Z</time></trkpt>
<trkpt lat="46.534061" lon="6.959002"><ele></ele><time>2014-4-1T5:24:24Z</time></trkpt>
<trkpt lat="46.534061" lon="6.959002"><ele></ele><time>2014-4-1T5:24:27Z</time></trkpt>
<trkpt lat="46.534061" lon="6.959002"><ele></ele><time>2014-4-1T5:24:30Z</time></trkpt>
<trkpt lat="46.534061" lon="6.959002"><ele></ele><time>2014-4-1T5:24:33Z</time></trkpt>
<trkpt lat="46.534061" lon="6.959002"><ele></ele><time>2014-4-1T5:24:36Z</time></trkpt>
<trkpt lat="46.534061" lon="6.959002"><ele></ele><time>2014-4-1T5:24:39Z</time></trkpt>
<trkpt lat="46.534061" lon="6.959002"><ele></ele><time>2014-4-1T5:24:42Z</time></trkpt>
<trkpt lat="46.534061" lon="6.959002"><ele></ele><time>2014-4-1T5:24:45Z</time></trkpt>
<trkpt lat="46.534061" lon="6.959003"><ele></ele><time>2014-4-1T5:24:48Z</time></trkpt>
<trkpt lat="46.534061" lon="6.959003"><ele></ele><time>2014-4-1T5:24:51Z</time></trkpt>
<trkpt lat="46.534061" lon="6.959003"><ele></ele><time>2014-4-1T5:24:54Z</time></trkpt>
<trkpt lat="46.534061" lon="6.959003"><ele></ele><time>2014-4-1T5:24:57Z</time></trkpt>
<trkpt lat="46.534061" lon="6.959003"><ele></ele><time>2014-4-1T5:25:0Z</time></trkpt>
<trkpt lat="46.534061" lon="6.959003"><ele></ele><time>2014-4-1T5:25:3Z</time></trkpt>
<trkpt lat="46.534061" lon="6.959004"><ele></ele><time>2014-4-1T5:25:6Z</time></trkpt>
<trkpt lat="46.534081" lon="6.958998"><ele></ele><time>2014-4-1T5:25:9Z</time></trkpt>
<trkpt lat="46.534103" lon="6.959036"><ele></ele><time>2014-4-1T5:25:12Z</time></trkpt>
<trkpt lat="46.534107" lon="6.959096"><ele></ele><time>2014-4-1T5:25:15Z</time></trkpt>
<trkpt lat="46.534031" lon="6.959044"><ele></ele><time>2014-4-1T5:25:18Z</time></trkpt>
<trkpt lat="46.534100" lon="6.959061"><ele></ele><time>2014-4-1T5:25:21Z</time></trkpt>
<trkpt lat="46.534298" lon="6.959134"><ele></ele><time>2014-4-1T5:25:24Z</time></trkpt>
<trkpt lat="46.534580" lon="6.959239"><ele></ele><time>2014-4-1T5:25:27Z</time></trkpt>
<trkpt lat="46.534916" lon="6.959361"><ele></ele><time>2014-4-1T5:25:30Z</time></trkpt>
<trkpt lat="46.535305" lon="6.959507"><ele></ele><time>2014-4-1T5:25:33Z</time></trkpt>
<trkpt lat="46.535744" lon="6.959616"><ele></ele><time>2014-4-1T5:25:36Z</time></trkpt>
<trkpt lat="46.536198" lon="6.959683"><ele></ele><time>2014-4-1T5:25:39Z</time></trkpt>
<trkpt lat="46.536659" lon="6.959716"><ele></ele><time>2014-4-1T5:25:42Z</time></trkpt>
<trkpt lat="46.537098" lon="6.959591"><ele></ele><time>2014-4-1T5:25:45Z</time></trkpt>
<trkpt lat="46.537540" lon="6.959413"><ele></ele><time>2014-4-1T5:25:48Z</time></trkpt>
<trkpt lat="46.537987" lon="6.959169"><ele></ele><time>2014-4-1T5:25:51Z</time></trkpt>
<trkpt lat="46.538410" lon="6.958890"><ele></ele><time>2014-4-1T5:25:54Z</time></trkpt>
<trkpt lat="46.538780" lon="6.958776"><ele></ele><time>2014-4-1T5:25:57Z</time></trkpt>
<trkpt lat="46.539074" lon="6.958637"><ele></ele><time>2014-4-1T5:26:0Z</time></trkpt>
<trkpt lat="46.539322" lon="6.958553"><ele></ele><time>2014-4-1T5:26:3Z</time></trkpt>
<trkpt lat="46.539574" lon="6.958534"><ele></ele><time>2014-4-1T5:26:6Z</time></trkpt>
<trkpt lat="46.539833" lon="6.958615"><ele></ele><time>2014-4-1T5:26:9Z</time></trkpt>
<trkpt lat="46.540108" lon="6.958688"><ele></ele><time>2014-4-1T5:26:12Z</time></trkpt>
<trkpt lat="46.540344" lon="6.958784"><ele></ele><time>2014-4-1T5:26:15Z</time></trkpt>
<trkpt lat="46.540585" lon="6.958807"><ele></ele><time>2014-4-1T5:26:18Z</time></trkpt>
<trkpt lat="46.540791" lon="6.958485"><ele></ele><time>2014-4-1T5:26:21Z</time></trkpt>
<trkpt lat="46.540943" lon="6.957911"><ele></ele><time>2014-4-1T5:26:24Z</time></trkpt>
<trkpt lat="46.541092" lon="6.957306"><ele></ele><time>2014-4-1T5:26:27Z</time></trkpt>
<trkpt lat="46.541199" lon="6.956625"><ele></ele><time>2014-4-1T5:26:30Z</time></trkpt>
<trkpt lat="46.540993" lon="6.955916"><ele></ele><time>2014-4-1T5:26:33Z</time></trkpt>
<trkpt lat="46.540802" lon="6.955117"><ele></ele><time>2014-4-1T5:26:36Z</time></trkpt>
<trkpt lat="46.540699" lon="6.954443"><ele></ele><time>2014-4-1T5:26:39Z</time></trkpt>
<trkpt lat="46.540432" lon="6.954059"><ele></ele><time>2014-4-1T5:26:42Z</time></trkpt>
<trkpt lat="46.540184" lon="6.953591"><ele></ele><time>2014-4-1T5:26:45Z</time></trkpt>
<trkpt lat="46.540039" lon="6.953136"><ele></ele><time>2014-4-1T5:26:48Z</time></trkpt>
<trkpt lat="46.539612" lon="6.952881"><ele></ele><time>2014-4-1T5:26:51Z</time></trkpt>
<trkpt lat="46.539158" lon="6.952812"><ele></ele><time>2014-4-1T5:26:54Z</time></trkpt>
<trkpt lat="46.538765" lon="6.952415"><ele></ele><time>2014-4-1T5:26:57Z</time></trkpt>
<trkpt lat="46.538269" lon="6.952188"><ele></ele><time>2014-4-1T5:27:0Z</time></trkpt>
<trkpt lat="46.537910" lon="6.951619"><ele></ele><time>2014-4-1T5:27:3Z</time></trkpt>
<trkpt lat="46.537518" lon="6.951028"><ele></ele><time>2014-4-1T5:27:6Z</time></trkpt>
<trkpt lat="46.537228" lon="6.950534"><ele></ele><time>2014-4-1T5:27:9Z</time></trkpt>
<trkpt lat="46.536961" lon="6.949907"><ele></ele><time>2014-4-1T5:27:12Z</time></trkpt>
<trkpt lat="46.536644" lon="6.949319"><ele></ele><time>2014-4-1T5:27:15Z</time></trkpt>
<trkpt lat="46.536407" lon="6.948750"><ele></ele><time>2014-4-1T5:27:18Z</time></trkpt>
<trkpt lat="46.536247" lon="6.948237"><ele></ele><time>2014-4-1T5:27:21Z</time></trkpt>
<trkpt lat="46.536057" lon="6.947616"><ele></ele><time>2014-4-1T5:27:24Z</time></trkpt>
<trkpt lat="46.535816" lon="6.946973"><ele></ele><time>2014-4-1T5:27:27Z</time></trkpt>
<trkpt lat="46.535744" lon="6.946284"><ele></ele><time>2014-4-1T5:27:30Z</time></trkpt>
<trkpt lat="46.535782" lon="6.945649"><ele></ele><time>2014-4-1T5:27:33Z</time></trkpt>
<trkpt lat="46.536209" lon="6.945465"><ele></ele><time>2014-4-1T5:27:36Z</time></trkpt>
<trkpt lat="46.536697" lon="6.945321"><ele></ele><time>2014-4-1T5:27:39Z</time></trkpt>
<trkpt lat="46.536900" lon="6.944753"><ele></ele><time>2014-4-1T5:27:42Z</time></trkpt>
<trkpt lat="46.537064" lon="6.943956"><ele></ele><time>2014-4-1T5:27:45Z</time></trkpt>
<trkpt lat="46.537106" lon="6.943320"><ele></ele><time>2014-4-1T5:27:48Z</time></trkpt>
<trkpt lat="46.536877" lon="6.942861"><ele></ele><time>2014-4-1T5:27:51Z</time></trkpt>
<trkpt lat="46.536449" lon="6.942558"><ele></ele><time>2014-4-1T5:27:54Z</time></trkpt>
<trkpt lat="46.536263" lon="6.942194"><ele></ele><time>2014-4-1T5:27:57Z</time></trkpt>
<trkpt lat="46.536491" lon="6.941773"><ele></ele><time>2014-4-1T5:28:0Z</time></trkpt>
<trkpt lat="46.536549" lon="6.941129"><ele></ele><time>2014-4-1T5:28:3Z</time></trkpt>
<trkpt lat="46.536545" lon="6.940512"><ele></ele><time>2014-4-1T5:28:6Z</time></trkpt>
<trkpt lat="46.536377" lon="6.939885"><ele></ele><time>2014-4-1T5:28:9Z</time></trkpt>
<trkpt lat="46.536518" lon="6.939348"><ele></ele><time>2014-4-1T5:28:12Z</time></trkpt>
<trkpt lat="46.536709" lon="6.938783"><ele></ele><time>2014-4-1T5:28:15Z</time></trkpt>
<trkpt lat="46.536533" lon="6.938089"><ele></ele><time>2014-4-1T5:28:18Z</time></trkpt>
<trkpt lat="46.536331" lon="6.937423"><ele></ele><time>2014-4-1T5:28:21Z</time></trkpt>
<trkpt lat="46.536518" lon="6.936955"><ele></ele><time>2014-4-1T5:28:24Z</time></trkpt>
<trkpt lat="46.536587" lon="6.936328"><ele></ele><time>2014-4-1T5:28:27Z</time></trkpt>
<trkpt lat="46.536655" lon="6.935694"><ele></ele><time>2014-4-1T5:28:30Z</time></trkpt>
<trkpt lat="46.536884" lon="6.935161"><ele></ele><time>2014-4-1T5:28:33Z</time></trkpt>
<trkpt lat="46.536911" lon="6.934601"><ele></ele><time>2014-4-1T5:28:36Z</time></trkpt>
<trkpt lat="46.537010" lon="6.934152"><ele></ele><time>2014-4-1T5:28:39Z</time></trkpt>
<trkpt lat="46.537170" lon="6.933840"><ele></ele><time>2014-4-1T5:28:42Z</time></trkpt>
<trkpt lat="46.537338" lon="6.933602"><ele></ele><time>2014-4-1T5:28:45Z</time></trkpt>
<trkpt lat="46.537556" lon="6.933465"><ele></ele><time>2014-4-1T5:28:48Z</time></trkpt>
<trkpt lat="46.537643" lon="6.933359"><ele></ele><time>2014-4-1T5:28:51Z</time></trkpt>
<trkpt lat="46.537643" lon="6.933188"><ele></ele><time>2014-4-1T5:28:54Z</time></trkpt>
<trkpt lat="46.537594" lon="6.932868"><ele></ele><time>2014-4-1T5:28:57Z</time></trkpt>
<trkpt lat="46.537460" lon="6.932588"><ele></ele><time>2014-4-1T5:29:0Z</time></trkpt>
<trkpt lat="46.537430" lon="6.932318"><ele></ele><time>2014-4-1T5:29:3Z</time></trkpt>
<trkpt lat="46.537376" lon="6.931837"><ele></ele><time>2014-4-1T5:29:6Z</time></trkpt>
<trkpt lat="46.537216" lon="6.931231"><ele></ele><time>2014-4-1T5:29:9Z</time></trkpt>
<trkpt lat="46.536758" lon="6.931170"><ele></ele><time>2014-4-1T5:29:12Z</time></trkpt>
<trkpt lat="46.536289" lon="6.931061"><ele></ele><time>2014-4-1T5:29:15Z</time></trkpt>
<trkpt lat="46.535927" lon="6.930748"><ele></ele><time>2014-4-1T5:29:18Z</time></trkpt>
<trkpt lat="46.535961" lon="6.930194"><ele></ele><time>2014-4-1T5:29:21Z</time></trkpt>
<trkpt lat="46.536079" lon="6.929568"><ele></ele><time>2014-4-1T5:29:24Z</time></trkpt>
<trkpt lat="46.536362" lon="6.928983"><ele></ele><time>2014-4-1T5:29:27Z</time></trkpt>
<trkpt lat="46.536724" lon="6.928603"><ele></ele><time>2014-4-1T5:29:30Z</time></trkpt>
<trkpt lat="46.537083" lon="6.928165"><ele></ele><time>2014-4-1T5:29:33Z</time></trkpt>
<trkpt lat="46.537468" lon="6.927823"><ele></ele><time>2014-4-1T5:29:36Z</time></trkpt>
<trkpt lat="46.537949" lon="6.927493"><ele></ele><time>2014-4-1T5:29:39Z</time></trkpt>
<trkpt lat="46.538498" lon="6.927223"><ele></ele><time>2014-4-1T5:29:42Z</time></trkpt>
<trkpt lat="46.538956" lon="6.927085"><ele></ele><time>2014-4-1T5:29:45Z</time></trkpt>
<trkpt lat="46.539036" lon="6.926859"><ele></ele><time>2014-4-1T5:29:48Z</time></trkpt>
<trkpt lat="46.538773" lon="6.926826"><ele></ele><time>2014-4-1T5:29:51Z</time></trkpt>
<trkpt lat="46.538471" lon="6.926522"><ele></ele><time>2014-4-1T5:29:54Z</time></trkpt>
<trkpt lat="46.538025" lon="6.926105"><ele></ele><time>2014-4-1T5:29:57Z</time></trkpt>
<trkpt lat="46.537506" lon="6.926126"><ele></ele><time>2014-4-1T5:30:0Z</time></trkpt>
<trkpt lat="46.537418" lon="6.925963"><ele></ele><time>2014-4-1T5:30:3Z</time></trkpt>
<trkpt lat="46.537090" lon="6.925842"><ele></ele><time>2014-4-1T5:30:6Z</time></trkpt>
<trkpt lat="46.535980" lon="6.926246"><ele></ele><time>2014-4-1T5:30:9Z</time></trkpt>
<trkpt lat="46.535572" lon="6.925837"><ele></ele><time>2014-4-1T5:30:12Z</time></trkpt>
<trkpt lat="46.535107" lon="6.925515"><ele></ele><time>2014-4-1T5:30:15Z</time></trkpt>
<trkpt lat="46.534592" lon="6.925405"><ele></ele><time>2014-4-1T5:30:18Z</time></trkpt>
<trkpt lat="46.534134" lon="6.925377"><ele></ele><time>2014-4-1T5:30:21Z</time></trkpt>
<trkpt lat="46.533691" lon="6.925368"><ele></ele><time>2014-4-1T5:30:24Z</time></trkpt>
<trkpt lat="46.533325" lon="6.925189"><ele></ele><time>2014-4-1T5:30:27Z</time></trkpt>
<trkpt lat="46.533283" lon="6.924739"><ele></ele><time>2014-4-1T5:30:30Z</time></trkpt>
<trkpt lat="46.533321" lon="6.924244"><ele></ele><time>2014-4-1T5:30:33Z</time></trkpt>
<trkpt lat="46.533260" lon="6.923512"><ele></ele><time>2014-4-1T5:30:36Z</time></trkpt>
<trkpt lat="46.532948" lon="6.922767"><ele></ele><time>2014-4-1T5:30:39Z</time></trkpt>
<trkpt lat="46.532635" lon="6.922128"><ele></ele><time>2014-4-1T5:30:42Z</time></trkpt>
<trkpt lat="46.532318" lon="6.921643"><ele></ele><time>2014-4-1T5:30:45Z</time></trkpt>
<trkpt lat="46.532158" lon="6.921086"><ele></ele><time>2014-4-1T5:30:48Z</time></trkpt>
<trkpt lat="46.531979" lon="6.920435"><ele></ele><time>2014-4-1T5:30:51Z</time></trkpt>
<trkpt lat="46.531654" lon="6.919920"><ele></ele><time>2014-4-1T5:30:54Z</time></trkpt>
<trkpt lat="46.531479" lon="6.919343"><ele></ele><time>2014-4-1T5:30:57Z</time></trkpt>
<trkpt lat="46.531345" lon="6.918816"><ele></ele><time>2014-4-1T5:31:0Z</time></trkpt>
<trkpt lat="46.531097" lon="6.918377"><ele></ele><time>2014-4-1T5:31:3Z</time></trkpt>
<trkpt lat="46.530746" lon="6.918063"><ele></ele><time>2014-4-1T5:31:6Z</time></trkpt>
<trkpt lat="46.530373" lon="6.917920"><ele></ele><time>2014-4-1T5:31:9Z</time></trkpt>
<trkpt lat="46.530174" lon="6.917424"><ele></ele><time>2014-4-1T5:31:12Z</time></trkpt>
<trkpt lat="46.529831" lon="6.917336"><ele></ele><time>2014-4-1T5:31:15Z</time></trkpt>
<trkpt lat="46.529808" lon="6.916902"><ele></ele><time>2014-4-1T5:31:18Z</time></trkpt>
<trkpt lat="46.530045" lon="6.916411"><ele></ele><time>2014-4-1T5:31:21Z</time></trkpt>
<trkpt lat="46.529842" lon="6.916041"><ele></ele><time>2014-4-1T5:31:24Z</time></trkpt>
<trkpt lat="46.529621" lon="6.915691"><ele></ele><time>2014-4-1T5:31:27Z</time></trkpt>
<trkpt lat="46.529560" lon="6.915123"><ele></ele><time>2014-4-1T5:31:30Z</time></trkpt>
<trkpt lat="46.529739" lon="6.914574"><ele></ele><time>2014-4-1T5:31:33Z</time></trkpt>
<trkpt lat="46.529808" lon="6.913957"><ele></ele><time>2014-4-1T5:31:36Z</time></trkpt>
<trkpt lat="46.529873" lon="6.913337"><ele></ele><time>2014-4-1T5:31:39Z</time></trkpt>
<trkpt lat="46.530285" lon="6.912992"><ele></ele><time>2014-4-1T5:31:42Z</time></trkpt>
<trkpt lat="46.530853" lon="6.912642"><ele></ele><time>2014-4-1T5:31:45Z</time></trkpt>
<trkpt lat="46.531189" lon="6.912253"><ele></ele><time>2014-4-1T5:31:48Z</time></trkpt>
<trkpt lat="46.531075" lon="6.912004"><ele></ele><time>2014-4-1T5:31:51Z</time></trkpt>
<trkpt lat="46.530838" lon="6.911632"><ele></ele><time>2014-4-1T5:31:54Z</time></trkpt>
<trkpt lat="46.530792" lon="6.911081"><ele></ele><time>2014-4-1T5:31:57Z</time></trkpt>
<trkpt lat="46.530697" lon="6.910461"><ele></ele><time>2014-4-1T5:32:0Z</time></trkpt>
<trkpt lat="46.530518" lon="6.909859"><ele></ele><time>2014-4-1T5:32:3Z</time></trkpt>
<trkpt lat="46.530468" lon="6.909135"><ele></ele><time>2014-4-1T5:32:6Z</time></trkpt>
<trkpt lat="46.530312" lon="6.908489"><ele></ele><time>2014-4-1T5:32:9Z</time></trkpt>
<trkpt lat="46.530346" lon="6.907958"><ele></ele><time>2014-4-1T5:32:12Z</time></trkpt>
<trkpt lat="46.530231" lon="6.907758"><ele></ele><time>2014-4-1T5:32:15Z</time></trkpt>
<trkpt lat="46.529896" lon="6.907794"><ele></ele><time>2014-4-1T5:32:18Z</time></trkpt>
<trkpt lat="46.529507" lon="6.907845"><ele></ele><time>2014-4-1T5:32:21Z</time></trkpt>
<trkpt lat="46.529270" lon="6.907809"><ele></ele><time>2014-4-1T5:32:24Z</time></trkpt>
<trkpt lat="46.529072" lon="6.907626"><ele></ele><time>2014-4-1T5:32:27Z</time></trkpt>
<trkpt lat="46.528927" lon="6.907219"><ele></ele><time>2014-4-1T5:32:30Z</time></trkpt>
<trkpt lat="46.528732" lon="6.906743"><ele></ele><time>2014-4-1T5:32:33Z</time></trkpt>
<trkpt lat="46.528507" lon="6.906231"><ele></ele><time>2014-4-1T5:32:36Z</time></trkpt>
<trkpt lat="46.528278" lon="6.905694"><ele></ele><time>2014-4-1T5:32:39Z</time></trkpt>
<trkpt lat="46.528038" lon="6.905141"><ele></ele><time>2014-4-1T5:32:42Z</time></trkpt>
<trkpt lat="46.527775" lon="6.904633"><ele></ele><time>2014-4-1T5:32:45Z</time></trkpt>
<trkpt lat="46.527557" lon="6.904140"><ele></ele><time>2014-4-1T5:32:48Z</time></trkpt>
<trkpt lat="46.527393" lon="6.903547"><ele></ele><time>2014-4-1T5:32:51Z</time></trkpt>
<trkpt lat="46.527145" lon="6.903073"><ele></ele><time>2014-4-1T5:32:54Z</time></trkpt>
<trkpt lat="46.526886" lon="6.902712"><ele></ele><time>2014-4-1T5:32:57Z</time></trkpt>
<trkpt lat="46.526726" lon="6.902300"><ele></ele><time>2014-4-1T5:33:0Z</time></trkpt>
<trkpt lat="46.526871" lon="6.901931"><ele></ele><time>2014-4-1T5:33:3Z</time></trkpt>
<trkpt lat="46.526917" lon="6.901419"><ele></ele><time>2014-4-1T5:33:6Z</time></trkpt>
<trkpt lat="46.526939" lon="6.900922"><ele></ele><time>2014-4-1T5:33:9Z</time></trkpt>
<trkpt lat="46.526676" lon="6.900700"><ele></ele><time>2014-4-1T5:33:12Z</time></trkpt>
<trkpt lat="46.526352" lon="6.900410"><ele></ele><time>2014-4-1T5:33:15Z</time></trkpt>
<trkpt lat="46.525993" lon="6.900231"><ele></ele><time>2014-4-1T5:33:18Z</time></trkpt>
<trkpt lat="46.525623" lon="6.900216"><ele></ele><time>2014-4-1T5:33:21Z</time></trkpt>
<trkpt lat="46.525249" lon="6.900189"><ele></ele><time>2014-4-1T5:33:24Z</time></trkpt>
<trkpt lat="46.524918" lon="6.900074"><ele></ele><time>2014-4-1T5:33:27Z</time></trkpt>
<trkpt lat="46.524616" lon="6.899954"><ele></ele><time>2014-4-1T5:33:30Z</time></trkpt>
<trkpt lat="46.524323" lon="6.899840"><ele></ele><time>2014-4-1T5:33:33Z</time></trkpt>
<trkpt lat="46.524067" lon="6.899699"><ele></ele><time>2014-4-1T5:33:36Z</time></trkpt>
<trkpt lat="46.523804" lon="6.899555"><ele></ele><time>2014-4-1T5:33:39Z</time></trkpt>
<trkpt lat="46.523746" lon="6.899260"><ele></ele><time>2014-4-1T5:33:42Z</time></trkpt>
</trkseg></trk></gpx>